PWSweather.com
Personal Weather Stations
Station Observations
KV9EWX
Winnebago, Il, Winnebago, IL 61088

Winnebago, IlWinnebago, IL 61088

Lat: 42.261175, Lon: -89.236369

Elevation: 892

Station Type: Lacrosse ws-2811

Latest ConditionsUpdated 7:31:02 PM CDT Saturday, Apr 30, 2016
Currently Today's Max Today's Min Today's Average
Temperature 36.9°F2.7°C 37.1°F2.8°C 36.9°F2.7°C 37.1°F2.8°C
Dew Point 14.0°F-10.0°C 14.8°F-9.6°C 14.0°F-10.0°C 14.8°F-9.6°C
Winds 3.2 mph N5.1 kmh N 11.7 mph NE18.8 kmh NE - 6.8 mph 10.9 kmh
Wind Gusts 27.8 mph44.7 kmh 28.5 mph45.9 kmh - -
Humidity 39% 40% 39% 40%
Pressure 29.57 in1001.4 mb 29.57 in1001.4 mb 29.56 in1001.0 mb -
Precipitation - 0.63 in16.0 mm - -
Hour Temp Dew Point Humidity Winds Wind Gusts Pressure Precip Precip Rate Daily Precip Total
07:31 PM 36.9°F2.7°C 14.0°F-10.0°C 39% 3.2 mph N5.1 kmh N 27.8 mph44.7 kmh 29.57 in1001.4 mb 0.13 in3.3 mm 0.00 in0.0 mm 0.63 in16.0 mm
07:30 PM 36.9°F2.7°C 14.6°F-9.7°C 40% 1.5 mph N2.4 kmh N 27.8 mph44.7 kmh 29.57 in1001.4 mb 0.14 in3.6 mm 0.00 in0.0 mm 0.63 in16.0 mm
07:29 PM 36.9°F2.7°C 14.6°F-9.7°C 40% 2.1 mph N3.4 kmh N 27.8 mph44.7 kmh 29.57 in1001.4 mb 0.14 in3.6 mm 0.00 in0.0 mm 0.63 in16.0 mm
07:28 PM 36.9°F2.7°C 14.6°F-9.7°C 40% 5.3 mph NNW8.5 kmh NNW 27.8 mph44.7 kmh 29.56 in1001.0 mb 0.14 in3.6 mm 0.00 in0.0 mm 0.63 in16.0 mm
07:27 PM 36.9°F2.7°C 14.6°F-9.7°C 40% 10.4 mph NNE16.7 kmh NNE 27.8 mph44.7 kmh 29.56 in1001.0 mb 0.15 in3.8 mm 0.00 in0.0 mm 0.63 in16.0 mm
07:26 PM 36.9°F2.7°C 14.6°F-9.7°C 40% 10.7 mph NE17.2 kmh NE 28.5 mph45.9 kmh 29.57 in1001.4 mb 0.15 in3.8 mm 0.00 in0.0 mm 0.63 in16.0 mm
07:25 PM 37.1°F2.8°C 14.8°F-9.6°C 40% 4.7 mph NNE7.6 kmh NNE 28.5 mph45.9 kmh 29.56 in1001.0 mb 0.16 in4.1 mm 0.00 in0.0 mm 0.63 in16.0 mm
07:24 PM 37.1°F2.8°C 14.8°F-9.6°C 40% 5.0 mph N8.0 kmh N 28.5 mph45.9 kmh 29.56 in1001.0 mb 0.16 in4.1 mm 0.00 in0.0 mm 0.63 in16.0 mm
07:23 PM 37.1°F2.8°C 14.8°F-9.6°C 40% 8.0 mph N12.9 kmh N 28.5 mph45.9 kmh 29.56 in1001.0 mb 0.16 in4.1 mm 0.60 in15.2 mm 0.63 in16.0 mm
07:22 PM 37.1°F2.8°C 14.8°F-9.6°C 40% 6.4 mph N10.3 kmh N 28.5 mph45.9 kmh 29.56 in1001.0 mb 0.15 in3.8 mm 0.00 in0.0 mm 0.62 in15.7 mm
07:21 PM 37.1°F2.8°C 14.8°F-9.6°C 40% 4.4 mph NW7.1 kmh NW 28.5 mph45.9 kmh 29.56 in1001.0 mb 0.15 in3.8 mm 0.00 in0.0 mm 0.62 in15.7 mm
07:20 PM 37.1°F2.8°C 14.8°F-9.6°C 40% 5.3 mph N8.5 kmh N 28.5 mph45.9 kmh 29.56 in1001.0 mb 0.15 in3.8 mm 0.60 in15.2 mm 0.62 in15.7 mm
07:19 PM 37.1°F2.8°C 14.8°F-9.6°C 40% 4.3 mph NE6.9 kmh NE 28.5 mph45.9 kmh 29.56 in1001.0 mb 0.14 in3.6 mm 0.00 in0.0 mm 0.60 in15.2 mm
07:18 PM 37.1°F2.8°C 14.8°F-9.6°C 40% 8.0 mph NNE12.9 kmh NNE 28.5 mph45.9 kmh 29.56 in1001.0 mb 0.14 in3.6 mm 0.00 in0.0 mm 0.60 in15.2 mm
07:17 PM 37.1°F2.8°C 14.8°F-9.6°C 40% 8.4 mph NNE13.5 kmh NNE 28.5 mph45.9 kmh 29.56 in1001.0 mb 0.14 in3.6 mm 0.00 in0.0 mm 0.60 in15.2 mm
07:16 PM 37.1°F2.8°C 14.8°F-9.6°C 40% 4.8 mph NNE7.7 kmh NNE 19.9 mph32.0 kmh 29.56 in1001.0 mb 0.14 in3.6 mm 0.00 in0.0 mm 0.60 in15.2 mm
07:15 PM 37.1°F2.8°C 14.8°F-9.6°C 40% 9.1 mph NE14.6 kmh NE 19.9 mph32.0 kmh 29.56 in1001.0 mb 0.14 in3.6 mm 0.00 in0.0 mm 0.60 in15.2 mm
07:14 PM 37.1°F2.8°C 14.8°F-9.6°C 40% 11.4 mph NE18.3 kmh NE 19.9 mph32.0 kmh 29.56 in1001.0 mb 0.14 in3.6 mm 0.00 in0.0 mm 0.60 in15.2 mm
07:13 PM 37.1°F2.8°C 14.8°F-9.6°C 40% 5.8 mph NE9.3 kmh NE 24.7 mph39.8 kmh 29.56 in1001.0 mb 0.14 in3.6 mm 0.00 in0.0 mm 0.60 in15.2 mm
07:12 PM 37.1°F2.8°C 14.8°F-9.6°C 40% 2.0 mph E3.2 kmh E 24.7 mph39.8 kmh 29.56 in1001.0 mb 0.14 in3.6 mm 0.00 in0.0 mm 0.59 in15.0 mm
07:11 PM 37.1°F2.8°C 14.8°F-9.6°C 40% 5.0 mph N8.0 kmh N 24.7 mph39.8 kmh 29.57 in1001.4 mb 0.14 in3.6 mm 0.60 in15.2 mm 0.59 in15.0 mm
07:10 PM 37.1°F2.8°C 14.8°F-9.6°C 40% 7.8 mph N12.6 kmh N 24.7 mph39.8 kmh 29.57 in1001.4 mb 0.13 in3.3 mm 0.60 in15.2 mm 0.58 in14.7 mm
07:09 PM 37.1°F2.8°C 14.8°F-9.6°C 40% 8.2 mph NNE13.2 kmh NNE 24.7 mph39.8 kmh 29.57 in1001.4 mb 0.12 in3.0 mm 0.00 in0.0 mm 0.57 in14.5 mm
07:08 PM 37.1°F2.8°C 14.8°F-9.6°C 40% 5.8 mph ENE9.3 kmh ENE 24.7 mph39.8 kmh 29.57 in1001.4 mb 0.12 in3.0 mm 0.60 in15.2 mm 0.57 in14.5 mm
07:07 PM 37.1°F2.8°C 14.8°F-9.6°C 40% 4.7 mph NE7.6 kmh NE 24.7 mph39.8 kmh 29.57 in1001.4 mb 0.11 in2.8 mm 0.00 in0.0 mm 0.56 in14.2 mm
07:06 PM 37.1°F2.8°C 14.8°F-9.6°C 40% 6.2 mph NNE10.0 kmh NNE 24.7 mph39.8 kmh 29.57 in1001.4 mb 0.11 in2.8 mm 0.60 in15.2 mm 0.56 in14.2 mm
07:05 PM 37.1°F2.8°C 14.8°F-9.6°C 40% 10.1 mph NNE16.3 kmh NNE 24.7 mph39.8 kmh 29.57 in1001.4 mb 0.10 in2.5 mm 0.00 in0.0 mm 0.55 in14.0 mm
07:04 PM 37.1°F2.8°C 14.8°F-9.6°C 40% 10.2 mph NE16.4 kmh NE 24.7 mph39.8 kmh 29.57 in1001.4 mb 0.10 in2.5 mm 0.60 in15.2 mm 0.55 in14.0 mm
07:03 PM 37.1°F2.8°C 14.8°F-9.6°C 40% 8.5 mph NNE13.7 kmh NNE 21.2 mph34.1 kmh 29.57 in1001.4 mb 0.09 in2.3 mm 0.00 in0.0 mm 0.54 in13.7 mm
07:02 PM 37.1°F2.8°C 14.8°F-9.6°C 40% 10.4 mph N16.7 kmh N 21.2 mph34.1 kmh 29.57 in1001.4 mb 0.09 in2.3 mm 0.00 in0.0 mm 0.54 in13.7 mm
07:01 PM 37.1°F2.8°C 14.8°F-9.6°C 40% 9.3 mph NNE15.0 kmh NNE 21.2 mph34.1 kmh 29.57 in1001.4 mb 0.09 in2.3 mm 0.00 in0.0 mm 0.54 in13.7 mm
07:00 PM 37.1°F2.8°C 14.8°F-9.6°C 40% 7.8 mph N12.6 kmh N 16.1 mph25.9 kmh 29.57 in1001.4 mb 0.09 in2.3 mm 0.00 in0.0 mm 0.54 in13.7 mm
06:59 PM 37.1°F2.8°C 14.8°F-9.6°C 40% 6.7 mph NW10.8 kmh NW 16.1 mph25.9 kmh 29.56 in1001.0 mb 0.09 in2.3 mm 0.60 in15.2 mm 0.54 in13.7 mm
06:58 PM 37.1°F2.8°C 14.8°F-9.6°C 40% 5.8 mph NNE9.3 kmh NNE 14.9 mph24.0 kmh 29.56 in1001.0 mb 0.08 in2.0 mm 0.00 in0.0 mm 0.53 in13.5 mm
06:57 PM 37.1°F2.8°C 14.8°F-9.6°C 40% 5.9 mph NNE9.5 kmh NNE 14.9 mph24.0 kmh 29.56 in1001.0 mb 0.08 in2.0 mm 0.00 in0.0 mm 0.53 in13.5 mm
06:56 PM 37.1°F2.8°C 14.8°F-9.6°C 40% 4.5 mph ENE7.2 kmh ENE 12.6 mph20.3 kmh 29.56 in1001.0 mb 0.08 in2.0 mm 0.00 in0.0 mm 0.53 in13.5 mm
06:55 PM 37.1°F2.8°C 14.8°F-9.6°C 40% 5.3 mph NE8.5 kmh NE 14.9 mph24.0 kmh 29.56 in1001.0 mb 0.08 in2.0 mm 0.00 in0.0 mm 0.53 in13.5 mm
06:54 PM 36.9°F2.7°C 14.6°F-9.7°C 40% 4.4 mph NE7.1 kmh NE 14.9 mph24.0 kmh 29.56 in1001.0 mb 0.08 in2.0 mm 0.60 in15.2 mm 0.53 in13.5 mm
06:53 PM 37.1°F2.8°C 14.8°F-9.6°C 40% 3.3 mph SSE5.3 kmh SSE 14.9 mph24.0 kmh 29.56 in1001.0 mb 0.07 in1.8 mm 0.00 in0.0 mm 0.52 in13.2 mm
06:52 PM 37.1°F2.8°C 14.8°F-9.6°C 40% 3.8 mph ENE6.1 kmh ENE 14.9 mph24.0 kmh 29.55 in1000.7 mb 0.07 in1.8 mm 0.00 in0.0 mm 0.52 in13.2 mm
06:51 PM 37.1°F2.8°C 14.8°F-9.6°C 40% 4.7 mph NNW7.6 kmh NNW 14.9 mph24.0 kmh 29.55 in1000.7 mb 0.07 in1.8 mm 0.00 in0.0 mm 0.52 in13.2 mm
06:50 PM 37.1°F2.8°C 14.8°F-9.6°C 40% 6.8 mph NNE10.9 kmh NNE 15.2 mph24.5 kmh 29.55 in1000.7 mb 0.07 in1.8 mm 0.00 in0.0 mm 0.52 in13.2 mm
06:49 PM 36.9°F2.7°C 14.6°F-9.7°C 40% 5.3 mph NE8.5 kmh NE 15.2 mph24.5 kmh 29.55 in1000.7 mb 0.08 in2.0 mm 0.00 in0.0 mm 0.52 in13.2 mm
06:48 PM 36.9°F2.7°C 14.6°F-9.7°C 40% 3.9 mph NNE6.3 kmh NNE 15.2 mph24.5 kmh 29.54 in1000.3 mb 0.08 in2.0 mm 0.00 in0.0 mm 0.52 in13.2 mm
06:47 PM 36.9°F2.7°C 14.6°F-9.7°C 40% 5.9 mph N9.5 kmh N 15.2 mph24.5 kmh 29.54 in1000.3 mb 0.08 in2.0 mm 0.00 in0.0 mm 0.52 in13.2 mm
06:46 PM 36.9°F2.7°C 14.6°F-9.7°C 40% 8.1 mph NNE13.0 kmh NNE 15.2 mph24.5 kmh 29.54 in1000.3 mb 0.08 in2.0 mm 0.00 in0.0 mm 0.52 in13.2 mm
06:45 PM 36.9°F2.7°C 14.6°F-9.7°C 40% 6.4 mph NE10.3 kmh NE 15.2 mph24.5 kmh 29.54 in1000.3 mb 0.08 in2.0 mm 0.00 in0.0 mm 0.52 in13.2 mm
06:44 PM 36.9°F2.7°C 14.6°F-9.7°C 40% 5.3 mph NNE8.5 kmh NNE 15.2 mph24.5 kmh 29.54 in1000.3 mb 0.08 in2.0 mm 0.00 in0.0 mm 0.52 in13.2 mm
06:43 PM 36.9°F2.7°C 14.6°F-9.7°C 40% 5.2 mph E8.4 kmh E 15.2 mph24.5 kmh 29.54 in1000.3 mb 0.09 in2.3 mm 0.00 in0.0 mm 0.52 in13.2 mm
06:42 PM 36.9°F2.7°C 14.6°F-9.7°C 40% 5.2 mph E8.4 kmh E 26.3 mph42.3 kmh 29.53 in1000.0 mb 0.09 in2.3 mm 0.00 in0.0 mm 0.52 in13.2 mm
06:41 PM 36.9°F2.7°C 14.6°F-9.7°C 40% 6.0 mph N9.7 kmh N 26.3 mph42.3 kmh 29.53 in1000.0 mb 0.09 in2.3 mm 0.00 in0.0 mm 0.52 in13.2 mm
06:40 PM 36.9°F2.7°C 14.6°F-9.7°C 40% 5.4 mph N8.7 kmh N 26.3 mph42.3 kmh 29.53 in1000.0 mb 0.09 in2.3 mm 0.00 in0.0 mm 0.52 in13.2 mm
06:39 PM 36.9°F2.7°C 14.6°F-9.7°C 40% 5.2 mph ENE8.4 kmh ENE 26.3 mph42.3 kmh 29.53 in1000.0 mb 0.09 in2.3 mm 0.60 in15.2 mm 0.52 in13.2 mm
06:38 PM 37.1°F2.8°C 14.8°F-9.6°C 40% 6.0 mph ENE9.7 kmh ENE 26.3 mph42.3 kmh 29.53 in1000.0 mb 0.08 in2.0 mm 0.00 in0.0 mm 0.51 in13.0 mm
06:37 PM 37.1°F2.8°C 14.8°F-9.6°C 40% 5.8 mph N9.3 kmh N 26.3 mph42.3 kmh 29.53 in1000.0 mb 0.08 in2.0 mm 0.00 in0.0 mm 0.51 in13.0 mm
06:36 PM 37.1°F2.8°C 14.8°F-9.6°C 40% 5.0 mph N8.0 kmh N 26.3 mph42.3 kmh 29.53 in1000.0 mb 0.08 in2.0 mm 0.60 in15.2 mm 0.51 in13.0 mm
06:35 PM 37.1°F2.8°C 14.8°F-9.6°C 40% 4.1 mph NE6.6 kmh NE 26.3 mph42.3 kmh 29.53 in1000.0 mb 0.07 in1.8 mm 0.00 in0.0 mm 0.49 in12.4 mm
06:34 PM 37.1°F2.8°C 14.8°F-9.6°C 40% 6.6 mph WNW10.6 kmh WNW 26.3 mph42.3 kmh 29.53 in1000.0 mb 0.07 in1.8 mm 0.00 in0.0 mm 0.49 in12.4 mm
06:33 PM 37.1°F2.8°C 14.8°F-9.6°C 40% 10.0 mph NW16.1 kmh NW 26.3 mph42.3 kmh 29.53 in1000.0 mb 0.08 in2.0 mm 0.00 in0.0 mm 0.49 in12.4 mm
06:32 PM 37.1°F2.8°C 14.8°F-9.6°C 40% 7.9 mph NNW12.7 kmh NNW 26.3 mph42.3 kmh 29.53 in1000.0 mb 0.08 in2.0 mm 0.00 in0.0 mm 0.49 in12.4 mm
06:31 PM 37.1°F2.8°C 14.8°F-9.6°C 40% 3.3 mph NNE5.3 kmh NNE 18.0 mph29.0 kmh 29.53 in1000.0 mb 0.08 in2.0 mm 0.60 in15.2 mm 0.49 in12.4 mm
06:30 PM 37.1°F2.8°C 14.8°F-9.6°C 40% 2.2 mph 3.5 kmh 18.0 mph29.0 kmh 29.54 in1000.3 mb 0.07 in1.8 mm 0.00 in0.0 mm 0.48 in12.2 mm
06:29 PM 37.1°F2.8°C 14.8°F-9.6°C 40% 3.0 mph N4.8 kmh N 18.0 mph29.0 kmh 29.54 in1000.3 mb 0.07 in1.8 mm 0.00 in0.0 mm 0.48 in12.2 mm
06:28 PM 37.1°F2.8°C 14.8°F-9.6°C 40% 7.3 mph SE11.7 kmh SE 18.0 mph29.0 kmh 29.55 in1000.7 mb 0.07 in1.8 mm 0.00 in0.0 mm 0.48 in12.2 mm
06:27 PM 37.1°F2.8°C 14.8°F-9.6°C 40% 8.5 mph SE13.7 kmh SE 18.0 mph29.0 kmh 29.55 in1000.7 mb 0.07 in1.8 mm 0.00 in0.0 mm 0.47 in11.9 mm
06:26 PM 37.1°F2.8°C 14.8°F-9.6°C 40% 3.4 mph SW5.5 kmh SW 18.0 mph29.0 kmh 29.55 in1000.7 mb 0.07 in1.8 mm 0.60 in15.2 mm 0.47 in11.9 mm
06:25 PM 37.1°F2.8°C 14.8°F-9.6°C 40% 3.2 mph S5.1 kmh S 11.7 mph18.8 kmh 29.55 in1000.7 mb 0.06 in1.5 mm 0.00 in0.0 mm 0.46 in11.7 mm
06:24 PM 37.1°F2.8°C 14.8°F-9.6°C 40% 4.8 mph E7.7 kmh E 11.7 mph18.8 kmh 29.55 in1000.7 mb 0.06 in1.5 mm 0.00 in0.0 mm 0.46 in11.7 mm
06:23 PM 37.1°F2.8°C 14.8°F-9.6°C 40% 5.2 mph NE8.4 kmh NE 19.9 mph32.0 kmh 29.55 in1000.7 mb 0.06 in1.5 mm 0.00 in0.0 mm 0.46 in11.7 mm
06:22 PM 37.1°F2.8°C 14.8°F-9.6°C 40% 6.5 mph NE10.5 kmh NE 19.9 mph32.0 kmh 29.55 in1000.7 mb 0.06 in1.5 mm 0.00 in0.0 mm 0.46 in11.7 mm
06:21 PM 37.1°F2.8°C 14.8°F-9.6°C 40% 6.1 mph E9.8 kmh E 19.9 mph32.0 kmh 29.55 in1000.7 mb 0.06 in1.5 mm 0.00 in0.0 mm 0.46 in11.7 mm
06:20 PM 37.1°F2.8°C 14.8°F-9.6°C 40% 5.7 mph E9.2 kmh E 19.9 mph32.0 kmh 29.55 in1000.7 mb 0.07 in1.8 mm 0.00 in0.0 mm 0.46 in11.7 mm
06:19 PM 37.1°F2.8°C 14.8°F-9.6°C 40% 6.9 mph E11.1 kmh E 19.9 mph32.0 kmh 29.54 in1000.3 mb 0.07 in1.8 mm 0.00 in0.0 mm 0.46 in11.7 mm
06:18 PM 37.1°F2.8°C 14.8°F-9.6°C 40% 7.9 mph W12.7 kmh W 19.9 mph32.0 kmh 29.54 in1000.3 mb 0.08 in2.0 mm 0.00 in0.0 mm 0.46 in11.7 mm
06:17 PM 37.1°F2.8°C 14.8°F-9.6°C 40% 7.5 mph WNW12.1 kmh WNW 19.9 mph32.0 kmh 29.54 in1000.3 mb 0.08 in2.0 mm 0.00 in0.0 mm 0.46 in11.7 mm
06:16 PM 37.1°F2.8°C 14.8°F-9.6°C 40% 5.4 mph NNW8.7 kmh NNW 19.9 mph32.0 kmh 29.54 in1000.3 mb 0.08 in2.0 mm 0.00 in0.0 mm 0.46 in11.7 mm
06:15 PM 37.1°F2.8°C 14.8°F-9.6°C 40% 8.3 mph NW13.4 kmh NW 19.9 mph32.0 kmh 29.54 in1000.3 mb 0.08 in2.0 mm 0.00 in0.0 mm 0.46 in11.7 mm
06:14 PM 37.2°F2.9°C 14.8°F-9.6°C 40% 12.1 mph N19.5 kmh N 19.9 mph32.0 kmh 29.54 in1000.3 mb 0.08 in2.0 mm 0.00 in0.0 mm 0.46 in11.7 mm
06:13 PM 37.1°F2.8°C 14.8°F-9.6°C 40% 10.3 mph NE16.6 kmh NE 19.9 mph32.0 kmh 29.54 in1000.3 mb 0.08 in2.0 mm 0.00 in0.0 mm 0.46 in11.7 mm
06:12 PM 37.2°F2.9°C 14.8°F-9.6°C 40% 5.6 mph E9.0 kmh E 16.4 mph26.4 kmh 29.54 in1000.3 mb 0.08 in2.0 mm 0.00 in0.0 mm 0.45 in11.4 mm
06:11 PM 37.2°F2.9°C 14.8°F-9.6°C 40% 4.0 mph E6.4 kmh E 16.4 mph26.4 kmh 29.54 in1000.3 mb 0.08 in2.0 mm 0.00 in0.0 mm 0.45 in11.4 mm
06:10 PM 37.2°F2.9°C 14.8°F-9.6°C 40% 3.4 mph NE5.5 kmh NE 16.4 mph26.4 kmh 29.53 in1000.0 mb 0.08 in2.0 mm 0.00 in0.0 mm 0.45 in11.4 mm
06:09 PM 37.2°F2.9°C 14.8°F-9.6°C 40% 3.6 mph NE5.8 kmh NE 16.4 mph26.4 kmh 29.53 in1000.0 mb 0.09 in2.3 mm 0.00 in0.0 mm 0.45 in11.4 mm
06:08 PM 37.2°F2.9°C 14.8°F-9.6°C 40% 6.1 mph E9.8 kmh E 16.4 mph26.4 kmh 29.53 in1000.0 mb 0.09 in2.3 mm 0.00 in0.0 mm 0.45 in11.4 mm
06:07 PM 37.1°F2.8°C 14.8°F-9.6°C 40% 6.4 mph E10.3 kmh E 16.4 mph26.4 kmh 29.53 in1000.0 mb 0.11 in2.8 mm 0.00 in0.0 mm 0.45 in11.4 mm
06:06 PM 37.1°F2.8°C 15.3°F-9.3°C 41% 5.3 mph NE8.5 kmh NE 16.4 mph26.4 kmh 29.53 in1000.0 mb 0.11 in2.8 mm 0.00 in0.0 mm 0.45 in11.4 mm
06:05 PM 37.1°F2.8°C 14.8°F-9.6°C 40% 6.9 mph NNE11.1 kmh NNE 16.4 mph26.4 kmh 29.53 in1000.0 mb 0.11 in2.8 mm 0.00 in0.0 mm 0.45 in11.4 mm
06:04 PM 37.2°F2.9°C 14.8°F-9.6°C 40% 6.1 mph N9.8 kmh N 12.1 mph19.5 kmh 29.53 in1000.0 mb 0.11 in2.8 mm 0.00 in0.0 mm 0.45 in11.4 mm
06:03 PM 37.2°F2.9°C 14.8°F-9.6°C 40% 5.3 mph NNE8.5 kmh NNE 11.0 mph17.7 kmh 29.53 in1000.0 mb 0.12 in3.0 mm 0.00 in0.0 mm 0.45 in11.4 mm
06:02 PM 37.1°F2.8°C 14.8°F-9.6°C 40% 4.5 mph NE7.2 kmh NE 11.0 mph17.7 kmh 29.53 in1000.0 mb 0.12 in3.0 mm 0.00 in0.0 mm 0.45 in11.4 mm
06:01 PM 37.1°F2.8°C 14.8°F-9.6°C 40% 4.4 mph NE7.1 kmh NE 13.3 mph21.4 kmh 29.53 in1000.0 mb 0.13 in3.3 mm 0.00 in0.0 mm 0.45 in11.4 mm
06:00 PM 37.1°F2.8°C 14.8°F-9.6°C 40% 6.6 mph NNE10.6 kmh NNE 13.3 mph21.4 kmh 29.53 in1000.0 mb 0.13 in3.3 mm 0.00 in0.0 mm 0.45 in11.4 mm
05:59 PM 37.2°F2.9°C 14.8°F-9.6°C 40% 6.5 mph N10.5 kmh N 14.5 mph23.3 kmh 29.53 in1000.0 mb 0.13 in3.3 mm 0.00 in0.0 mm 0.45 in11.4 mm
05:58 PM 37.2°F2.9°C 14.8°F-9.6°C 40% 5.3 mph N8.5 kmh N 14.5 mph23.3 kmh 29.53 in1000.0 mb 0.13 in3.3 mm 0.00 in0.0 mm 0.45 in11.4 mm
05:57 PM 37.2°F2.9°C 14.8°F-9.6°C 40% 3.7 mph NE6.0 kmh NE 14.5 mph23.3 kmh 29.53 in1000.0 mb 0.17 in4.3 mm 0.00 in0.0 mm 0.45 in11.4 mm
05:56 PM 37.2°F2.9°C 14.8°F-9.6°C 40% 3.7 mph ENE6.0 kmh ENE 14.5 mph23.3 kmh 29.53 in1000.0 mb 0.17 in4.3 mm 0.00 in0.0 mm 0.45 in11.4 mm
05:55 PM 37.1°F2.8°C 14.8°F-9.6°C 40% 4.6 mph NW7.4 kmh NW 35.2 mph56.6 kmh 29.53 in1000.0 mb 0.17 in4.3 mm 0.00 in0.0 mm 0.45 in11.4 mm
05:54 PM 37.1°F2.8°C 14.8°F-9.6°C 40% 3.9 mph N6.3 kmh N 35.2 mph56.6 kmh 29.53 in1000.0 mb 0.17 in4.3 mm 0.00 in0.0 mm 0.45 in11.4 mm
05:53 PM 37.2°F2.9°C 14.8°F-9.6°C 40% 5.8 mph E9.3 kmh E 35.2 mph56.6 kmh 29.53 in1000.0 mb 0.17 in4.3 mm 0.00 in0.0 mm 0.45 in11.4 mm
05:52 PM 37.2°F2.9°C 14.8°F-9.6°C 40% 7.4 mph ENE11.9 kmh ENE 35.2 mph56.6 kmh 29.53 in1000.0 mb 0.17 in4.3 mm 0.00 in0.0 mm 0.45 in11.4 mm
05:51 PM 37.2°F2.9°C 15.4°F-9.2°C 41% 7.2 mph NNE11.6 kmh NNE 35.2 mph56.6 kmh 29.53 in1000.0 mb 0.17 in4.3 mm 0.00 in0.0 mm 0.45 in11.4 mm
05:50 PM 37.1°F2.8°C 15.3°F-9.3°C 41% 6.8 mph NE10.9 kmh NE 35.2 mph56.6 kmh 29.53 in1000.0 mb 0.19 in4.8 mm 0.60 in15.2 mm 0.45 in11.4 mm
05:49 PM 37.2°F2.9°C 15.4°F-9.2°C 41% 5.1 mph NE8.2 kmh NE 35.2 mph56.6 kmh 29.53 in1000.0 mb 0.18 in4.6 mm 0.00 in0.0 mm 0.44 in11.2 mm
05:48 PM 37.2°F2.9°C 15.4°F-9.2°C 41% 4.3 mph E6.9 kmh E 35.2 mph56.6 kmh 29.53 in1000.0 mb 0.18 in4.6 mm 0.00 in0.0 mm 0.44 in11.2 mm
05:47 PM 37.2°F2.9°C 15.4°F-9.2°C 41% 12.3 mph ENE19.8 kmh ENE 35.2 mph56.6 kmh 29.53 in1000.0 mb 0.18 in4.6 mm 0.00 in0.0 mm 0.44 in11.2 mm
05:46 PM 37.2°F2.9°C 16.0°F-8.9°C 42% 16.0 mph NE25.7 kmh NE 35.2 mph56.6 kmh 29.53 in1000.0 mb 0.18 in4.6 mm 0.00 in0.0 mm 0.44 in11.2 mm
05:45 PM 37.2°F2.9°C 16.0°F-8.9°C 42% 7.1 mph NE11.4 kmh NE 35.2 mph56.6 kmh 29.54 in1000.3 mb 0.18 in4.6 mm 0.00 in0.0 mm 0.44 in11.2 mm
05:44 PM 37.2°F2.9°C 16.0°F-8.9°C 42% 4.3 mph NE6.9 kmh NE 25.0 mph40.2 kmh 29.54 in1000.3 mb 0.20 in5.1 mm 0.60 in15.2 mm 0.44 in11.2 mm
05:43 PM 37.2°F2.9°C 16.0°F-8.9°C 42% 3.7 mph NNE6.0 kmh NNE 25.0 mph40.2 kmh 29.54 in1000.3 mb 0.19 in4.8 mm 0.00 in0.0 mm 0.43 in10.9 mm
05:42 PM 37.2°F2.9°C 16.0°F-8.9°C 42% 3.4 mph NE5.5 kmh NE 25.0 mph40.2 kmh 29.54 in1000.3 mb 0.19 in4.8 mm 0.00 in0.0 mm 0.43 in10.9 mm
05:41 PM 37.2°F2.9°C 16.0°F-8.9°C 42% 2.5 mph NE4.0 kmh NE 25.0 mph40.2 kmh 29.53 in1000.0 mb 0.19 in4.8 mm 0.00 in0.0 mm 0.43 in10.9 mm
05:40 PM 37.2°F2.9°C 16.0°F-8.9°C 42% 9.6 mph N15.4 kmh N 25.0 mph40.2 kmh 29.53 in1000.0 mb 0.19 in4.8 mm 0.00 in0.0 mm 0.43 in10.9 mm
05:39 PM 37.3°F2.9°C 16.2°F-8.8°C 42% 9.5 mph N15.3 kmh N 25.0 mph40.2 kmh 29.53 in1000.0 mb 0.19 in4.8 mm 0.00 in0.0 mm 0.43 in10.9 mm
05:38 PM 37.2°F2.9°C 15.4°F-9.2°C 41% 5.0 mph S8.0 kmh S 15.2 mph24.5 kmh 29.53 in1000.0 mb 0.21 in5.3 mm 0.00 in0.0 mm 0.43 in10.9 mm
05:37 PM 37.2°F2.9°C 15.4°F-9.2°C 41% 6.5 mph ESE10.5 kmh ESE 15.2 mph24.5 kmh 29.53 in1000.0 mb 0.21 in5.3 mm 0.00 in0.0 mm 0.43 in10.9 mm
05:36 PM 37.3°F2.9°C 15.6°F-9.1°C 41% 6.3 mph E10.1 kmh E 15.2 mph24.5 kmh 29.52 in999.7 mb 0.21 in5.3 mm 0.00 in0.0 mm 0.43 in10.9 mm
05:35 PM 37.2°F2.9°C 14.8°F-9.6°C 40% 6.1 mph NNE9.8 kmh NNE 16.4 mph26.4 kmh 29.52 in999.7 mb 0.21 in5.3 mm 0.00 in0.0 mm 0.43 in10.9 mm
05:34 PM 37.3°F2.9°C 15.6°F-9.1°C 41% 6.5 mph N10.5 kmh N 16.4 mph26.4 kmh 29.51 in999.3 mb 0.22 in5.6 mm 0.60 in15.2 mm 0.43 in10.9 mm
05:33 PM 37.3°F2.9°C 15.0°F-9.4°C 40% 5.0 mph NW8.0 kmh NW 18.4 mph29.6 kmh 29.51 in999.3 mb 0.21 in5.3 mm 0.00 in0.0 mm 0.42 in10.7 mm
05:32 PM 37.3°F2.9°C 15.0°F-9.4°C 40% 4.1 mph ENE6.6 kmh ENE 18.4 mph29.6 kmh 29.50 in999.0 mb 0.21 in5.3 mm 0.00 in0.0 mm 0.42 in10.7 mm
05:31 PM 37.3°F2.9°C 15.0°F-9.4°C 40% 4.1 mph NNE6.6 kmh NNE 18.4 mph29.6 kmh 29.50 in999.0 mb 0.22 in5.6 mm 0.00 in0.0 mm 0.42 in10.7 mm
05:30 PM 37.2°F2.9°C 15.4°F-9.2°C 41% 5.1 mph E8.2 kmh E 18.4 mph29.6 kmh 29.49 in998.6 mb 0.22 in5.6 mm 0.00 in0.0 mm 0.42 in10.7 mm
05:29 PM 37.3°F2.9°C 15.0°F-9.4°C 40% 7.3 mph SSE11.7 kmh SSE 18.4 mph29.6 kmh 29.48 in998.3 mb 0.22 in5.6 mm 0.60 in15.2 mm 0.42 in10.7 mm
05:28 PM 37.3°F2.9°C 15.0°F-9.4°C 40% 9.8 mph W15.8 kmh W 18.7 mph30.1 kmh 29.48 in998.3 mb 0.21 in5.3 mm 0.00 in0.0 mm 0.41 in10.4 mm
05:27 PM 37.3°F2.9°C 15.0°F-9.4°C 40% 10.6 mph WNW17.1 kmh WNW 18.7 mph30.1 kmh 29.48 in998.3 mb 0.21 in5.3 mm 0.00 in0.0 mm 0.41 in10.4 mm
05:26 PM 37.3°F2.9°C 15.0°F-9.4°C 40% 8.9 mph W14.3 kmh W 18.7 mph30.1 kmh 29.48 in998.3 mb 0.21 in5.3 mm 0.00 in0.0 mm 0.41 in10.4 mm
05:25 PM 37.3°F2.9°C 15.0°F-9.4°C 40% 8.4 mph SSW13.5 kmh SSW 18.7 mph30.1 kmh 29.48 in998.3 mb 0.21 in5.3 mm 0.00 in0.0 mm 0.41 in10.4 mm
05:24 PM 37.3°F2.9°C 15.6°F-9.1°C 41% 8.3 mph S13.4 kmh S 18.7 mph30.1 kmh 29.47 in998.0 mb 0.22 in5.6 mm 0.00 in0.0 mm 0.41 in10.4 mm
05:23 PM 37.3°F2.9°C 15.6°F-9.1°C 41% 7.2 mph SW11.6 kmh SW 18.7 mph30.1 kmh 29.47 in998.0 mb 0.22 in5.6 mm 0.00 in0.0 mm 0.41 in10.4 mm
05:22 PM 37.3°F2.9°C 15.6°F-9.1°C 41% 7.6 mph SW12.2 kmh SW 18.7 mph30.1 kmh 29.48 in998.3 mb 0.22 in5.6 mm 0.60 in15.2 mm 0.41 in10.4 mm
05:21 PM 37.3°F2.9°C 15.6°F-9.1°C 41% 7.3 mph SW11.7 kmh SW 18.7 mph30.1 kmh 29.48 in998.3 mb 0.21 in5.3 mm 0.00 in0.0 mm 0.40 in10.2 mm
05:20 PM 37.5°F3.1°C 15.8°F-9.0°C 41% 10.9 mph S17.5 kmh S 18.7 mph30.1 kmh 29.49 in998.6 mb 0.21 in5.3 mm 0.00 in0.0 mm 0.40 in10.2 mm
05:19 PM 37.5°F3.1°C 15.8°F-9.0°C 41% 11.5 mph S18.5 kmh S 18.7 mph30.1 kmh 29.49 in998.6 mb 0.21 in5.3 mm 0.60 in15.2 mm 0.40 in10.2 mm
05:18 PM 37.5°F3.1°C 16.3°F-8.7°C 42% 6.7 mph SSW10.8 kmh SSW 18.7 mph30.1 kmh 29.50 in999.0 mb 0.20 in5.1 mm 0.00 in0.0 mm 0.38 in9.7 mm
05:17 PM 37.5°F3.1°C 16.3°F-8.7°C 42% 4.4 mph SW7.1 kmh SW 12.1 mph19.5 kmh 29.51 in999.3 mb 0.20 in5.1 mm 0.00 in0.0 mm 0.38 in9.7 mm
05:16 PM 37.5°F3.1°C 16.3°F-8.7°C 42% 5.2 mph SW8.4 kmh SW 12.1 mph19.5 kmh 29.51 in999.3 mb 0.20 in5.1 mm 0.00 in0.0 mm 0.38 in9.7 mm
05:15 PM 37.7°F3.2°C 16.5°F-8.6°C 42% 5.6 mph NW9.0 kmh NW 12.1 mph19.5 kmh 29.52 in999.7 mb 0.20 in5.1 mm 0.00 in0.0 mm 0.38 in9.7 mm
05:14 PM 37.7°F3.2°C 17.1°F-8.3°C 43% 3.0 mph ENE4.8 kmh ENE 12.1 mph19.5 kmh 29.52 in999.7 mb 0.20 in5.1 mm 0.00 in0.0 mm 0.38 in9.7 mm
05:13 PM 37.7°F3.2°C 17.1°F-8.3°C 43% 2.7 mph SSW4.3 kmh SSW 12.1 mph19.5 kmh 29.52 in999.7 mb 0.20 in5.1 mm 0.60 in15.2 mm 0.38 in9.7 mm
05:12 PM 37.7°F3.2°C 17.1°F-8.3°C 43% 4.6 mph NE7.4 kmh NE 12.1 mph19.5 kmh 29.52 in999.7 mb 0.19 in4.8 mm 0.00 in0.0 mm 0.37 in9.4 mm
05:11 PM 37.7°F3.2°C 17.1°F-8.3°C 43% 7.2 mph NE11.6 kmh NE 12.1 mph19.5 kmh 29.52 in999.7 mb 0.19 in4.8 mm 0.00 in0.0 mm 0.37 in9.4 mm
05:10 PM 37.7°F3.2°C 17.6°F-8.0°C 44% 7.7 mph ENE12.4 kmh ENE 12.1 mph19.5 kmh 29.52 in999.7 mb 0.19 in4.8 mm 0.60 in15.2 mm 0.37 in9.4 mm
05:09 PM 37.9°F3.3°C 17.8°F-7.9°C 44% 4.5 mph ESE7.2 kmh ESE 9.8 mph15.8 kmh 29.53 in1000.0 mb 0.18 in4.6 mm 0.00 in0.0 mm 0.36 in9.1 mm
05:08 PM 37.9°F3.3°C 18.3°F-7.6°C 45% 3.0 mph WNW4.8 kmh WNW 9.4 mph15.1 kmh 29.53 in1000.0 mb 0.18 in4.6 mm 1.80 in45.7 mm 0.36 in9.1 mm
05:07 PM 37.9°F3.3°C 18.3°F-7.6°C 45% 4.4 mph NW7.1 kmh NW 9.4 mph15.1 kmh 29.53 in1000.0 mb 0.15 in3.8 mm 0.00 in0.0 mm 0.34 in8.6 mm
05:06 PM 37.9°F3.3°C 18.3°F-7.6°C 45% 6.0 mph NNE9.7 kmh NNE 11.0 mph17.7 kmh 29.53 in1000.0 mb 0.15 in3.8 mm 0.00 in0.0 mm 0.34 in8.6 mm
05:05 PM 37.9°F3.3°C 18.3°F-7.6°C 45% 5.3 mph N8.5 kmh N 11.0 mph17.7 kmh 29.53 in1000.0 mb 0.15 in3.8 mm 0.00 in0.0 mm 0.34 in8.6 mm
05:04 PM 37.9°F3.3°C 18.3°F-7.6°C 45% 4.3 mph NW6.9 kmh NW 11.0 mph17.7 kmh 29.53 in1000.0 mb 0.15 in3.8 mm 0.60 in15.2 mm 0.34 in8.6 mm
05:03 PM 37.9°F3.3°C 18.3°F-7.6°C 45% 5.0 mph E8.0 kmh E 11.0 mph17.7 kmh 29.53 in1000.0 mb 0.14 in3.6 mm 0.60 in15.2 mm 0.33 in8.4 mm
05:02 PM 37.9°F3.3°C 18.3°F-7.6°C 45% 5.5 mph NE8.9 kmh NE 14.9 mph24.0 kmh 29.53 in1000.0 mb 0.13 in3.3 mm 0.00 in0.0 mm 0.32 in8.1 mm
05:01 PM 38.0°F3.3°C 18.4°F-7.6°C 45% 4.3 mph NNE6.9 kmh NNE 14.9 mph24.0 kmh 29.53 in1000.0 mb 0.13 in3.3 mm 0.00 in0.0 mm 0.32 in8.1 mm
05:00 PM 37.9°F3.3°C 18.3°F-7.6°C 45% 4.1 mph ENE6.6 kmh ENE 14.9 mph24.0 kmh 29.53 in1000.0 mb 0.13 in3.3 mm 0.00 in0.0 mm 0.32 in8.1 mm
04:59 PM 38.0°F3.3°C 18.4°F-7.6°C 45% 4.4 mph ESE7.1 kmh ESE 14.9 mph24.0 kmh 29.53 in1000.0 mb 0.13 in3.3 mm 0.60 in15.2 mm 0.32 in8.1 mm
04:58 PM 38.0°F3.3°C 18.4°F-7.6°C 45% 4.8 mph ESE7.7 kmh ESE 14.9 mph24.0 kmh 29.54 in1000.3 mb 0.12 in3.0 mm 1.20 in30.5 mm 0.31 in7.9 mm
04:57 PM 38.0°F3.3°C 18.4°F-7.6°C 45% 6.5 mph NE10.5 kmh NE 14.9 mph24.0 kmh 29.54 in1000.3 mb 0.10 in2.5 mm 0.00 in0.0 mm 0.29 in7.4 mm
04:56 PM 38.0°F3.3°C 18.4°F-7.6°C 45% 7.1 mph N11.4 kmh N 14.9 mph24.0 kmh 29.54 in1000.3 mb 0.10 in2.5 mm 0.00 in0.0 mm 0.29 in7.4 mm
04:55 PM 38.0°F3.3°C 18.4°F-7.6°C 45% 6.6 mph NNW10.6 kmh NNW 14.9 mph24.0 kmh 29.54 in1000.3 mb 0.10 in2.5 mm 0.00 in0.0 mm 0.29 in7.4 mm
04:54 PM 38.0°F3.3°C 18.4°F-7.6°C 45% 8.3 mph NNE13.4 kmh NNE 14.9 mph24.0 kmh 29.54 in1000.3 mb 0.12 in3.0 mm 0.00 in0.0 mm 0.29 in7.4 mm
04:53 PM 38.0°F3.3°C 18.4°F-7.6°C 45% 8.5 mph E13.7 kmh E 14.9 mph24.0 kmh 29.54 in1000.3 mb 0.12 in3.0 mm 0.00 in0.0 mm 0.29 in7.4 mm
04:52 PM 38.0°F3.3°C 18.4°F-7.6°C 45% 6.6 mph E10.6 kmh E 12.1 mph19.5 kmh 29.54 in1000.3 mb 0.12 in3.0 mm 0.00 in0.0 mm 0.29 in7.4 mm
04:51 PM 38.0°F3.3°C 18.4°F-7.6°C 45% 5.8 mph NNE9.3 kmh NNE 12.1 mph19.5 kmh 29.54 in1000.3 mb 0.12 in3.0 mm 1.20 in30.5 mm 0.29 in7.4 mm
04:50 PM 38.0°F3.3°C 18.4°F-7.6°C 45% 4.8 mph NE7.7 kmh NE 12.1 mph19.5 kmh 29.54 in1000.3 mb 0.10 in2.5 mm 0.00 in0.0 mm 0.26 in6.6 mm
04:49 PM 38.0°F3.3°C 18.4°F-7.6°C 45% 3.6 mph NE5.8 kmh NE 9.8 mph15.8 kmh 29.54 in1000.3 mb 0.10 in2.5 mm 0.00 in0.0 mm 0.26 in6.6 mm
04:48 PM 38.0°F3.3°C 18.4°F-7.6°C 45% 3.9 mph N6.3 kmh N 9.8 mph15.8 kmh 29.55 in1000.7 mb 0.10 in2.5 mm 0.00 in0.0 mm 0.26 in6.6 mm
04:47 PM 38.0°F3.3°C 18.4°F-7.6°C 45% 4.7 mph N7.6 kmh N 9.8 mph15.8 kmh 29.55 in1000.7 mb 0.10 in2.5 mm 0.00 in0.0 mm 0.26 in6.6 mm
04:46 PM 38.2°F3.4°C 18.6°F-7.4°C 45% 4.4 mph NE7.1 kmh NE 9.8 mph15.8 kmh 29.55 in1000.7 mb 0.10 in2.5 mm 0.00 in0.0 mm 0.26 in6.6 mm
04:45 PM 38.2°F3.4°C 18.6°F-7.4°C 45% 3.0 mph NNE4.8 kmh NNE 9.8 mph15.8 kmh 29.55 in1000.7 mb 0.10 in2.5 mm 1.20 in30.5 mm 0.26 in6.6 mm
04:44 PM 38.2°F3.4°C 18.6°F-7.4°C 45% 2.3 mph N3.7 kmh N 9.8 mph15.8 kmh 29.55 in1000.7 mb 0.08 in2.0 mm 0.00 in0.0 mm 0.24 in6.1 mm
04:43 PM 38.2°F3.4°C 18.6°F-7.4°C 45% 1.6 mph WSW2.6 kmh WSW 10.2 mph16.4 kmh 29.55 in1000.7 mb 0.08 in2.0 mm 0.00 in0.0 mm 0.24 in6.1 mm
04:42 PM 38.2°F3.4°C 18.6°F-7.4°C 45% 3.1 mph SE5.0 kmh SE 10.2 mph16.4 kmh 29.55 in1000.7 mb 0.08 in2.0 mm 0.00 in0.0 mm 0.24 in6.1 mm
04:41 PM 38.2°F3.4°C 18.6°F-7.4°C 45% 6.4 mph N10.3 kmh N 10.2 mph16.4 kmh 29.54 in1000.3 mb 0.08 in2.0 mm 0.00 in0.0 mm 0.24 in6.1 mm
04:40 PM 38.2°F3.4°C 18.6°F-7.4°C 45% 6.5 mph NNW10.5 kmh NNW 10.2 mph16.4 kmh 29.54 in1000.3 mb 0.08 in2.0 mm 0.00 in0.0 mm 0.24 in6.1 mm
04:39 PM 38.2°F3.4°C 18.6°F-7.4°C 45% 3.9 mph NNW6.3 kmh NNW 10.2 mph16.4 kmh 29.54 in1000.3 mb 0.08 in2.0 mm 1.80 in45.7 mm 0.24 in6.1 mm
04:38 PM 38.4°F3.6°C 18.8°F-7.3°C 45% 2.3 mph NW3.7 kmh NW 19.3 mph31.1 kmh 29.54 in1000.3 mb 0.05 in1.3 mm 0.00 in0.0 mm 0.22 in5.6 mm
04:37 PM 38.4°F3.6°C 18.8°F-7.3°C 45% 4.3 mph SE6.9 kmh SE 19.3 mph31.1 kmh 29.54 in1000.3 mb 0.05 in1.3 mm 0.00 in0.0 mm 0.22 in5.6 mm
04:36 PM 38.4°F3.6°C 18.8°F-7.3°C 45% 5.3 mph ENE8.5 kmh ENE 19.3 mph31.1 kmh 29.53 in1000.0 mb 0.05 in1.3 mm 0.60 in15.2 mm 0.22 in5.6 mm
04:35 PM 38.4°F3.6°C 18.8°F-7.3°C 45% 5.0 mph ENE8.0 kmh ENE 19.3 mph31.1 kmh 29.53 in1000.0 mb 0.04 in1.0 mm 0.00 in0.0 mm 0.21 in5.3 mm
04:34 PM 38.4°F3.6°C 18.8°F-7.3°C 45% 3.7 mph E6.0 kmh E 19.3 mph31.1 kmh 29.53 in1000.0 mb 0.04 in1.0 mm 0.00 in0.0 mm 0.21 in5.3 mm
04:33 PM 38.4°F3.6°C 18.8°F-7.3°C 45% 3.4 mph NNE5.5 kmh NNE 19.3 mph31.1 kmh 29.53 in1000.0 mb 0.04 in1.0 mm 0.00 in0.0 mm 0.21 in5.3 mm
04:32 PM 38.4°F3.6°C 18.8°F-7.3°C 45% 5.1 mph NE8.2 kmh NE 19.3 mph31.1 kmh 29.53 in1000.0 mb 0.04 in1.0 mm 0.60 in15.2 mm 0.21 in5.3 mm
04:31 PM 38.4°F3.6°C 18.8°F-7.3°C 45% 4.9 mph N7.9 kmh N 19.3 mph31.1 kmh 29.53 in1000.0 mb 0.03 in0.8 mm 0.00 in0.0 mm 0.20 in5.1 mm
04:30 PM 38.6°F3.7°C 19.0°F-7.2°C 45% 8.0 mph NNW12.9 kmh NNW 19.3 mph31.1 kmh 29.53 in1000.0 mb 0.03 in0.8 mm 0.00 in0.0 mm 0.20 in5.1 mm
04:29 PM 38.6°F3.7°C 19.0°F-7.2°C 45% 10.8 mph N17.4 kmh N 19.3 mph31.1 kmh 29.53 in1000.0 mb 0.03 in0.8 mm 0.00 in0.0 mm 0.20 in5.1 mm
04:28 PM 38.6°F3.7°C 18.4°F-7.6°C 44% 11.0 mph NNE17.7 kmh NNE 16.8 mph27.0 kmh 29.52 in999.7 mb 0.03 in0.8 mm 0.00 in0.0 mm 0.20 in5.1 mm
04:27 PM 38.6°F3.7°C 19.0°F-7.2°C 45% 10.0 mph E16.1 kmh E 16.8 mph27.0 kmh 29.52 in999.7 mb 0.03 in0.8 mm 0.00 in0.0 mm 0.20 in5.1 mm
04:26 PM 38.6°F3.7°C 18.4°F-7.6°C 44% 7.3 mph E11.7 kmh E 15.2 mph24.5 kmh 29.52 in999.7 mb 0.03 in0.8 mm 0.00 in0.0 mm 0.20 in5.1 mm
04:25 PM 38.6°F3.7°C 19.0°F-7.2°C 45% 5.6 mph NE9.0 kmh NE 14.9 mph24.0 kmh 29.52 in999.7 mb 0.03 in0.8 mm 0.60 in15.2 mm 0.20 in5.1 mm
04:24 PM 38.6°F3.7°C 19.0°F-7.2°C 45% 6.4 mph NNE10.3 kmh NNE 14.9 mph24.0 kmh 29.52 in999.7 mb 0.02 in0.5 mm 0.00 in0.0 mm 0.19 in4.8 mm
04:23 PM 38.6°F3.7°C 19.0°F-7.2°C 45% 6.4 mph N10.3 kmh N 16.8 mph27.0 kmh 29.52 in999.7 mb 0.02 in0.5 mm 0.00 in0.0 mm 0.19 in4.8 mm
04:22 PM 38.6°F3.7°C 18.4°F-7.6°C 44% 7.0 mph NE11.3 kmh NE 18.7 mph30.1 kmh 29.52 in999.7 mb 0.02 in0.5 mm 0.00 in0.0 mm 0.19 in4.8 mm
04:21 PM 38.6°F3.7°C 18.4°F-7.6°C 44% 9.1 mph NE14.6 kmh NE 22.4 mph36.0 kmh 29.52 in999.7 mb 0.02 in0.5 mm 0.00 in0.0 mm 0.19 in4.8 mm
04:20 PM 38.6°F3.7°C 18.4°F-7.6°C 44% 9.5 mph NNE15.3 kmh NNE 22.4 mph36.0 kmh 29.52 in999.7 mb 0.02 in0.5 mm 0.00 in0.0 mm 0.19 in4.8 mm
04:19 PM 38.6°F3.7°C 18.4°F-7.6°C 44% 9.3 mph NW15.0 kmh NW 22.4 mph36.0 kmh 29.52 in999.7 mb 0.02 in0.5 mm 0.00 in0.0 mm 0.19 in4.8 mm
04:18 PM 38.8°F3.8°C 18.6°F-7.4°C 44% 7.9 mph NW12.7 kmh NW 22.4 mph36.0 kmh 29.52 in999.7 mb 0.02 in0.5 mm 0.00 in0.0 mm 0.19 in4.8 mm
04:17 PM 38.8°F3.8°C 18.6°F-7.4°C 44% 7.1 mph NE11.4 kmh NE 22.4 mph36.0 kmh 29.52 in999.7 mb 0.02 in0.5 mm 0.00 in0.0 mm 0.19 in4.8 mm
04:16 PM 38.8°F3.8°C 18.6°F-7.4°C 44% 5.7 mph E9.2 kmh E 22.4 mph36.0 kmh 29.52 in999.7 mb 0.02 in0.5 mm 0.00 in0.0 mm 0.19 in4.8 mm
04:15 PM 38.8°F3.8°C 18.6°F-7.4°C 44% 8.0 mph E12.9 kmh E 22.4 mph36.0 kmh 29.52 in999.7 mb 0.02 in0.5 mm 0.00 in0.0 mm 0.19 in4.8 mm
04:14 PM 38.8°F3.8°C 18.6°F-7.4°C 44% 11.9 mph NE19.2 kmh NE 22.4 mph36.0 kmh 29.52 in999.7 mb 0.02 in0.5 mm 0.00 in0.0 mm 0.19 in4.8 mm
04:13 PM 38.8°F3.8°C 18.6°F-7.4°C 44% 13.8 mph NW22.2 kmh NW 22.4 mph36.0 kmh 29.52 in999.7 mb 0.02 in0.5 mm 0.00 in0.0 mm 0.19 in4.8 mm
04:12 PM 38.8°F3.8°C 18.6°F-7.4°C 44% 16.1 mph NNW25.9 kmh NNW 22.4 mph36.0 kmh 29.52 in999.7 mb 0.02 in0.5 mm 0.00 in0.0 mm 0.19 in4.8 mm
04:11 PM 38.8°F3.8°C 18.6°F-7.4°C 44% 12.0 mph NE19.3 kmh NE 22.4 mph36.0 kmh 29.52 in999.7 mb 0.02 in0.5 mm 0.00 in0.0 mm 0.19 in4.8 mm
04:10 PM 38.8°F3.8°C 18.6°F-7.4°C 44% 6.2 mph NE10.0 kmh NE 18.7 mph30.1 kmh 29.52 in999.7 mb 0.02 in0.5 mm 0.00 in0.0 mm 0.19 in4.8 mm
04:09 PM 38.8°F3.8°C 18.6°F-7.4°C 44% 6.2 mph NNE10.0 kmh NNE 18.7 mph30.1 kmh 29.52 in999.7 mb 0.02 in0.5 mm 0.00 in0.0 mm 0.19 in4.8 mm
04:08 PM 38.8°F3.8°C 18.6°F-7.4°C 44% 9.4 mph E15.1 kmh E 18.7 mph30.1 kmh 29.53 in1000.0 mb 0.02 in0.5 mm 0.00 in0.0 mm 0.19 in4.8 mm
04:07 PM 38.8°F3.8°C 18.6°F-7.4°C 44% 9.8 mph E15.8 kmh E 18.7 mph30.1 kmh 29.53 in1000.0 mb 0.02 in0.5 mm 0.00 in0.0 mm 0.19 in4.8 mm
04:06 PM 38.8°F3.8°C 18.6°F-7.4°C 44% 8.6 mph NE13.8 kmh NE 13.3 mph21.4 kmh 29.53 in1000.0 mb 0.02 in0.5 mm 0.00 in0.0 mm 0.19 in4.8 mm
04:05 PM 38.8°F3.8°C 18.6°F-7.4°C 44% 6.5 mph NE10.5 kmh NE 13.3 mph21.4 kmh 29.53 in1000.0 mb 0.02 in0.5 mm 0.00 in0.0 mm 0.19 in4.8 mm
04:04 PM 38.8°F3.8°C 18.0°F-7.8°C 43% 4.0 mph ENE6.4 kmh ENE 10.5 mph16.9 kmh 29.53 in1000.0 mb 0.02 in0.5 mm 0.00 in0.0 mm 0.19 in4.8 mm
04:03 PM 38.8°F3.8°C 18.6°F-7.4°C 44% 4.3 mph N6.9 kmh N 15.2 mph24.5 kmh 29.53 in1000.0 mb 0.02 in0.5 mm 0.00 in0.0 mm 0.19 in4.8 mm
04:02 PM 38.8°F3.8°C 18.6°F-7.4°C 44% 4.3 mph ENE6.9 kmh ENE 15.2 mph24.5 kmh 29.53 in1000.0 mb 0.02 in0.5 mm 0.00 in0.0 mm 0.19 in4.8 mm
04:01 PM 38.8°F3.8°C 18.6°F-7.4°C 44% 3.4 mph N5.5 kmh N 15.2 mph24.5 kmh 29.53 in1000.0 mb 0.02 in0.5 mm 0.00 in0.0 mm 0.19 in4.8 mm
04:00 PM 38.8°F3.8°C 18.6°F-7.4°C 44% 4.1 mph NNW6.6 kmh NNW 15.2 mph24.5 kmh 29.53 in1000.0 mb 0.04 in1.0 mm 0.00 in0.0 mm 0.19 in4.8 mm
03:59 PM 38.8°F3.8°C 18.6°F-7.4°C 44% 5.9 mph N9.5 kmh N 16.4 mph26.4 kmh 29.53 in1000.0 mb 0.04 in1.0 mm 0.00 in0.0 mm 0.19 in4.8 mm
03:58 PM 38.9°F3.8°C 18.7°F-7.4°C 44% 6.6 mph E10.6 kmh E 16.4 mph26.4 kmh 29.53 in1000.0 mb 0.04 in1.0 mm 0.00 in0.0 mm 0.19 in4.8 mm
03:57 PM 38.8°F3.8°C 18.6°F-7.4°C 44% 4.9 mph SSE7.9 kmh SSE 16.4 mph26.4 kmh 29.53 in1000.0 mb 0.04 in1.0 mm 0.00 in0.0 mm 0.19 in4.8 mm
03:56 PM 38.8°F3.8°C 18.6°F-7.4°C 44% 5.6 mph NW9.0 kmh NW 16.4 mph26.4 kmh 29.54 in1000.3 mb 0.04 in1.0 mm 0.00 in0.0 mm 0.19 in4.8 mm
03:55 PM 38.8°F3.8°C 18.6°F-7.4°C 44% 7.7 mph N12.4 kmh N 16.4 mph26.4 kmh 29.53 in1000.0 mb 0.04 in1.0 mm 1.20 in30.5 mm 0.19 in4.8 mm
03:54 PM 38.8°F3.8°C 18.6°F-7.4°C 44% 7.6 mph N12.2 kmh N 16.4 mph26.4 kmh 29.53 in1000.0 mb 0.02 in0.5 mm 0.00 in0.0 mm 0.17 in4.3 mm
03:53 PM 38.8°F3.8°C 18.6°F-7.4°C 44% 7.4 mph NNE11.9 kmh NNE 16.4 mph26.4 kmh 29.53 in1000.0 mb 0.02 in0.5 mm 0.00 in0.0 mm 0.17 in4.3 mm
03:52 PM 38.9°F3.8°C 19.2°F-7.1°C 45% 6.3 mph NE10.1 kmh NE 16.4 mph26.4 kmh 29.53 in1000.0 mb 0.02 in0.5 mm 0.00 in0.0 mm 0.17 in4.3 mm
03:51 PM 38.8°F3.8°C 18.6°F-7.4°C 44% 6.8 mph NNE10.9 kmh NNE 23.4 mph37.7 kmh 29.53 in1000.0 mb 0.03 in0.8 mm 0.00 in0.0 mm 0.17 in4.3 mm
03:50 PM 38.9°F3.8°C 18.7°F-7.4°C 44% 5.4 mph NE8.7 kmh NE 23.4 mph37.7 kmh 29.53 in1000.0 mb 0.03 in0.8 mm 0.00 in0.0 mm 0.17 in4.3 mm
03:49 PM 38.8°F3.8°C 18.6°F-7.4°C 44% 4.0 mph N6.4 kmh N 23.4 mph37.7 kmh 29.54 in1000.3 mb 0.03 in0.8 mm 0.00 in0.0 mm 0.17 in4.3 mm
03:48 PM 38.8°F3.8°C 18.6°F-7.4°C 44% 5.5 mph N8.9 kmh N 23.4 mph37.7 kmh 29.53 in1000.0 mb 0.03 in0.8 mm 0.00 in0.0 mm 0.17 in4.3 mm
03:47 PM 38.8°F3.8°C 18.6°F-7.4°C 44% 5.6 mph N9.0 kmh N 23.4 mph37.7 kmh 29.54 in1000.3 mb 0.03 in0.8 mm 0.00 in0.0 mm 0.17 in4.3 mm
03:46 PM 38.8°F3.8°C 18.6°F-7.4°C 44% 6.0 mph N9.7 kmh N 23.4 mph37.7 kmh 29.53 in1000.0 mb 0.03 in0.8 mm 0.00 in0.0 mm 0.17 in4.3 mm
03:45 PM 38.8°F3.8°C 18.6°F-7.4°C 44% 6.8 mph NNW10.9 kmh NNW 23.4 mph37.7 kmh 29.53 in1000.0 mb 0.03 in0.8 mm 0.00 in0.0 mm 0.17 in4.3 mm
03:44 PM 38.8°F3.8°C 18.6°F-7.4°C 44% 7.6 mph N12.2 kmh N 23.4 mph37.7 kmh 29.53 in1000.0 mb 0.03 in0.8 mm 0.00 in0.0 mm 0.17 in4.3 mm
03:43 PM 38.8°F3.8°C 18.6°F-7.4°C 44% 8.4 mph NE13.5 kmh NE 23.4 mph37.7 kmh 29.54 in1000.3 mb 0.03 in0.8 mm 0.00 in0.0 mm 0.17 in4.3 mm
03:42 PM 38.8°F3.8°C 18.6°F-7.4°C 44% 9.1 mph ENE14.6 kmh ENE 23.4 mph37.7 kmh 29.54 in1000.3 mb 0.03 in0.8 mm 0.00 in0.0 mm 0.17 in4.3 mm
03:41 PM 38.8°F3.8°C 18.6°F-7.4°C 44% 6.9 mph E11.1 kmh E 16.8 mph27.0 kmh 29.54 in1000.3 mb 0.03 in0.8 mm 0.00 in0.0 mm 0.17 in4.3 mm
03:40 PM 38.8°F3.8°C 18.6°F-7.4°C 44% 6.1 mph NE9.8 kmh NE 14.5 mph23.3 kmh 29.54 in1000.3 mb 0.03 in0.8 mm 0.00 in0.0 mm 0.17 in4.3 mm
03:39 PM 38.8°F3.8°C 18.6°F-7.4°C 44% 4.0 mph NE6.4 kmh NE 12.1 mph19.5 kmh 29.54 in1000.3 mb 0.03 in0.8 mm 0.00 in0.0 mm 0.17 in4.3 mm
03:38 PM 38.9°F3.8°C 19.8°F-6.8°C 46% 2.7 mph ESE4.3 kmh ESE 11.4 mph18.3 kmh 29.54 in1000.3 mb 0.03 in0.8 mm 0.00 in0.0 mm 0.17 in4.3 mm
03:37 PM 38.9°F3.8°C 19.8°F-6.8°C 46% 4.1 mph ESE6.6 kmh ESE 11.4 mph18.3 kmh 29.54 in1000.3 mb 0.03 in0.8 mm 0.00 in0.0 mm 0.17 in4.3 mm
03:36 PM 38.9°F3.8°C 19.8°F-6.8°C 46% 6.4 mph E10.3 kmh E 12.1 mph19.5 kmh 29.54 in1000.3 mb 0.03 in0.8 mm 0.00 in0.0 mm 0.17 in4.3 mm
03:35 PM 38.9°F3.8°C 19.2°F-7.1°C 45% 7.4 mph SSE11.9 kmh SSE 12.1 mph19.5 kmh 29.54 in1000.3 mb 0.03 in0.8 mm 0.00 in0.0 mm 0.17 in4.3 mm
03:34 PM 38.8°F3.8°C 19.1°F-7.2°C 45% 5.8 mph WSW9.3 kmh WSW 12.1 mph19.5 kmh 29.54 in1000.3 mb 0.03 in0.8 mm 0.00 in0.0 mm 0.17 in4.3 mm
03:33 PM 38.9°F3.8°C 19.2°F-7.1°C 45% 3.9 mph W6.3 kmh W 12.1 mph19.5 kmh 29.54 in1000.3 mb 0.04 in1.0 mm 0.00 in0.0 mm 0.17 in4.3 mm
03:32 PM 38.9°F3.8°C 19.2°F-7.1°C 45% 3.9 mph ENE6.3 kmh ENE 17.1 mph27.5 kmh 29.53 in1000.0 mb 0.04 in1.0 mm 0.00 in0.0 mm 0.17 in4.3 mm
03:31 PM 38.9°F3.8°C 19.2°F-7.1°C 45% 3.5 mph NE5.6 kmh NE 17.1 mph27.5 kmh 29.54 in1000.3 mb 0.04 in1.0 mm 0.00 in0.0 mm 0.17 in4.3 mm
03:30 PM 38.9°F3.8°C 19.2°F-7.1°C 45% 2.4 mph 3.9 kmh 17.1 mph27.5 kmh 29.53 in1000.0 mb 0.04 in1.0 mm 0.00 in0.0 mm 0.17 in4.3 mm
03:29 PM 38.9°F3.8°C 19.8°F-6.8°C 46% 2.9 mph NNE4.7 kmh NNE 17.1 mph27.5 kmh 29.53 in1000.0 mb 0.04 in1.0 mm 0.00 in0.0 mm 0.17 in4.3 mm
03:28 PM 38.9°F3.8°C 19.2°F-7.1°C 45% 4.4 mph N7.1 kmh N 17.1 mph27.5 kmh 29.53 in1000.0 mb 0.04 in1.0 mm 0.00 in0.0 mm 0.17 in4.3 mm
03:27 PM 38.9°F3.8°C 19.8°F-6.8°C 46% 3.9 mph NNE6.3 kmh NNE 17.1 mph27.5 kmh 29.53 in1000.0 mb 0.04 in1.0 mm 0.00 in0.0 mm 0.17 in4.3 mm
03:26 PM 38.9°F3.8°C 19.2°F-7.1°C 45% 2.7 mph NNE4.3 kmh NNE 17.1 mph27.5 kmh 29.54 in1000.3 mb 0.04 in1.0 mm 0.00 in0.0 mm 0.17 in4.3 mm
03:25 PM 38.9°F3.8°C 19.2°F-7.1°C 45% 2.6 mph NW4.2 kmh NW 17.1 mph27.5 kmh 29.53 in1000.0 mb 0.04 in1.0 mm 0.00 in0.0 mm 0.17 in4.3 mm
03:24 PM 38.9°F3.8°C 19.2°F-7.1°C 45% 2.9 mph SE4.7 kmh SE 17.1 mph27.5 kmh 29.53 in1000.0 mb 0.04 in1.0 mm 0.00 in0.0 mm 0.17 in4.3 mm
03:23 PM 38.9°F3.8°C 19.2°F-7.1°C 45% 6.0 mph E9.7 kmh E 17.1 mph27.5 kmh 29.53 in1000.0 mb 0.04 in1.0 mm 0.00 in0.0 mm 0.17 in4.3 mm
03:22 PM 38.8°F3.8°C 19.1°F-7.2°C 45% 6.3 mph E10.1 kmh E 17.1 mph27.5 kmh 29.53 in1000.0 mb 0.04 in1.0 mm 0.00 in0.0 mm 0.17 in4.3 mm
03:21 PM 38.9°F3.8°C 19.2°F-7.1°C 45% 4.6 mph E7.4 kmh E 14.9 mph24.0 kmh 29.54 in1000.3 mb 0.04 in1.0 mm 0.00 in0.0 mm 0.17 in4.3 mm
03:20 PM 38.9°F3.8°C 19.2°F-7.1°C 45% 5.6 mph E9.0 kmh E 14.9 mph24.0 kmh 29.54 in1000.3 mb 0.04 in1.0 mm 0.00 in0.0 mm 0.17 in4.3 mm
03:19 PM 38.9°F3.8°C 19.8°F-6.8°C 46% 7.5 mph NE12.1 kmh NE 14.9 mph24.0 kmh 29.54 in1000.3 mb 0.04 in1.0 mm 0.00 in0.0 mm 0.17 in4.3 mm
03:18 PM 38.9°F3.8°C 19.8°F-6.8°C 46% 5.7 mph NNE9.2 kmh NNE 14.9 mph24.0 kmh 29.54 in1000.3 mb 0.04 in1.0 mm 0.00 in0.0 mm 0.17 in4.3 mm
03:17 PM 38.9°F3.8°C 19.8°F-6.8°C 46% 2.5 mph NNE4.0 kmh NNE 14.9 mph24.0 kmh 29.54 in1000.3 mb 0.06 in1.5 mm 0.00 in0.0 mm 0.17 in4.3 mm
03:16 PM 39.1°F3.9°C 19.9°F-6.7°C 46% 2.3 mph W3.7 kmh W 14.9 mph24.0 kmh 29.54 in1000.3 mb 0.06 in1.5 mm 0.00 in0.0 mm 0.17 in4.3 mm
03:15 PM 38.9°F3.8°C 19.8°F-6.8°C 46% 3.6 mph SW5.8 kmh SW 14.9 mph24.0 kmh 29.54 in1000.3 mb 0.06 in1.5 mm 0.00 in0.0 mm 0.17 in4.3 mm
03:14 PM 38.9°F3.8°C 19.8°F-6.8°C 46% 5.4 mph SSW8.7 kmh SSW 14.9 mph24.0 kmh 29.54 in1000.3 mb 0.06 in1.5 mm 0.00 in0.0 mm 0.17 in4.3 mm
03:13 PM 38.9°F3.8°C 19.8°F-6.8°C 46% 5.7 mph SE9.2 kmh SE 14.9 mph24.0 kmh 29.54 in1000.3 mb 0.06 in1.5 mm 0.00 in0.0 mm 0.17 in4.3 mm
03:12 PM 38.9°F3.8°C 19.8°F-6.8°C 46% 5.5 mph NE8.9 kmh NE 14.9 mph24.0 kmh 29.54 in1000.3 mb 0.06 in1.5 mm 0.00 in0.0 mm 0.17 in4.3 mm
03:11 PM 39.1°F3.9°C 20.5°F-6.4°C 47% 6.8 mph ENE10.9 kmh ENE 14.9 mph24.0 kmh 29.54 in1000.3 mb 0.06 in1.5 mm 0.00 in0.0 mm 0.17 in4.3 mm
03:10 PM 38.9°F3.8°C 19.8°F-6.8°C 46% 4.4 mph ENE7.1 kmh ENE 14.9 mph24.0 kmh 29.54 in1000.3 mb 0.06 in1.5 mm 0.00 in0.0 mm 0.17 in4.3 mm
03:09 PM 39.1°F3.9°C 19.9°F-6.7°C 46% 3.1 mph WNW5.0 kmh WNW 13.7 mph22.0 kmh 29.54 in1000.3 mb 0.06 in1.5 mm 0.00 in0.0 mm 0.17 in4.3 mm
03:08 PM 39.1°F3.9°C 19.9°F-6.7°C 46% 5.2 mph NW8.4 kmh NW 13.7 mph22.0 kmh 29.54 in1000.3 mb 0.06 in1.5 mm 0.00 in0.0 mm 0.17 in4.3 mm
03:07 PM 39.1°F3.9°C 20.5°F-6.4°C 47% 6.6 mph NNE10.6 kmh NNE 13.7 mph22.0 kmh 29.54 in1000.3 mb 0.06 in1.5 mm 0.00 in0.0 mm 0.17 in4.3 mm
03:06 PM 39.1°F3.9°C 20.5°F-6.4°C 47% 5.8 mph NNE9.3 kmh NNE 13.7 mph22.0 kmh 29.54 in1000.3 mb 0.06 in1.5 mm 0.00 in0.0 mm 0.17 in4.3 mm
03:05 PM 39.1°F3.9°C 20.5°F-6.4°C 47% 5.9 mph NE9.5 kmh NE 13.7 mph22.0 kmh 29.54 in1000.3 mb 0.06 in1.5 mm 0.00 in0.0 mm 0.17 in4.3 mm
03:04 PM 39.3°F4.1°C 20.6°F-6.3°C 47% 7.1 mph NE11.4 kmh NE 12.1 mph19.5 kmh 29.54 in1000.3 mb 0.06 in1.5 mm 0.00 in0.0 mm 0.17 in4.3 mm
03:03 PM 39.1°F3.9°C 20.5°F-6.4°C 47% 6.5 mph N10.5 kmh N 12.1 mph19.5 kmh 29.54 in1000.3 mb 0.06 in1.5 mm 0.00 in0.0 mm 0.17 in4.3 mm
03:02 PM 39.3°F4.1°C 20.6°F-6.3°C 47% 6.6 mph NW10.6 kmh NW 11.0 mph17.7 kmh 29.54 in1000.3 mb 0.06 in1.5 mm 1.80 in45.7 mm 0.17 in4.3 mm
03:01 PM 39.3°F4.1°C 20.6°F-6.3°C 47% 6.5 mph NNW10.5 kmh NNW 11.0 mph17.7 kmh 29.54 in1000.3 mb 0.03 in0.8 mm 0.00 in0.0 mm 0.14 in3.6 mm
03:00 PM 39.3°F4.1°C 20.6°F-6.3°C 47% 4.6 mph N7.4 kmh N 11.0 mph17.7 kmh 29.54 in1000.3 mb 0.03 in0.8 mm 0.00 in0.0 mm 0.14 in3.6 mm
02:59 PM 39.3°F4.1°C 20.6°F-6.3°C 47% 3.8 mph ENE6.1 kmh ENE 11.0 mph17.7 kmh 29.54 in1000.3 mb 0.03 in0.8 mm 0.00 in0.0 mm 0.14 in3.6 mm
02:58 PM 39.5°F4.2°C 20.8°F-6.2°C 47% 4.5 mph ESE7.2 kmh ESE 11.0 mph17.7 kmh 29.54 in1000.3 mb 0.03 in0.8 mm 0.00 in0.0 mm 0.14 in3.6 mm
02:57 PM 39.5°F4.2°C 21.3°F-5.9°C 48% 5.0 mph ENE8.0 kmh ENE 13.7 mph22.0 kmh 29.55 in1000.7 mb 0.03 in0.8 mm 0.00 in0.0 mm 0.14 in3.6 mm
02:56 PM 39.5°F4.2°C 20.8°F-6.2°C 47% 5.7 mph ENE9.2 kmh ENE 13.7 mph22.0 kmh 29.54 in1000.3 mb 0.03 in0.8 mm 0.00 in0.0 mm 0.14 in3.6 mm
02:55 PM 39.5°F4.2°C 21.3°F-5.9°C 48% 5.4 mph E8.7 kmh E 13.7 mph22.0 kmh 29.54 in1000.3 mb 0.03 in0.8 mm 0.00 in0.0 mm 0.14 in3.6 mm
02:54 PM 39.5°F4.2°C 21.3°F-5.9°C 48% 3.4 mph SE5.5 kmh SE 13.7 mph22.0 kmh 29.54 in1000.3 mb 0.03 in0.8 mm 0.00 in0.0 mm 0.14 in3.6 mm
02:53 PM 39.5°F4.2°C 21.3°F-5.9°C 48% 3.2 mph NNW5.1 kmh NNW 13.7 mph22.0 kmh 29.55 in1000.7 mb 0.03 in0.8 mm 0.00 in0.0 mm 0.14 in3.6 mm
02:52 PM 39.7°F4.3°C 22.0°F-5.6°C 49% 5.8 mph NW9.3 kmh NW 13.7 mph22.0 kmh 29.54 in1000.3 mb 0.03 in0.8 mm 0.00 in0.0 mm 0.14 in3.6 mm
02:51 PM 39.7°F4.3°C 22.0°F-5.6°C 49% 6.2 mph WNW10.0 kmh WNW 13.7 mph22.0 kmh 29.55 in1000.7 mb 0.03 in0.8 mm 0.00 in0.0 mm 0.13 in3.3 mm
02:50 PM 39.7°F4.3°C 21.5°F-5.8°C 48% 4.2 mph SSW6.8 kmh SSW 13.7 mph22.0 kmh 29.55 in1000.7 mb 0.03 in0.8 mm 0.00 in0.0 mm 0.13 in3.3 mm
02:49 PM 39.7°F4.3°C 21.5°F-5.8°C 48% 3.8 mph ESE6.1 kmh ESE 13.7 mph22.0 kmh 29.55 in1000.7 mb 0.03 in0.8 mm 0.00 in0.0 mm 0.13 in3.3 mm
02:48 PM 39.8°F4.3°C 22.1°F-5.5°C 49% 3.5 mph ENE5.6 kmh ENE 13.7 mph22.0 kmh 29.55 in1000.7 mb 0.03 in0.8 mm 0.00 in0.0 mm 0.13 in3.3 mm
02:47 PM 39.8°F4.3°C 22.1°F-5.5°C 49% 4.1 mph NNE6.6 kmh NNE 11.0 mph17.7 kmh 29.55 in1000.7 mb 0.03 in0.8 mm 0.00 in0.0 mm 0.13 in3.3 mm
02:46 PM 40.2°F4.6°C 22.4°F-5.3°C 49% 5.2 mph ENE8.4 kmh ENE 14.2 mph22.9 kmh 29.55 in1000.7 mb 0.03 in0.8 mm 0.00 in0.0 mm 0.13 in3.3 mm
02:45 PM 40.2°F4.6°C 22.4°F-5.3°C 49% 3.7 mph ENE6.0 kmh ENE 14.2 mph22.9 kmh 29.55 in1000.7 mb 0.03 in0.8 mm 0.00 in0.0 mm 0.13 in3.3 mm
02:44 PM 40.2°F4.6°C 22.4°F-5.3°C 49% 4.3 mph E6.9 kmh E 14.2 mph22.9 kmh 29.55 in1000.7 mb 0.03 in0.8 mm 0.00 in0.0 mm 0.13 in3.3 mm
02:43 PM 40.2°F4.6°C 22.4°F-5.3°C 49% 5.2 mph E8.4 kmh E 14.2 mph22.9 kmh 29.55 in1000.7 mb 0.03 in0.8 mm 0.00 in0.0 mm 0.13 in3.3 mm
02:42 PM 40.5°F4.7°C 23.3°F-4.8°C 50% 4.5 mph N7.2 kmh N 14.2 mph22.9 kmh 29.55 in1000.7 mb 0.03 in0.8 mm 0.00 in0.0 mm 0.13 in3.3 mm
02:41 PM 40.4°F4.7°C 23.1°F-4.9°C 50% 4.5 mph NW7.2 kmh NW 14.2 mph22.9 kmh 29.55 in1000.7 mb 0.03 in0.8 mm 0.00 in0.0 mm 0.13 in3.3 mm
02:40 PM 40.4°F4.7°C 23.1°F-4.9°C 50% 3.5 mph WNW5.6 kmh WNW 14.2 mph22.9 kmh 29.55 in1000.7 mb 0.03 in0.8 mm 0.00 in0.0 mm 0.13 in3.3 mm
02:39 PM 40.4°F4.7°C 23.1°F-4.9°C 50% 2.3 mph NNW3.7 kmh NNW 14.2 mph22.9 kmh 29.55 in1000.7 mb 0.03 in0.8 mm 0.00 in0.0 mm 0.13 in3.3 mm
02:38 PM 40.4°F4.7°C 23.1°F-4.9°C 50% 2.2 mph ENE3.5 kmh ENE 14.2 mph22.9 kmh 29.56 in1001.0 mb 0.03 in0.8 mm 0.00 in0.0 mm 0.13 in3.3 mm
02:37 PM 40.4°F4.7°C 23.1°F-4.9°C 50% 4.2 mph SSE6.8 kmh SSE 14.2 mph22.9 kmh 29.56 in1001.0 mb 0.03 in0.8 mm 0.00 in0.0 mm 0.13 in3.3 mm
02:36 PM 40.4°F4.7°C 23.1°F-4.9°C 50% 4.9 mph SE7.9 kmh SE 14.2 mph22.9 kmh 29.56 in1001.0 mb 0.04 in1.0 mm 0.00 in0.0 mm 0.13 in3.3 mm
02:35 PM 40.5°F4.7°C 23.3°F-4.8°C 50% 3.3 mph NE5.3 kmh NE 9.4 mph15.1 kmh 29.56 in1001.0 mb 0.04 in1.0 mm 0.00 in0.0 mm 0.13 in3.3 mm
02:34 PM 40.5°F4.7°C 23.8°F-4.6°C 51% 3.3 mph NE5.3 kmh NE 9.4 mph15.1 kmh 29.56 in1001.0 mb 0.04 in1.0 mm 0.60 in15.2 mm 0.13 in3.3 mm
02:33 PM 40.8°F4.9°C 24.1°F-4.4°C 51% 4.9 mph ENE7.9 kmh ENE 9.4 mph15.1 kmh 29.56 in1001.0 mb 0.03 in0.8 mm 0.00 in0.0 mm 0.12 in3.0 mm
02:32 PM 40.6°F4.8°C 23.9°F-4.5°C 51% 6.4 mph NE10.3 kmh NE 9.4 mph15.1 kmh 29.56 in1001.0 mb 0.03 in0.8 mm 0.00 in0.0 mm 0.12 in3.0 mm
02:31 PM 40.8°F4.9°C 24.1°F-4.4°C 51% 4.6 mph N7.4 kmh N 9.4 mph15.1 kmh 29.56 in1001.0 mb 0.03 in0.8 mm 0.00 in0.0 mm 0.12 in3.0 mm
02:30 PM 40.8°F4.9°C 24.1°F-4.4°C 51% 2.4 mph SE3.9 kmh SE 7.0 mph11.3 kmh 29.56 in1001.0 mb 0.03 in0.8 mm 0.00 in0.0 mm 0.12 in3.0 mm
02:29 PM 40.8°F4.9°C 24.5°F-4.2°C 52% 1.6 mph NE2.6 kmh NE 7.0 mph11.3 kmh 29.56 in1001.0 mb 0.03 in0.8 mm 0.00 in0.0 mm 0.12 in3.0 mm
02:28 PM 40.8°F4.9°C 24.5°F-4.2°C 52% 0.9 mph WSW1.4 kmh WSW 7.9 mph12.7 kmh 29.56 in1001.0 mb 0.03 in0.8 mm 0.00 in0.0 mm 0.12 in3.0 mm
02:27 PM 40.8°F4.9°C 24.5°F-4.2°C 52% 2.3 mph SE3.7 kmh SE 16.1 mph25.9 kmh 29.56 in1001.0 mb 0.03 in0.8 mm 0.00 in0.0 mm 0.12 in3.0 mm
02:26 PM 40.8°F4.9°C 24.5°F-4.2°C 52% 3.3 mph E5.3 kmh E 16.1 mph25.9 kmh 29.56 in1001.0 mb 0.04 in1.0 mm 0.00 in0.0 mm 0.12 in3.0 mm
02:25 PM 40.8°F4.9°C 24.5°F-4.2°C 52% 3.9 mph NE6.3 kmh NE 16.1 mph25.9 kmh 29.57 in1001.4 mb 0.04 in1.0 mm 0.00 in0.0 mm 0.12 in3.0 mm
02:24 PM 40.8°F4.9°C 24.5°F-4.2°C 52% 3.5 mph N5.6 kmh N 16.1 mph25.9 kmh 29.56 in1001.0 mb 0.04 in1.0 mm 0.00 in0.0 mm 0.12 in3.0 mm
02:23 PM 40.8°F4.9°C 24.5°F-4.2°C 52% 3.9 mph S6.3 kmh S 16.1 mph25.9 kmh 29.57 in1001.4 mb 0.04 in1.0 mm 0.00 in0.0 mm 0.12 in3.0 mm
02:22 PM 41.0°F5.0°C 24.7°F-4.1°C 52% 4.2 mph S6.8 kmh S 16.1 mph25.9 kmh 29.56 in1001.0 mb 0.04 in1.0 mm 0.00 in0.0 mm 0.12 in3.0 mm
02:21 PM 41.2°F5.1°C 25.4°F-3.7°C 53% 2.9 mph WSW4.7 kmh WSW 16.1 mph25.9 kmh 29.56 in1001.0 mb 0.04 in1.0 mm 0.00 in0.0 mm 0.12 in3.0 mm
02:20 PM 41.2°F5.1°C 25.4°F-3.7°C 53% 3.0 mph NE4.8 kmh NE 16.1 mph25.9 kmh 29.56 in1001.0 mb 0.06 in1.5 mm 0.00 in0.0 mm 0.12 in3.0 mm
02:19 PM 41.2°F5.1°C 25.4°F-3.7°C 53% 6.3 mph NE10.1 kmh NE 16.1 mph25.9 kmh 29.56 in1001.0 mb 0.06 in1.5 mm 0.00 in0.0 mm 0.12 in3.0 mm
02:18 PM 41.2°F5.1°C 25.4°F-3.7°C 53% 7.7 mph ENE12.4 kmh ENE 16.1 mph25.9 kmh 29.56 in1001.0 mb 0.06 in1.5 mm 1.20 in30.5 mm 0.12 in3.0 mm
02:17 PM 41.0°F5.0°C 24.2°F-4.3°C 51% 6.7 mph NNW10.8 kmh NNW 11.7 mph18.8 kmh 29.56 in1001.0 mb 0.04 in1.0 mm 0.00 in0.0 mm 0.11 in2.8 mm
02:16 PM 41.2°F5.1°C 24.9°F-3.9°C 52% 6.7 mph 10.8 kmh 11.0 mph17.7 kmh 29.56 in1001.0 mb 0.04 in1.0 mm 0.00 in0.0 mm 0.11 in2.8 mm
02:15 PM 41.0°F5.0°C 24.2°F-4.3°C 51% 4.0 mph N6.4 kmh N 11.0 mph17.7 kmh 29.56 in1001.0 mb 0.04 in1.0 mm 0.00 in0.0 mm 0.11 in2.8 mm
02:14 PM 41.0°F5.0°C 23.8°F-4.6°C 50% 2.8 mph E4.5 kmh E 9.4 mph15.1 kmh 29.56 in1001.0 mb 0.04 in1.0 mm 0.00 in0.0 mm 0.11 in2.8 mm
02:13 PM 41.0°F5.0°C 23.8°F-4.6°C 50% 3.1 mph NE5.0 kmh NE 9.4 mph15.1 kmh 29.56 in1001.0 mb 0.04 in1.0 mm 0.00 in0.0 mm 0.11 in2.8 mm
02:12 PM 41.2°F5.1°C 24.9°F-3.9°C 52% 2.4 mph NE3.9 kmh NE 9.4 mph15.1 kmh 29.56 in1001.0 mb 0.06 in1.5 mm 0.00 in0.0 mm 0.11 in2.8 mm
02:11 PM 41.4°F5.2°C 25.6°F-3.6°C 53% 1.7 mph E2.7 kmh E 9.4 mph15.1 kmh 29.56 in1001.0 mb 0.06 in1.5 mm 0.00 in0.0 mm 0.11 in2.8 mm
02:10 PM 41.5°F5.3°C 25.6°F-3.6°C 53% 2.0 mph ENE3.2 kmh ENE 9.4 mph15.1 kmh 29.56 in1001.0 mb 0.06 in1.5 mm 0.00 in0.0 mm 0.11 in2.8 mm
02:09 PM 41.4°F5.2°C 25.1°F-3.8°C 52% 3.5 mph ENE5.6 kmh ENE 9.4 mph15.1 kmh 29.56 in1001.0 mb 0.06 in1.5 mm 0.00 in0.0 mm 0.11 in2.8 mm
02:08 PM 41.4°F5.2°C 25.1°F-3.8°C 52% 4.1 mph NE6.6 kmh NE 9.4 mph15.1 kmh 29.56 in1001.0 mb 0.06 in1.5 mm 0.00 in0.0 mm 0.11 in2.8 mm
02:07 PM 41.4°F5.2°C 24.6°F-4.1°C 51% 4.5 mph E7.2 kmh E 9.4 mph15.1 kmh 29.56 in1001.0 mb 0.06 in1.5 mm 0.00 in0.0 mm 0.11 in2.8 mm
02:06 PM 41.5°F5.3°C 25.2°F-3.8°C 52% 4.8 mph ENE7.7 kmh ENE 9.4 mph15.1 kmh 29.56 in1001.0 mb 0.06 in1.5 mm 0.00 in0.0 mm 0.11 in2.8 mm
02:05 PM 41.7°F5.4°C 25.8°F-3.4°C 53% 3.1 mph NE5.0 kmh NE 9.4 mph15.1 kmh 29.56 in1001.0 mb 0.06 in1.5 mm 0.00 in0.0 mm 0.11 in2.8 mm
02:04 PM 41.5°F5.3°C 25.6°F-3.6°C 53% 1.8 mph E2.9 kmh E 7.5 mph12.1 kmh 29.56 in1001.0 mb 0.06 in1.5 mm 0.00 in0.0 mm 0.11 in2.8 mm
02:03 PM 41.5°F5.3°C 25.2°F-3.8°C 52% 2.0 mph S3.2 kmh S 7.5 mph12.1 kmh 29.56 in1001.0 mb 0.06 in1.5 mm 0.00 in0.0 mm 0.11 in2.8 mm
02:02 PM 41.9°F5.5°C 26.0°F-3.3°C 53% 1.7 mph WSW2.7 kmh WSW 7.5 mph12.1 kmh 29.56 in1001.0 mb 0.06 in1.5 mm 0.00 in0.0 mm 0.11 in2.8 mm
02:01 PM 41.9°F5.5°C 26.0°F-3.3°C 53% 2.2 mph WSW3.5 kmh WSW 15.6 mph25.1 kmh 29.56 in1001.0 mb 0.06 in1.5 mm 0.00 in0.0 mm 0.11 in2.8 mm
02:00 PM 42.1°F5.6°C 26.2°F-3.2°C 53% 4.0 mph N6.4 kmh N 15.6 mph25.1 kmh 29.56 in1001.0 mb 0.06 in1.5 mm 0.00 in0.0 mm 0.11 in2.8 mm
01:59 PM 42.1°F5.6°C 26.2°F-3.2°C 53% 4.2 mph NE6.8 kmh NE 15.6 mph25.1 kmh 29.56 in1001.0 mb 0.07 in1.8 mm 0.00 in0.0 mm 0.11 in2.8 mm
01:58 PM 41.9°F5.5°C 26.0°F-3.3°C 53% 3.3 mph E5.3 kmh E 15.6 mph25.1 kmh 29.56 in1001.0 mb 0.07 in1.8 mm 0.00 in0.0 mm 0.11 in2.8 mm
01:57 PM 42.3°F5.7°C 26.4°F-3.1°C 53% 2.2 mph SE3.5 kmh SE 15.6 mph25.1 kmh 29.56 in1001.0 mb 0.07 in1.8 mm 0.00 in0.0 mm 0.11 in2.8 mm
01:56 PM 42.3°F5.7°C 26.4°F-3.1°C 53% 2.6 mph ESE4.2 kmh ESE 15.6 mph25.1 kmh 29.55 in1000.7 mb 0.07 in1.8 mm 0.00 in0.0 mm 0.11 in2.8 mm
01:55 PM 42.3°F5.7°C 26.4°F-3.1°C 53% 2.6 mph E4.2 kmh E 16.1 mph25.9 kmh 29.55 in1000.7 mb 0.07 in1.8 mm 0.00 in0.0 mm 0.11 in2.8 mm
01:54 PM 42.3°F5.7°C 26.4°F-3.1°C 53% 1.6 mph ESE2.6 kmh ESE 16.1 mph25.9 kmh 29.56 in1001.0 mb 0.07 in1.8 mm 0.00 in0.0 mm 0.11 in2.8 mm
01:53 PM 42.4°F5.8°C 26.5°F-3.1°C 53% 4.5 mph NE7.2 kmh NE 16.1 mph25.9 kmh 29.56 in1001.0 mb 0.07 in1.8 mm 0.00 in0.0 mm 0.11 in2.8 mm
01:52 PM 42.3°F5.7°C 26.4°F-3.1°C 53% 5.2 mph E8.4 kmh E 16.1 mph25.9 kmh 29.55 in1000.7 mb 0.07 in1.8 mm 0.60 in15.2 mm 0.11 in2.8 mm
01:51 PM 42.4°F5.8°C 26.5°F-3.1°C 53% 3.1 mph ESE5.0 kmh ESE 16.1 mph25.9 kmh 29.56 in1001.0 mb 0.06 in1.5 mm 0.00 in0.0 mm 0.10 in2.5 mm
01:50 PM 42.3°F5.7°C 26.4°F-3.1°C 53% 3.5 mph SSW5.6 kmh SSW 16.1 mph25.9 kmh 29.55 in1000.7 mb 0.06 in1.5 mm 0.00 in0.0 mm 0.10 in2.5 mm
01:49 PM 42.4°F5.8°C 26.5°F-3.1°C 53% 2.7 mph SSW4.3 kmh SSW 16.1 mph25.9 kmh 29.55 in1000.7 mb 0.06 in1.5 mm 0.00 in0.0 mm 0.10 in2.5 mm
01:48 PM 42.6°F5.9°C 27.1°F-2.7°C 54% 1.4 mph NW2.3 kmh NW 16.1 mph25.9 kmh 29.55 in1000.7 mb 0.06 in1.5 mm 0.00 in0.0 mm 0.10 in2.5 mm
01:47 PM 42.4°F5.8°C 26.9°F-2.8°C 54% 2.0 mph WSW3.2 kmh WSW 16.1 mph25.9 kmh 29.55 in1000.7 mb 0.06 in1.5 mm 0.00 in0.0 mm 0.10 in2.5 mm
01:46 PM 42.4°F5.8°C 26.9°F-2.8°C 54% 6.7 mph NNE10.8 kmh NNE 16.1 mph25.9 kmh 29.55 in1000.7 mb 0.06 in1.5 mm 0.00 in0.0 mm 0.10 in2.5 mm
01:45 PM 42.6°F5.9°C 27.1°F-2.7°C 54% 8.1 mph NE13.0 kmh NE 16.1 mph25.9 kmh 29.55 in1000.7 mb 0.06 in1.5 mm 0.00 in0.0 mm 0.10 in2.5 mm
01:44 PM 42.6°F5.9°C 27.6°F-2.4°C 55% 5.5 mph NE8.9 kmh NE 14.9 mph24.0 kmh 29.55 in1000.7 mb 0.06 in1.5 mm 0.00 in0.0 mm 0.10 in2.5 mm
01:43 PM 42.4°F5.8°C 27.4°F-2.6°C 55% 5.5 mph E8.9 kmh E 13.3 mph21.4 kmh 29.55 in1000.7 mb 0.06 in1.5 mm 0.00 in0.0 mm 0.10 in2.5 mm
01:42 PM 42.3°F5.7°C 26.8°F-2.9°C 54% 4.7 mph E7.6 kmh E 13.3 mph21.4 kmh 29.55 in1000.7 mb 0.06 in1.5 mm 0.00 in0.0 mm 0.10 in2.5 mm
01:41 PM 42.4°F5.8°C 26.9°F-2.8°C 54% 3.7 mph SSE6.0 kmh SSE 19.9 mph32.0 kmh 29.55 in1000.7 mb 0.06 in1.5 mm 0.00 in0.0 mm 0.10 in2.5 mm
01:40 PM 42.3°F5.7°C 26.8°F-2.9°C 54% 3.8 mph SE6.1 kmh SE 19.9 mph32.0 kmh 29.56 in1001.0 mb 0.06 in1.5 mm 0.00 in0.0 mm 0.10 in2.5 mm
01:39 PM 42.4°F5.8°C 26.9°F-2.8°C 54% 3.8 mph NE6.1 kmh NE 19.9 mph32.0 kmh 29.56 in1001.0 mb 0.06 in1.5 mm 0.00 in0.0 mm 0.10 in2.5 mm
01:38 PM 42.8°F6.0°C 27.7°F-2.4°C 55% 4.8 mph NE7.7 kmh NE 19.9 mph32.0 kmh 29.56 in1001.0 mb 0.06 in1.5 mm 0.00 in0.0 mm 0.10 in2.5 mm
01:37 PM 42.8°F6.0°C 28.2°F-2.1°C 56% 4.7 mph ENE7.6 kmh ENE 19.9 mph32.0 kmh 29.56 in1001.0 mb 0.06 in1.5 mm 1.20 in30.5 mm 0.10 in2.5 mm
01:36 PM 42.6°F5.9°C 27.6°F-2.4°C 55% 3.7 mph NE6.0 kmh NE 19.9 mph32.0 kmh 29.56 in1001.0 mb 0.04 in1.0 mm 0.00 in0.0 mm 0.09 in2.3 mm
01:35 PM 42.8°F6.0°C 27.7°F-2.4°C 55% 2.6 mph WSW4.2 kmh WSW 19.9 mph32.0 kmh 29.56 in1001.0 mb 0.06 in1.5 mm 0.00 in0.0 mm 0.09 in2.3 mm
01:34 PM 43.2°F6.2°C 28.6°F-1.9°C 56% 2.4 mph W3.9 kmh W 19.9 mph32.0 kmh 29.57 in1001.4 mb 0.06 in1.5 mm 0.00 in0.0 mm 0.09 in2.3 mm
01:33 PM 43.2°F6.2°C 29.0°F-1.7°C 57% 5.7 mph N9.2 kmh N 19.9 mph32.0 kmh 29.57 in1001.4 mb 0.06 in1.5 mm 0.00 in0.0 mm 0.09 in2.3 mm
01:32 PM 43.3°F6.3°C 29.1°F-1.6°C 57% 5.7 mph NE9.2 kmh NE 19.9 mph32.0 kmh 29.57 in1001.4 mb 0.06 in1.5 mm 0.00 in0.0 mm 0.09 in2.3 mm
01:31 PM 43.2°F6.2°C 29.0°F-1.7°C 57% 2.2 mph NE3.5 kmh NE 8.2 mph13.2 kmh 29.57 in1001.4 mb 0.06 in1.5 mm 0.00 in0.0 mm 0.09 in2.3 mm
01:30 PM 43.3°F6.3°C 29.1°F-1.6°C 57% 2.0 mph ENE3.2 kmh ENE 7.9 mph12.7 kmh 29.56 in1001.0 mb 0.06 in1.5 mm 0.00 in0.0 mm 0.09 in2.3 mm
01:29 PM 43.3°F6.3°C 29.1°F-1.6°C 57% 2.5 mph WSW4.0 kmh WSW 7.9 mph12.7 kmh 29.57 in1001.4 mb 0.06 in1.5 mm 0.00 in0.0 mm 0.09 in2.3 mm
01:28 PM 43.3°F6.3°C 29.1°F-1.6°C 57% 2.2 mph WNW3.5 kmh WNW 7.9 mph12.7 kmh 29.57 in1001.4 mb 0.06 in1.5 mm 0.00 in0.0 mm 0.09 in2.3 mm
01:27 PM 43.5°F6.4°C 29.3°F-1.5°C 57% 1.5 mph NW2.4 kmh NW 7.9 mph12.7 kmh 29.57 in1001.4 mb 0.06 in1.5 mm 1.20 in30.5 mm 0.09 in2.3 mm
01:26 PM 43.8°F6.6°C 30.1°F-1.1°C 58% 1.3 mph NNE2.1 kmh NNE 11.4 mph18.3 kmh 29.57 in1001.4 mb 0.04 in1.0 mm 0.00 in0.0 mm 0.08 in2.0 mm
01:25 PM 43.8°F6.6°C 30.1°F-1.1°C 58% 2.6 mph ENE4.2 kmh ENE 11.4 mph18.3 kmh 29.57 in1001.4 mb 0.04 in1.0 mm 0.00 in0.0 mm 0.08 in2.0 mm
01:24 PM 43.8°F6.6°C 30.1°F-1.1°C 58% 2.5 mph E4.0 kmh E 11.4 mph18.3 kmh 29.57 in1001.4 mb 0.04 in1.0 mm 0.00 in0.0 mm 0.08 in2.0 mm
01:23 PM 43.8°F6.6°C 30.1°F-1.1°C 58% 2.1 mph NNE3.4 kmh NNE 11.4 mph18.3 kmh 29.57 in1001.4 mb 0.04 in1.0 mm 0.00 in0.0 mm 0.08 in2.0 mm
01:22 PM 43.7°F6.5°C 29.9°F-1.2°C 58% 2.1 mph NE3.4 kmh NE 11.4 mph18.3 kmh 29.56 in1001.0 mb 0.04 in1.0 mm 0.60 in15.2 mm 0.08 in2.0 mm
01:21 PM 43.8°F6.6°C 30.1°F-1.1°C 58% 3.0 mph NE4.8 kmh NE 11.4 mph18.3 kmh 29.57 in1001.4 mb 0.03 in0.8 mm 0.00 in0.0 mm 0.07 in1.8 mm
01:20 PM 44.1°F6.7°C 30.8°F-0.7°C 59% 4.7 mph NE7.6 kmh NE 11.4 mph18.3 kmh 29.57 in1001.4 mb 0.03 in0.8 mm 0.00 in0.0 mm 0.07 in1.8 mm
01:19 PM 44.1°F6.7°C 30.8°F-0.7°C 59% 3.6 mph SE5.8 kmh SE 11.4 mph18.3 kmh 29.57 in1001.4 mb 0.03 in0.8 mm 0.00 in0.0 mm 0.07 in1.8 mm
01:18 PM 44.3°F6.8°C 31.4°F-0.3°C 60% 4.0 mph SE6.4 kmh SE 11.4 mph18.3 kmh 29.57 in1001.4 mb 0.03 in0.8 mm 0.00 in0.0 mm 0.07 in1.8 mm
01:17 PM 44.1°F6.7°C 30.8°F-0.7°C 59% 3.9 mph ESE6.3 kmh ESE 11.4 mph18.3 kmh 29.57 in1001.4 mb 0.03 in0.8 mm 0.00 in0.0 mm 0.07 in1.8 mm
01:16 PM 44.3°F6.8°C 31.0°F-0.6°C 59% 2.0 mph E3.2 kmh E 9.8 mph15.8 kmh 29.57 in1001.4 mb 0.03 in0.8 mm 0.00 in0.0 mm 0.07 in1.8 mm
01:15 PM 44.3°F6.8°C 31.4°F-0.3°C 60% 2.1 mph N3.4 kmh N 9.8 mph15.8 kmh 29.57 in1001.4 mb 0.03 in0.8 mm 0.00 in0.0 mm 0.07 in1.8 mm
01:14 PM 44.3°F6.8°C 31.0°F-0.6°C 59% 2.0 mph NW3.2 kmh NW 9.8 mph15.8 kmh 29.57 in1001.4 mb 0.03 in0.8 mm 0.00 in0.0 mm 0.07 in1.8 mm
01:13 PM 44.3°F6.8°C 31.0°F-0.6°C 59% 2.8 mph SSE4.5 kmh SSE 13.7 mph22.0 kmh 29.57 in1001.4 mb 0.03 in0.8 mm 0.60 in15.2 mm 0.07 in1.8 mm
01:12 PM 44.5°F6.9°C 31.6°F-0.2°C 60% 3.5 mph SE5.6 kmh SE 13.7 mph22.0 kmh 29.57 in1001.4 mb 0.02 in0.5 mm 0.00 in0.0 mm 0.05 in1.3 mm
01:11 PM 44.7°F7.1°C 31.8°F-0.1°C 60% 3.0 mph SE4.8 kmh SE 13.7 mph22.0 kmh 29.56 in1001.0 mb 0.02 in0.5 mm 0.00 in0.0 mm 0.05 in1.3 mm
01:10 PM 44.7°F7.1°C 31.8°F-0.1°C 60% 2.5 mph E4.0 kmh E 13.7 mph22.0 kmh 29.56 in1001.0 mb 0.02 in0.5 mm 0.00 in0.0 mm 0.05 in1.3 mm
01:09 PM 44.7°F7.1°C 31.8°F-0.1°C 60% 2.5 mph E4.0 kmh E 13.7 mph22.0 kmh 29.56 in1001.0 mb 0.02 in0.5 mm 0.00 in0.0 mm 0.05 in1.3 mm
01:08 PM 44.9°F7.2°C 32.4°F0.2°C 61% 1.8 mph NE2.9 kmh NE 13.7 mph22.0 kmh 29.56 in1001.0 mb 0.02 in0.5 mm 0.00 in0.0 mm 0.05 in1.3 mm
01:07 PM 44.9°F7.2°C 31.9°F-0.1°C 60% 1.8 mph NE2.9 kmh NE 13.7 mph22.0 kmh 29.56 in1001.0 mb 0.02 in0.5 mm 0.00 in0.0 mm 0.05 in1.3 mm
01:06 PM 44.9°F7.2°C 32.4°F0.2°C 61% 3.2 mph E5.1 kmh E 13.7 mph22.0 kmh 29.56 in1001.0 mb 0.02 in0.5 mm 0.00 in0.0 mm 0.05 in1.3 mm
01:05 PM 44.9°F7.2°C 32.4°F0.2°C 61% 5.2 mph E8.4 kmh E 13.7 mph22.0 kmh 29.56 in1001.0 mb 0.02 in0.5 mm 0.00 in0.0 mm 0.05 in1.3 mm
01:04 PM 45.0°F7.2°C 32.0°F0.0°C 60% 6.8 mph N10.9 kmh N 13.7 mph22.0 kmh 29.56 in1001.0 mb 0.02 in0.5 mm 0.00 in0.0 mm 0.05 in1.3 mm
01:03 PM 45.0°F7.2°C 32.4°F0.2°C 61% 7.3 mph W11.7 kmh W 13.7 mph22.0 kmh 29.56 in1001.0 mb 0.02 in0.5 mm 0.00 in0.0 mm 0.05 in1.3 mm
01:02 PM 45.0°F7.2°C 32.4°F0.2°C 61% 4.7 mph S7.6 kmh S 8.2 mph13.2 kmh 29.56 in1001.0 mb 0.02 in0.5 mm 0.00 in0.0 mm 0.05 in1.3 mm
01:01 PM 45.0°F7.2°C 32.4°F0.2°C 61% 2.7 mph E4.3 kmh E 14.2 mph22.9 kmh 29.56 in1001.0 mb 0.02 in0.5 mm 0.00 in0.0 mm 0.05 in1.3 mm
01:00 PM 45.0°F7.2°C 32.4°F0.2°C 61% 2.8 mph E4.5 kmh E 14.2 mph22.9 kmh 29.56 in1001.0 mb 0.02 in0.5 mm 0.01 in0.3 mm 0.05 in1.3 mm
12:59 PM 45.0°F7.2°C 32.4°F0.2°C 61% 2.1 mph NE3.4 kmh NE 14.2 mph22.9 kmh 29.57 in1001.4 mb 0.01 in0.3 mm 0.00 in0.0 mm 0.04 in1.0 mm
12:58 PM 45.2°F7.3°C 32.6°F0.3°C 61% 1.9 mph E3.1 kmh E 14.2 mph22.9 kmh 29.57 in1001.4 mb 0.01 in0.3 mm 0.00 in0.0 mm 0.04 in1.0 mm
12:57 PM 45.0°F7.2°C 32.4°F0.2°C 61% 1.8 mph ESE2.9 kmh ESE 14.2 mph22.9 kmh 29.57 in1001.4 mb 0.01 in0.3 mm 0.00 in0.0 mm 0.04 in1.0 mm
12:56 PM 45.2°F7.3°C 32.6°F0.3°C 61% 2.3 mph SSW3.7 kmh SSW 14.2 mph22.9 kmh 29.57 in1001.4 mb 0.01 in0.3 mm 0.00 in0.0 mm 0.04 in1.0 mm
12:55 PM 45.4°F7.4°C 32.8°F0.4°C 61% 2.6 mph SW4.2 kmh SW 14.2 mph22.9 kmh 29.57 in1001.4 mb 0.01 in0.3 mm 0.00 in0.0 mm 0.04 in1.0 mm
12:54 PM 45.4°F7.4°C 33.2°F0.7°C 62% 3.4 mph ENE5.5 kmh ENE 14.2 mph22.9 kmh 29.57 in1001.4 mb 0.01 in0.3 mm 0.00 in0.0 mm 0.04 in1.0 mm
12:53 PM 45.4°F7.4°C 32.8°F0.4°C 61% 5.6 mph ENE9.0 kmh ENE 14.5 mph23.3 kmh 29.57 in1001.4 mb 0.01 in0.3 mm 0.00 in0.0 mm 0.04 in1.0 mm
12:52 PM 45.4°F7.4°C 32.8°F0.4°C 61% 4.8 mph E7.7 kmh E 14.5 mph23.3 kmh 29.56 in1001.0 mb 0.01 in0.3 mm 0.00 in0.0 mm 0.04 in1.0 mm
12:51 PM 45.4°F7.4°C 32.4°F0.2°C 60% 3.8 mph S6.1 kmh S 14.5 mph23.3 kmh 29.57 in1001.4 mb 0.01 in0.3 mm 0.00 in0.0 mm 0.04 in1.0 mm
12:50 PM 45.2°F7.3°C 32.2°F0.1°C 60% 5.4 mph S8.7 kmh S 14.5 mph23.3 kmh 29.56 in1001.0 mb 0.01 in0.3 mm 0.00 in0.0 mm 0.04 in1.0 mm
12:49 PM 45.2°F7.3°C 32.2°F0.1°C 60% 6.3 mph SSW10.1 kmh SSW 14.5 mph23.3 kmh 29.56 in1001.0 mb 0.01 in0.3 mm 0.00 in0.0 mm 0.04 in1.0 mm
12:48 PM 45.2°F7.3°C 32.2°F0.1°C 60% 5.0 mph SW8.0 kmh SW 14.5 mph23.3 kmh 29.56 in1001.0 mb 0.01 in0.3 mm 0.00 in0.0 mm 0.04 in1.0 mm
12:47 PM 45.4°F7.4°C 32.4°F0.2°C 60% 3.2 mph NNE5.1 kmh NNE 14.5 mph23.3 kmh 29.56 in1001.0 mb 0.01 in0.3 mm 0.00 in0.0 mm 0.04 in1.0 mm
12:46 PM 45.4°F7.4°C 32.4°F0.2°C 60% 3.4 mph ENE5.5 kmh ENE 14.5 mph23.3 kmh 29.56 in1001.0 mb 0.02 in0.5 mm 0.00 in0.0 mm 0.04 in1.0 mm
12:45 PM 45.4°F7.4°C 32.4°F0.2°C 60% 5.2 mph ENE8.4 kmh ENE 14.5 mph23.3 kmh 29.56 in1001.0 mb 0.02 in0.5 mm 0.00 in0.0 mm 0.04 in1.0 mm
12:44 PM 45.4°F7.4°C 32.4°F0.2°C 60% 5.9 mph ENE9.5 kmh ENE 14.5 mph23.3 kmh 29.56 in1001.0 mb 0.02 in0.5 mm 0.00 in0.0 mm 0.04 in1.0 mm
12:43 PM 45.4°F7.4°C 32.0°F0.0°C 59% 3.3 mph NE5.3 kmh NE 14.5 mph23.3 kmh 29.56 in1001.0 mb 0.02 in0.5 mm 0.00 in0.0 mm 0.04 in1.0 mm
12:42 PM 45.6°F7.6°C 32.6°F0.3°C 60% 1.6 mph NE2.6 kmh NE 11.7 mph18.8 kmh 29.56 in1001.0 mb 0.02 in0.5 mm 0.00 in0.0 mm 0.04 in1.0 mm
12:41 PM 45.6°F7.6°C 33.0°F0.6°C 61% 2.2 mph ESE3.5 kmh ESE 11.7 mph18.8 kmh 29.56 in1001.0 mb 0.02 in0.5 mm 0.00 in0.0 mm 0.04 in1.0 mm
12:40 PM 45.6°F7.6°C 33.0°F0.6°C 61% 2.5 mph SW4.0 kmh SW 11.7 mph18.8 kmh 29.56 in1001.0 mb 0.02 in0.5 mm 0.00 in0.0 mm 0.04 in1.0 mm
12:39 PM 45.6°F7.6°C 32.6°F0.3°C 60% 2.6 mph SW4.2 kmh SW 11.7 mph18.8 kmh 29.56 in1001.0 mb 0.02 in0.5 mm 0.00 in0.0 mm 0.04 in1.0 mm
12:38 PM 45.6°F7.6°C 32.6°F0.3°C 60% 3.1 mph E5.0 kmh E 14.9 mph24.0 kmh 29.56 in1001.0 mb 0.02 in0.5 mm 0.00 in0.0 mm 0.04 in1.0 mm
12:37 PM 45.6°F7.6°C 32.6°F0.3°C 60% 3.8 mph N6.1 kmh N 14.9 mph24.0 kmh 29.56 in1001.0 mb 0.02 in0.5 mm 0.60 in15.2 mm 0.04 in1.0 mm
12:36 PM 45.6°F7.6°C 32.6°F0.3°C 60% 4.5 mph NNE7.2 kmh NNE 14.9 mph24.0 kmh 29.57 in1001.4 mb 0.01 in0.3 mm 0.00 in0.0 mm 0.03 in0.8 mm
12:35 PM 45.6°F7.6°C 32.6°F0.3°C 60% 3.0 mph SE4.8 kmh SE 14.9 mph24.0 kmh 29.56 in1001.0 mb 0.01 in0.3 mm 0.00 in0.0 mm 0.03 in0.8 mm
12:34 PM 45.6°F7.6°C 32.6°F0.3°C 60% 2.3 mph ESE3.7 kmh ESE 14.9 mph24.0 kmh 29.56 in1001.0 mb 0.01 in0.3 mm 0.00 in0.0 mm 0.03 in0.8 mm
12:33 PM 45.6°F7.6°C 32.6°F0.3°C 60% 2.9 mph E4.7 kmh E 14.9 mph24.0 kmh 29.56 in1001.0 mb 0.01 in0.3 mm 0.00 in0.0 mm 0.03 in0.8 mm
12:32 PM 45.6°F7.6°C 33.0°F0.6°C 61% 4.2 mph NE6.8 kmh NE 14.9 mph24.0 kmh 29.56 in1001.0 mb 0.01 in0.3 mm 0.00 in0.0 mm 0.03 in0.8 mm
12:31 PM 45.8°F7.7°C 33.2°F0.7°C 61% 3.6 mph E5.8 kmh E 14.9 mph24.0 kmh 29.56 in1001.0 mb 0.01 in0.3 mm 0.00 in0.0 mm 0.03 in0.8 mm
12:30 PM 45.6°F7.6°C 33.0°F0.6°C 61% 4.0 mph S6.4 kmh S 14.9 mph24.0 kmh 29.56 in1001.0 mb 0.01 in0.3 mm 0.00 in0.0 mm 0.03 in0.8 mm
12:29 PM 45.6°F7.6°C 33.0°F0.6°C 61% 5.9 mph W9.5 kmh W 14.9 mph24.0 kmh 29.56 in1001.0 mb 0.01 in0.3 mm 0.00 in0.0 mm 0.03 in0.8 mm
12:28 PM 45.8°F7.7°C 33.2°F0.7°C 61% 5.0 mph NNE8.0 kmh NNE 14.9 mph24.0 kmh 29.56 in1001.0 mb 0.01 in0.3 mm 0.00 in0.0 mm 0.03 in0.8 mm
12:27 PM 45.8°F7.7°C 33.2°F0.7°C 61% 3.4 mph NE5.5 kmh NE 14.9 mph24.0 kmh 29.56 in1001.0 mb 0.01 in0.3 mm 0.00 in0.0 mm 0.03 in0.8 mm
12:26 PM 45.8°F7.7°C 33.2°F0.7°C 61% 3.4 mph NE5.5 kmh NE 14.9 mph24.0 kmh 29.56 in1001.0 mb 0.01 in0.3 mm 0.00 in0.0 mm 0.03 in0.8 mm
12:25 PM 45.6°F7.6°C 33.0°F0.6°C 61% 2.9 mph NE4.7 kmh NE 14.9 mph24.0 kmh 29.56 in1001.0 mb 0.01 in0.3 mm 0.00 in0.0 mm 0.03 in0.8 mm
12:24 PM 45.8°F7.7°C 33.2°F0.7°C 61% 2.2 mph NE3.5 kmh NE 14.9 mph24.0 kmh 29.56 in1001.0 mb 0.01 in0.3 mm 0.00 in0.0 mm 0.03 in0.8 mm
12:23 PM 45.6°F7.6°C 33.0°F0.6°C 61% 3.0 mph E4.8 kmh E 14.9 mph24.0 kmh 29.57 in1001.4 mb 0.01 in0.3 mm 0.00 in0.0 mm 0.03 in0.8 mm
12:22 PM 45.6°F7.6°C 33.0°F0.6°C 61% 5.3 mph NNW8.5 kmh NNW 17.1 mph27.5 kmh 29.56 in1001.0 mb 0.01 in0.3 mm 0.00 in0.0 mm 0.03 in0.8 mm
12:21 PM 45.6°F7.6°C 33.0°F0.6°C 61% 5.0 mph NW8.0 kmh NW 17.1 mph27.5 kmh 29.57 in1001.4 mb 0.01 in0.3 mm 0.00 in0.0 mm 0.03 in0.8 mm
12:20 PM 45.6°F7.6°C 33.0°F0.6°C 61% 5.3 mph NNE8.5 kmh NNE 17.1 mph27.5 kmh 29.56 in1001.0 mb 0.01 in0.3 mm 0.00 in0.0 mm 0.03 in0.8 mm
12:19 PM 45.8°F7.7°C 33.2°F0.7°C 61% 4.9 mph NNE7.9 kmh NNE 17.1 mph27.5 kmh 29.56 in1001.0 mb 0.01 in0.3 mm 0.00 in0.0 mm 0.03 in0.8 mm
12:18 PM 45.8°F7.7°C 33.2°F0.7°C 61% 5.0 mph N8.0 kmh N 18.7 mph30.1 kmh 29.56 in1001.0 mb 0.01 in0.3 mm 0.00 in0.0 mm 0.03 in0.8 mm
12:17 PM 45.8°F7.7°C 33.2°F0.7°C 61% 5.1 mph NE8.2 kmh NE 18.7 mph30.1 kmh 29.57 in1001.4 mb 0.01 in0.3 mm 0.00 in0.0 mm 0.03 in0.8 mm
12:16 PM 45.8°F7.7°C 33.2°F0.7°C 61% 2.6 mph SSE4.2 kmh SSE 18.7 mph30.1 kmh 29.56 in1001.0 mb 0.01 in0.3 mm 0.00 in0.0 mm 0.03 in0.8 mm
12:15 PM 45.8°F7.7°C 33.2°F0.7°C 61% 1.5 mph WSW2.4 kmh WSW 18.7 mph30.1 kmh 29.57 in1001.4 mb 0.01 in0.3 mm 0.00 in0.0 mm 0.03 in0.8 mm
12:14 PM 45.8°F7.7°C 33.2°F0.7°C 61% 6.6 mph NW10.6 kmh NW 24.3 mph39.1 kmh 29.57 in1001.4 mb 0.01 in0.3 mm 0.00 in0.0 mm 0.03 in0.8 mm
12:13 PM 45.8°F7.7°C 33.2°F0.7°C 61% 9.2 mph NNE14.8 kmh NNE 24.3 mph39.1 kmh 29.57 in1001.4 mb 0.01 in0.3 mm 0.00 in0.0 mm 0.03 in0.8 mm
12:12 PM 45.6°F7.6°C 32.6°F0.3°C 60% 5.6 mph E9.0 kmh E 24.3 mph39.1 kmh 29.57 in1001.4 mb 0.01 in0.3 mm 0.00 in0.0 mm 0.03 in0.8 mm
12:11 PM 45.6°F7.6°C 32.6°F0.3°C 60% 3.5 mph N5.6 kmh N 24.3 mph39.1 kmh 29.57 in1001.4 mb 0.01 in0.3 mm 0.00 in0.0 mm 0.03 in0.8 mm
12:10 PM 45.6°F7.6°C 33.0°F0.6°C 61% 6.2 mph NW10.0 kmh NW 24.3 mph39.1 kmh 29.57 in1001.4 mb 0.01 in0.3 mm 0.00 in0.0 mm 0.03 in0.8 mm
12:09 PM 45.6°F7.6°C 33.0°F0.6°C 61% 6.7 mph S10.8 kmh S 24.3 mph39.1 kmh 29.57 in1001.4 mb 0.01 in0.3 mm 0.00 in0.0 mm 0.03 in0.8 mm
12:08 PM 45.6°F7.6°C 32.6°F0.3°C 60% 5.9 mph NNE9.5 kmh NNE 24.3 mph39.1 kmh 29.57 in1001.4 mb 0.01 in0.3 mm 0.00 in0.0 mm 0.03 in0.8 mm
12:07 PM 45.6°F7.6°C 32.6°F0.3°C 60% 5.7 mph N9.2 kmh N 24.3 mph39.1 kmh 29.57 in1001.4 mb 0.01 in0.3 mm 0.00 in0.0 mm 0.03 in0.8 mm
12:06 PM 45.6°F7.6°C 32.6°F0.3°C 60% 10.1 mph NE16.3 kmh NE 24.3 mph39.1 kmh 29.57 in1001.4 mb 0.01 in0.3 mm 0.00 in0.0 mm 0.03 in0.8 mm
12:05 PM 45.6°F7.6°C 32.6°F0.3°C 60% 8.8 mph ENE14.2 kmh ENE 24.3 mph39.1 kmh 29.57 in1001.4 mb 0.01 in0.3 mm 0.00 in0.0 mm 0.03 in0.8 mm
12:04 PM 45.4°F7.4°C 32.0°F0.0°C 59% 2.2 mph SE3.5 kmh SE 12.6 mph20.3 kmh 29.57 in1001.4 mb 0.01 in0.3 mm 0.00 in0.0 mm 0.03 in0.8 mm
12:03 PM 45.4°F7.4°C 32.0°F0.0°C 59% 2.4 mph SSE3.9 kmh SSE 12.6 mph20.3 kmh 29.57 in1001.4 mb 0.01 in0.3 mm 0.00 in0.0 mm 0.03 in0.8 mm
12:02 PM 45.4°F7.4°C 32.0°F0.0°C 59% 3.0 mph ESE4.8 kmh ESE 12.6 mph20.3 kmh 29.57 in1001.4 mb 0.01 in0.3 mm 0.00 in0.0 mm 0.03 in0.8 mm
12:01 PM 45.4°F7.4°C 32.0°F0.0°C 59% 2.8 mph NE4.5 kmh NE 12.6 mph20.3 kmh 29.57 in1001.4 mb 0.01 in0.3 mm 0.00 in0.0 mm 0.03 in0.8 mm
12:00 PM 45.2°F7.3°C 31.4°F-0.3°C 58% 3.4 mph E5.5 kmh E 12.6 mph20.3 kmh 29.57 in1001.4 mb 0.01 in0.3 mm 0.00 in0.0 mm 0.03 in0.8 mm
11:59 AM 45.2°F7.3°C 31.4°F-0.3°C 58% 3.8 mph SE6.1 kmh SE 12.6 mph20.3 kmh 29.57 in1001.4 mb 0.01 in0.3 mm 0.00 in0.0 mm 0.03 in0.8 mm
11:58 AM 45.4°F7.4°C 31.5°F-0.3°C 58% 2.6 mph SW4.2 kmh SW 12.1 mph19.5 kmh 29.57 in1001.4 mb 0.01 in0.3 mm 0.00 in0.0 mm 0.03 in0.8 mm
11:57 AM 45.2°F7.3°C 31.4°F-0.3°C 58% 3.1 mph NW5.0 kmh NW 12.1 mph19.5 kmh 29.57 in1001.4 mb 0.02 in0.5 mm 0.00 in0.0 mm 0.03 in0.8 mm
11:56 AM 45.4°F7.4°C 31.5°F-0.3°C 58% 3.6 mph NE5.8 kmh NE 12.1 mph19.5 kmh 29.57 in1001.4 mb 0.02 in0.5 mm 0.00 in0.0 mm 0.03 in0.8 mm
11:55 AM 45.2°F7.3°C 31.4°F-0.3°C 58% 4.1 mph SE6.6 kmh SE 12.1 mph19.5 kmh 29.57 in1001.4 mb 0.02 in0.5 mm 0.00 in0.0 mm 0.03 in0.8 mm
11:54 AM 45.2°F7.3°C 31.4°F-0.3°C 58% 4.5 mph E7.2 kmh E 12.1 mph19.5 kmh 29.57 in1001.4 mb 0.02 in0.5 mm 0.00 in0.0 mm 0.03 in0.8 mm
11:53 AM 45.2°F7.3°C 31.4°F-0.3°C 58% 5.3 mph NE8.5 kmh NE 12.1 mph19.5 kmh 29.57 in1001.4 mb 0.02 in0.5 mm 0.00 in0.0 mm 0.03 in0.8 mm
11:52 AM 45.0°F7.2°C 30.7°F-0.7°C 57% 6.6 mph ENE10.6 kmh ENE 12.1 mph19.5 kmh 29.57 in1001.4 mb 0.02 in0.5 mm 0.00 in0.0 mm 0.03 in0.8 mm
11:51 AM 45.0°F7.2°C 30.7°F-0.7°C 57% 5.4 mph SE8.7 kmh SE 12.1 mph19.5 kmh 29.57 in1001.4 mb 0.02 in0.5 mm 0.00 in0.0 mm 0.03 in0.8 mm
11:50 AM 45.0°F7.2°C 30.7°F-0.7°C 57% 3.2 mph ENE5.1 kmh ENE 5.4 mph8.7 kmh 29.57 in1001.4 mb 0.02 in0.5 mm 0.00 in0.0 mm 0.03 in0.8 mm
11:49 AM 45.0°F7.2°C 30.7°F-0.7°C 57% 2.5 mph E4.0 kmh E 5.4 mph8.7 kmh 29.57 in1001.4 mb 0.02 in0.5 mm 0.00 in0.0 mm 0.03 in0.8 mm
11:48 AM 45.0°F7.2°C 30.7°F-0.7°C 57% 2.4 mph N3.9 kmh N 5.4 mph8.7 kmh 29.57 in1001.4 mb 0.02 in0.5 mm 0.00 in0.0 mm 0.03 in0.8 mm
11:47 AM 45.0°F7.2°C 30.7°F-0.7°C 57% 2.5 mph NNE4.0 kmh NNE 5.4 mph8.7 kmh 29.57 in1001.4 mb 0.02 in0.5 mm 0.60 in15.2 mm 0.03 in0.8 mm
11:46 AM 45.2°F7.3°C 31.4°F-0.3°C 58% 2.2 mph NE3.5 kmh NE 5.4 mph8.7 kmh 29.57 in1001.4 mb 0.01 in0.3 mm 0.00 in0.0 mm 0.02 in0.5 mm
11:45 AM 45.2°F7.3°C 31.4°F-0.3°C 58% 2.9 mph W4.7 kmh W 13.7 mph22.0 kmh 29.57 in1001.4 mb 0.01 in0.3 mm 0.00 in0.0 mm 0.02 in0.5 mm
11:44 AM 45.0°F7.2°C 30.7°F-0.7°C 57% 3.2 mph WSW5.1 kmh WSW 13.7 mph22.0 kmh 29.57 in1001.4 mb 0.01 in0.3 mm 0.00 in0.0 mm 0.02 in0.5 mm
11:43 AM 45.0°F7.2°C 30.7°F-0.7°C 57% 2.4 mph WSW3.9 kmh WSW 13.7 mph22.0 kmh 29.57 in1001.4 mb 0.01 in0.3 mm 0.00 in0.0 mm 0.02 in0.5 mm
11:42 AM 45.0°F7.2°C 30.7°F-0.7°C 57% 2.8 mph N4.5 kmh N 13.7 mph22.0 kmh 29.57 in1001.4 mb 0.01 in0.3 mm 0.00 in0.0 mm 0.02 in0.5 mm
11:41 AM 45.0°F7.2°C 30.7°F-0.7°C 57% 3.6 mph SSW5.8 kmh SSW 13.7 mph22.0 kmh 29.57 in1001.4 mb 0.01 in0.3 mm 0.00 in0.0 mm 0.02 in0.5 mm
11:40 AM 45.2°F7.3°C 31.4°F-0.3°C 58% 3.5 mph WSW5.6 kmh WSW 13.7 mph22.0 kmh 29.57 in1001.4 mb 0.01 in0.3 mm 0.00 in0.0 mm 0.02 in0.5 mm
11:39 AM 45.2°F7.3°C 31.4°F-0.3°C 58% 2.7 mph E4.3 kmh E 13.7 mph22.0 kmh 29.57 in1001.4 mb 0.01 in0.3 mm 0.00 in0.0 mm 0.02 in0.5 mm
11:38 AM 45.0°F7.2°C 30.7°F-0.7°C 57% 2.0 mph SE3.2 kmh SE 13.7 mph22.0 kmh 29.58 in1001.7 mb 0.01 in0.3 mm 0.00 in0.0 mm 0.02 in0.5 mm
11:37 AM 45.0°F7.2°C 30.7°F-0.7°C 57% 5.2 mph NE8.4 kmh NE 13.7 mph22.0 kmh 29.57 in1001.4 mb 0.01 in0.3 mm 0.00 in0.0 mm 0.02 in0.5 mm
11:36 AM 45.0°F7.2°C 30.7°F-0.7°C 57% 5.0 mph NE8.0 kmh NE 13.7 mph22.0 kmh 29.57 in1001.4 mb 0.01 in0.3 mm 0.00 in0.0 mm 0.02 in0.5 mm
11:35 AM 45.0°F7.2°C 31.2°F-0.4°C 58% 1.8 mph NE2.9 kmh NE 11.0 mph17.7 kmh 29.57 in1001.4 mb 0.01 in0.3 mm 0.00 in0.0 mm 0.02 in0.5 mm
11:34 AM 45.0°F7.2°C 30.7°F-0.7°C 57% 2.3 mph NE3.7 kmh NE 11.0 mph17.7 kmh 29.57 in1001.4 mb 0.01 in0.3 mm 0.00 in0.0 mm 0.02 in0.5 mm
11:33 AM 45.0°F7.2°C 31.2°F-0.4°C 58% 2.9 mph SSE4.7 kmh SSE 11.0 mph17.7 kmh 29.57 in1001.4 mb 0.01 in0.3 mm 0.00 in0.0 mm 0.02 in0.5 mm
11:32 AM 45.2°F7.3°C 31.4°F-0.3°C 58% 2.2 mph S3.5 kmh S 11.0 mph17.7 kmh 29.57 in1001.4 mb 0.01 in0.3 mm 0.00 in0.0 mm 0.02 in0.5 mm
11:31 AM 45.0°F7.2°C 31.2°F-0.4°C 58% 3.0 mph SW4.8 kmh SW 11.0 mph17.7 kmh 29.58 in1001.7 mb 0.01 in0.3 mm 0.00 in0.0 mm 0.02 in0.5 mm
11:30 AM 45.0°F7.2°C 31.2°F-0.4°C 58% 2.7 mph NNW4.3 kmh NNW 11.0 mph17.7 kmh 29.58 in1001.7 mb 0.01 in0.3 mm 0.00 in0.0 mm 0.02 in0.5 mm
11:29 AM 45.4°F7.4°C 31.5°F-0.3°C 58% 2.2 mph N3.5 kmh N 10.2 mph16.4 kmh 29.58 in1001.7 mb 0.01 in0.3 mm 0.00 in0.0 mm 0.02 in0.5 mm
11:28 AM 45.4°F7.4°C 32.0°F0.0°C 59% 2.6 mph S4.2 kmh S 10.2 mph16.4 kmh 29.58 in1001.7 mb 0.01 in0.3 mm 0.00 in0.0 mm 0.02 in0.5 mm
11:27 AM 45.4°F7.4°C 32.0°F0.0°C 59% 3.5 mph E5.6 kmh E 10.2 mph16.4 kmh 29.58 in1001.7 mb 0.02 in0.5 mm 0.00 in0.0 mm 0.02 in0.5 mm
11:26 AM 45.4°F7.4°C 32.0°F0.0°C 59% 4.6 mph NNE7.4 kmh NNE 10.2 mph16.4 kmh 29.58 in1001.7 mb 0.02 in0.5 mm 0.00 in0.0 mm 0.02 in0.5 mm
11:25 AM 45.4°F7.4°C 32.0°F0.0°C 59% 3.8 mph N6.1 kmh N 10.2 mph16.4 kmh 29.58 in1001.7 mb 0.02 in0.5 mm 0.00 in0.0 mm 0.02 in0.5 mm
11:24 AM 45.6°F7.6°C 32.2°F0.1°C 59% 2.1 mph SSE3.4 kmh SSE 9.8 mph15.8 kmh 29.58 in1001.7 mb 0.02 in0.5 mm 0.00 in0.0 mm 0.02 in0.5 mm
11:23 AM 45.4°F7.4°C 32.0°F0.0°C 59% 4.3 mph S6.9 kmh S 11.0 mph17.7 kmh 29.58 in1001.7 mb 0.02 in0.5 mm 0.00 in0.0 mm 0.02 in0.5 mm
11:22 AM 45.6°F7.6°C 32.2°F0.1°C 59% 6.0 mph S9.7 kmh S 11.0 mph17.7 kmh 29.58 in1001.7 mb 0.02 in0.5 mm 0.00 in0.0 mm 0.02 in0.5 mm
11:21 AM 45.8°F7.7°C 32.8°F0.4°C 60% 4.5 mph NW7.2 kmh NW 11.0 mph17.7 kmh 29.59 in1002.0 mb 0.02 in0.5 mm 0.00 in0.0 mm 0.02 in0.5 mm
11:20 AM 45.6°F7.6°C 32.6°F0.3°C 60% 4.0 mph SSE6.4 kmh SSE 11.0 mph17.7 kmh 29.59 in1002.0 mb 0.02 in0.5 mm 0.00 in0.0 mm 0.02 in0.5 mm
11:19 AM 45.8°F7.7°C 33.2°F0.7°C 61% 4.9 mph SE7.9 kmh SE 11.0 mph17.7 kmh 29.59 in1002.0 mb 0.02 in0.5 mm 0.00 in0.0 mm 0.02 in0.5 mm
11:18 AM 45.8°F7.7°C 33.2°F0.7°C 61% 3.9 mph SSE6.3 kmh SSE 11.0 mph17.7 kmh 29.59 in1002.0 mb 0.02 in0.5 mm 0.00 in0.0 mm 0.02 in0.5 mm
11:17 AM 45.8°F7.7°C 33.2°F0.7°C 61% 3.0 mph ESE4.8 kmh ESE 11.0 mph17.7 kmh 29.59 in1002.0 mb 0.02 in0.5 mm 0.00 in0.0 mm 0.02 in0.5 mm
11:16 AM 45.8°F7.7°C 33.2°F0.7°C 61% 3.4 mph SSE5.5 kmh SSE 11.0 mph17.7 kmh 29.59 in1002.0 mb 0.02 in0.5 mm 0.00 in0.0 mm 0.02 in0.5 mm
11:15 AM 45.9°F7.7°C 33.3°F0.7°C 61% 5.8 mph ESE9.3 kmh ESE 11.0 mph17.7 kmh 29.59 in1002.0 mb 0.02 in0.5 mm 0.00 in0.0 mm 0.02 in0.5 mm
11:14 AM 45.9°F7.7°C 33.3°F0.7°C 61% 5.4 mph E8.7 kmh E 11.0 mph17.7 kmh 29.59 in1002.0 mb 0.02 in0.5 mm 0.00 in0.0 mm 0.02 in0.5 mm
11:13 AM 46.1°F7.8°C 33.5°F0.8°C 61% 3.0 mph NW4.8 kmh NW 11.0 mph17.7 kmh 29.59 in1002.0 mb 0.02 in0.5 mm 0.00 in0.0 mm 0.02 in0.5 mm
11:12 AM 46.1°F7.8°C 33.5°F0.8°C 61% 3.4 mph NW5.5 kmh NW 7.0 mph11.3 kmh 29.59 in1002.0 mb 0.02 in0.5 mm 0.00 in0.0 mm 0.02 in0.5 mm
11:11 AM 46.1°F7.8°C 33.5°F0.8°C 61% 3.6 mph NNW5.8 kmh NNW 7.0 mph11.3 kmh 29.60 in1002.4 mb 0.02 in0.5 mm 0.00 in0.0 mm 0.02 in0.5 mm
11:10 AM 46.1°F7.8°C 33.5°F0.8°C 61% 2.9 mph ESE4.7 kmh ESE 7.0 mph11.3 kmh 29.60 in1002.4 mb 0.02 in0.5 mm 0.00 in0.0 mm 0.02 in0.5 mm
11:09 AM 46.1°F7.8°C 33.5°F0.8°C 61% 3.7 mph NE6.0 kmh NE 7.0 mph11.3 kmh 29.60 in1002.4 mb 0.02 in0.5 mm 0.00 in0.0 mm 0.02 in0.5 mm
11:08 AM 46.1°F7.8°C 33.5°F0.8°C 61% 3.3 mph NNE5.3 kmh NNE 7.0 mph11.3 kmh 29.60 in1002.4 mb 0.02 in0.5 mm 0.00 in0.0 mm 0.02 in0.5 mm
11:07 AM 46.3°F7.9°C 34.1°F1.2°C 62% 1.3 mph WNW2.1 kmh WNW 7.0 mph11.3 kmh 29.60 in1002.4 mb 0.02 in0.5 mm 0.00 in0.0 mm 0.02 in0.5 mm
11:06 AM 46.3°F7.9°C 34.1°F1.2°C 62% 0.9 mph WNW1.4 kmh WNW 7.0 mph11.3 kmh 29.60 in1002.4 mb 0.02 in0.5 mm 0.00 in0.0 mm 0.02 in0.5 mm
11:05 AM 46.3°F7.9°C 33.6°F0.9°C 61% 1.7 mph N2.7 kmh N 7.0 mph11.3 kmh 29.60 in1002.4 mb 0.02 in0.5 mm 0.00 in0.0 mm 0.02 in0.5 mm
11:04 AM 46.3°F7.9°C 33.6°F0.9°C 61% 3.1 mph NE5.0 kmh NE 7.0 mph11.3 kmh 29.60 in1002.4 mb 0.02 in0.5 mm 0.00 in0.0 mm 0.02 in0.5 mm
11:03 AM 46.3°F7.9°C 34.1°F1.2°C 62% 3.6 mph ESE5.8 kmh ESE 7.0 mph11.3 kmh 29.60 in1002.4 mb 0.02 in0.5 mm 0.00 in0.0 mm 0.02 in0.5 mm
11:02 AM 46.5°F8.1°C 34.6°F1.4°C 63% 2.6 mph E4.2 kmh E 7.0 mph11.3 kmh 29.60 in1002.4 mb 0.02 in0.5 mm 0.00 in0.0 mm 0.02 in0.5 mm
11:01 AM 46.5°F8.1°C 34.6°F1.4°C 63% 1.1 mph N1.8 kmh N 7.0 mph11.3 kmh 29.60 in1002.4 mb 0.02 in0.5 mm 0.00 in0.0 mm 0.02 in0.5 mm
11:00 AM 46.7°F8.2°C 34.8°F1.6°C 63% 2.5 mph NNE4.0 kmh NNE 7.0 mph11.3 kmh 29.61 in1002.7 mb 0.02 in0.5 mm 0.00 in0.0 mm 0.02 in0.5 mm
10:59 AM 46.5°F8.1°C 34.2°F1.2°C 62% 3.9 mph N6.3 kmh N 7.0 mph11.3 kmh 29.60 in1002.4 mb 0.02 in0.5 mm 0.60 in15.2 mm 0.02 in0.5 mm
10:58 AM 46.5°F8.1°C 34.2°F1.2°C 62% 3.3 mph S5.3 kmh S 7.0 mph11.3 kmh 29.60 in1002.4 mb 0.01 in0.3 mm 0.00 in0.0 mm 0.01 in0.3 mm
10:57 AM 46.5°F8.1°C 34.2°F1.2°C 62% 3.0 mph SE4.8 kmh SE 7.0 mph11.3 kmh 29.61 in1002.7 mb 0.01 in0.3 mm 0.00 in0.0 mm 0.01 in0.3 mm
10:56 AM 46.7°F8.2°C 34.8°F1.6°C 63% 2.4 mph SSE3.9 kmh SSE 11.0 mph17.7 kmh 29.61 in1002.7 mb 0.01 in0.3 mm 0.00 in0.0 mm 0.01 in0.3 mm
10:55 AM 46.7°F8.2°C 34.4°F1.3°C 62% 1.9 mph S3.1 kmh S 11.0 mph17.7 kmh 29.61 in1002.7 mb 0.01 in0.3 mm 0.00 in0.0 mm 0.01 in0.3 mm
10:54 AM 46.7°F8.2°C 34.8°F1.6°C 63% 1.5 mph NE2.4 kmh NE 11.0 mph17.7 kmh 29.61 in1002.7 mb 0.01 in0.3 mm 0.00 in0.0 mm 0.01 in0.3 mm
10:53 AM 46.7°F8.2°C 34.8°F1.6°C 63% 1.8 mph ENE2.9 kmh ENE 11.0 mph17.7 kmh 29.61 in1002.7 mb 0.01 in0.3 mm 0.00 in0.0 mm 0.01 in0.3 mm
10:52 AM 46.7°F8.2°C 34.8°F1.6°C 63% 1.8 mph E2.9 kmh E 11.0 mph17.7 kmh 29.61 in1002.7 mb 0.01 in0.3 mm 0.00 in0.0 mm 0.01 in0.3 mm
10:51 AM 46.7°F8.2°C 34.8°F1.6°C 63% 2.4 mph SE3.9 kmh SE 11.0 mph17.7 kmh 29.61 in1002.7 mb 0.01 in0.3 mm 0.00 in0.0 mm 0.01 in0.3 mm
10:50 AM 46.7°F8.2°C 34.8°F1.6°C 63% 2.5 mph SSE4.0 kmh SSE 11.0 mph17.7 kmh 29.61 in1002.7 mb 0.01 in0.3 mm 0.00 in0.0 mm 0.01 in0.3 mm
10:49 AM 46.8°F8.2°C 34.9°F1.6°C 63% 2.1 mph SSE3.4 kmh SSE 11.0 mph17.7 kmh 29.61 in1002.7 mb 0.01 in0.3 mm 0.00 in0.0 mm 0.01 in0.3 mm
10:48 AM 46.8°F8.2°C 34.9°F1.6°C 63% 2.6 mph E4.2 kmh E 11.0 mph17.7 kmh 29.61 in1002.7 mb 0.01 in0.3 mm 0.00 in0.0 mm 0.01 in0.3 mm
10:47 AM 46.8°F8.2°C 34.9°F1.6°C 63% 3.9 mph NE6.3 kmh NE 11.0 mph17.7 kmh 29.61 in1002.7 mb 0.01 in0.3 mm 0.00 in0.0 mm 0.01 in0.3 mm
10:46 AM 46.8°F8.2°C 35.3°F1.8°C 64% 3.3 mph NE5.3 kmh NE 11.0 mph17.7 kmh 29.61 in1002.7 mb 0.01 in0.3 mm 0.00 in0.0 mm 0.01 in0.3 mm
10:45 AM 46.9°F8.3°C 35.5°F1.9°C 64% 2.5 mph N4.0 kmh N 8.2 mph13.2 kmh 29.61 in1002.7 mb 0.01 in0.3 mm 0.00 in0.0 mm 0.01 in0.3 mm
10:44 AM 46.9°F8.3°C 35.5°F1.9°C 64% 2.5 mph W4.0 kmh W 8.2 mph13.2 kmh 29.61 in1002.7 mb 0.01 in0.3 mm 0.00 in0.0 mm 0.01 in0.3 mm
10:43 AM 46.8°F8.2°C 34.9°F1.6°C 63% 2.7 mph WSW4.3 kmh WSW 8.2 mph13.2 kmh 29.61 in1002.7 mb 0.01 in0.3 mm 0.00 in0.0 mm 0.01 in0.3 mm
10:42 AM 46.8°F8.2°C 34.9°F1.6°C 63% 2.5 mph SW4.0 kmh SW 8.2 mph13.2 kmh 29.61 in1002.7 mb 0.01 in0.3 mm 0.00 in0.0 mm 0.01 in0.3 mm
10:41 AM 46.8°F8.2°C 35.3°F1.8°C 64% 2.2 mph E3.5 kmh E 8.2 mph13.2 kmh 29.61 in1002.7 mb 0.01 in0.3 mm 0.00 in0.0 mm 0.01 in0.3 mm
10:40 AM 46.9°F8.3°C 35.5°F1.9°C 64% 3.9 mph E6.3 kmh E 8.2 mph13.2 kmh 29.61 in1002.7 mb 0.01 in0.3 mm 0.00 in0.0 mm 0.01 in0.3 mm
10:39 AM 46.9°F8.3°C 35.1°F1.7°C 63% 4.1 mph E6.6 kmh E 8.2 mph13.2 kmh 29.61 in1002.7 mb 0.01 in0.3 mm 0.00 in0.0 mm 0.01 in0.3 mm
10:38 AM 46.9°F8.3°C 35.1°F1.7°C 63% 3.1 mph NE5.0 kmh NE 8.2 mph13.2 kmh 29.61 in1002.7 mb 0.01 in0.3 mm 0.00 in0.0 mm 0.01 in0.3 mm
10:37 AM 46.9°F8.3°C 35.1°F1.7°C 63% 2.0 mph NNW3.2 kmh NNW 6.0 mph9.7 kmh 29.61 in1002.7 mb 0.01 in0.3 mm 0.00 in0.0 mm 0.01 in0.3 mm
10:36 AM 46.9°F8.3°C 35.1°F1.7°C 63% 1.7 mph WSW2.7 kmh WSW 6.0 mph9.7 kmh 29.61 in1002.7 mb 0.01 in0.3 mm 0.00 in0.0 mm 0.01 in0.3 mm
10:35 AM 46.9°F8.3°C 35.1°F1.7°C 63% 1.9 mph SW3.1 kmh SW 7.0 mph11.3 kmh 29.61 in1002.7 mb 0.01 in0.3 mm 0.00 in0.0 mm 0.01 in0.3 mm
10:34 AM 46.9°F8.3°C 35.1°F1.7°C 63% 1.9 mph ESE3.1 kmh ESE 8.6 mph13.8 kmh 29.61 in1002.7 mb 0.01 in0.3 mm 0.00 in0.0 mm 0.01 in0.3 mm
10:33 AM 46.9°F8.3°C 35.5°F1.9°C 64% 2.0 mph ENE3.2 kmh ENE 8.6 mph13.8 kmh 29.61 in1002.7 mb 0.01 in0.3 mm 0.00 in0.0 mm 0.01 in0.3 mm
10:32 AM 46.8°F8.2°C 34.9°F1.6°C 63% 1.8 mph NE2.9 kmh NE 8.6 mph13.8 kmh 29.61 in1002.7 mb 0.01 in0.3 mm 0.00 in0.0 mm 0.01 in0.3 mm
10:31 AM 46.9°F8.3°C 35.5°F1.9°C 64% 3.2 mph SSE5.1 kmh SSE 8.6 mph13.8 kmh 29.61 in1002.7 mb 0.01 in0.3 mm 0.00 in0.0 mm 0.01 in0.3 mm
10:30 AM 46.8°F8.2°C 35.3°F1.8°C 64% 3.5 mph E5.6 kmh E 8.6 mph13.8 kmh 29.61 in1002.7 mb 0.01 in0.3 mm 0.00 in0.0 mm 0.01 in0.3 mm
10:29 AM 46.8°F8.2°C 35.3°F1.8°C 64% 2.4 mph NE3.9 kmh NE 8.6 mph13.8 kmh 29.61 in1002.7 mb 0.01 in0.3 mm 0.60 in15.2 mm 0.01 in0.3 mm
10:28 AM 46.9°F8.3°C 35.5°F1.9°C 64% 2.0 mph NE3.2 kmh NE 8.6 mph13.8 kmh 29.61 in1002.7 mb 0.00 in0.0 mm 0.00 in0.0 mm 0.00 in0.0 mm
10:27 AM 46.8°F8.2°C 35.3°F1.8°C 64% 2.6 mph N4.2 kmh N 8.6 mph13.8 kmh 29.61 in1002.7 mb 0.00 in0.0 mm 0.00 in0.0 mm 0.00 in0.0 mm
10:26 AM 46.8°F8.2°C 35.3°F1.8°C 64% 3.0 mph NE4.8 kmh NE 8.6 mph13.8 kmh 29.61 in1002.7 mb 0.00 in0.0 mm 0.00 in0.0 mm 0.00 in0.0 mm
10:25 AM 46.8°F8.2°C 35.3°F1.8°C 64% 3.7 mph N6.0 kmh N 8.6 mph13.8 kmh 29.61 in1002.7 mb 0.00 in0.0 mm 0.00 in0.0 mm 0.00 in0.0 mm
10:24 AM 46.9°F8.3°C 35.5°F1.9°C 64% 3.5 mph N5.6 kmh N 8.6 mph13.8 kmh 29.61 in1002.7 mb 0.00 in0.0 mm 0.00 in0.0 mm 0.00 in0.0 mm
10:23 AM 46.8°F8.2°C 35.3°F1.8°C 64% 1.6 mph NE2.6 kmh NE 6.7 mph10.8 kmh 29.61 in1002.7 mb 0.00 in0.0 mm 0.00 in0.0 mm 0.00 in0.0 mm
10:22 AM 46.8°F8.2°C 35.7°F2.1°C 65% 2.9 mph N4.7 kmh N 6.7 mph10.8 kmh 29.61 in1002.7 mb 0.00 in0.0 mm 0.00 in0.0 mm 0.00 in0.0 mm
10:21 AM 46.8°F8.2°C 35.7°F2.1°C 65% 3.9 mph N6.3 kmh N 6.7 mph10.8 kmh 29.61 in1002.7 mb 0.00 in0.0 mm 0.00 in0.0 mm 0.00 in0.0 mm
10:20 AM 46.9°F8.3°C 35.9°F2.2°C 65% 3.3 mph E5.3 kmh E 7.5 mph12.1 kmh 29.61 in1002.7 mb 0.00 in0.0 mm 0.00 in0.0 mm 0.00 in0.0 mm
10:19 AM 46.9°F8.3°C 35.5°F1.9°C 64% 2.5 mph SE4.0 kmh SE 7.5 mph12.1 kmh 29.61 in1002.7 mb 0.00 in0.0 mm 0.00 in0.0 mm 0.00 in0.0 mm
10:18 AM 46.8°F8.2°C 35.3°F1.8°C 64% 2.2 mph NNW3.5 kmh NNW 7.5 mph12.1 kmh 29.61 in1002.7 mb 0.00 in0.0 mm 0.00 in0.0 mm 0.00 in0.0 mm
10:17 AM 46.8°F8.2°C 35.7°F2.1°C 65% 2.1 mph NNW3.4 kmh NNW 7.5 mph12.1 kmh 29.61 in1002.7 mb 0.00 in0.0 mm 0.00 in0.0 mm 0.00 in0.0 mm
10:16 AM 46.8°F8.2°C 35.7°F2.1°C 65% 3.1 mph N5.0 kmh N 7.5 mph12.1 kmh 29.61 in1002.7 mb 0.00 in0.0 mm 0.00 in0.0 mm 0.00 in0.0 mm
10:15 AM 46.8°F8.2°C 35.7°F2.1°C 65% 3.1 mph NNE5.0 kmh NNE 7.5 mph12.1 kmh 29.61 in1002.7 mb 0.00 in0.0 mm 0.00 in0.0 mm 0.00 in0.0 mm
10:14 AM 46.8°F8.2°C 35.7°F2.1°C 65% 2.8 mph ENE4.5 kmh ENE 9.4 mph15.1 kmh 29.61 in1002.7 mb 0.00 in0.0 mm 0.00 in0.0 mm 0.00 in0.0 mm
10:13 AM 46.8°F8.2°C 35.7°F2.1°C 65% 3.8 mph NE6.1 kmh NE 9.4 mph15.1 kmh 29.61 in1002.7 mb 0.00 in0.0 mm 0.00 in0.0 mm 0.00 in0.0 mm
10:12 AM 46.8°F8.2°C 35.7°F2.1°C 65% 4.2 mph E6.8 kmh E 9.4 mph15.1 kmh 29.61 in1002.7 mb 0.00 in0.0 mm 0.00 in0.0 mm 0.00 in0.0 mm
10:11 AM 46.8°F8.2°C 35.7°F2.1°C 65% 4.5 mph E7.2 kmh E 9.4 mph15.1 kmh 29.61 in1002.7 mb 0.00 in0.0 mm 0.00 in0.0 mm 0.00 in0.0 mm
10:10 AM 46.8°F8.2°C 35.7°F2.1°C 65% 3.0 mph NE4.8 kmh NE 9.4 mph15.1 kmh 29.61 in1002.7 mb 0.00 in0.0 mm 0.00 in0.0 mm 0.00 in0.0 mm
10:09 AM 46.8°F8.2°C 35.7°F2.1°C 65% 0.9 mph E1.4 kmh E 9.4 mph15.1 kmh 29.61 in1002.7 mb 0.00 in0.0 mm 0.00 in0.0 mm 0.00 in0.0 mm
10:08 AM 46.8°F8.2°C 35.7°F2.1°C 65% 1.5 mph S2.4 kmh S 9.4 mph15.1 kmh 29.62 in1003.0 mb 0.00 in0.0 mm 0.00 in0.0 mm 0.00 in0.0 mm
10:07 AM 46.8°F8.2°C 36.1°F2.3°C 66% 2.5 mph SSE4.0 kmh SSE 9.4 mph15.1 kmh 29.62 in1003.0 mb 0.00 in0.0 mm 0.00 in0.0 mm 0.00 in0.0 mm
10:06 AM 46.8°F8.2°C 36.1°F2.3°C 66% 3.6 mph ESE5.8 kmh ESE 9.4 mph15.1 kmh 29.61 in1002.7 mb 0.00 in0.0 mm 0.00 in0.0 mm 0.00 in0.0 mm
10:05 AM 46.7°F8.2°C 36.0°F2.2°C 66% 5.3 mph SW8.5 kmh SW 9.4 mph15.1 kmh 29.62 in1003.0 mb 0.00 in0.0 mm 0.00 in0.0 mm 0.00 in0.0 mm
10:04 AM 46.7°F8.2°C 35.6°F2.0°C 65% 3.5 mph WSW5.6 kmh WSW 9.4 mph15.1 kmh 29.62 in1003.0 mb 0.00 in0.0 mm 0.00 in0.0 mm 0.00 in0.0 mm
10:03 AM 46.7°F8.2°C 36.0°F2.2°C 66% 1.9 mph WNW3.1 kmh WNW 7.5 mph12.1 kmh 29.62 in1003.0 mb 0.00 in0.0 mm 0.00 in0.0 mm 0.00 in0.0 mm
10:02 AM 46.8°F8.2°C 36.1°F2.3°C 66% 2.1 mph NW3.4 kmh NW 7.5 mph12.1 kmh 29.62 in1003.0 mb 0.00 in0.0 mm 0.00 in0.0 mm 0.00 in0.0 mm
10:01 AM 46.8°F8.2°C 36.1°F2.3°C 66% 2.0 mph NNW3.2 kmh NNW 7.5 mph12.1 kmh 29.62 in1003.0 mb 0.00 in0.0 mm 0.00 in0.0 mm 0.00 in0.0 mm
10:00 AM 46.8°F8.2°C 36.1°F2.3°C 66% 1.4 mph SE2.3 kmh SE 9.4 mph15.1 kmh 29.62 in1003.0 mb 0.00 in0.0 mm 0.00 in0.0 mm 0.00 in0.0 mm
09:59 AM 46.7°F8.2°C 36.0°F2.2°C 66% 2.0 mph SW3.2 kmh SW 9.4 mph15.1 kmh 29.62 in1003.0 mb 0.00 in0.0 mm 0.00 in0.0 mm 0.00 in0.0 mm
09:58 AM 46.7°F8.2°C 36.0°F2.2°C 66% 2.5 mph SSW4.0 kmh SSW 9.4 mph15.1 kmh 29.62 in1003.0 mb 0.00 in0.0 mm 0.00 in0.0 mm 0.00 in0.0 mm
09:57 AM 46.7°F8.2°C 36.4°F2.4°C 67% 2.0 mph S3.2 kmh S 9.4 mph15.1 kmh 29.62 in1003.0 mb 0.00 in0.0 mm 0.00 in0.0 mm 0.00 in0.0 mm
09:56 AM 46.7°F8.2°C 36.4°F2.4°C 67% 2.2 mph E3.5 kmh E 9.4 mph15.1 kmh 29.62 in1003.0 mb 0.00 in0.0 mm 0.00 in0.0 mm 0.00 in0.0 mm
09:55 AM 46.7°F8.2°C 36.4°F2.4°C 67% 2.2 mph E3.5 kmh E 9.4 mph15.1 kmh 29.62 in1003.0 mb 0.00 in0.0 mm 0.00 in0.0 mm 0.00 in0.0 mm
09:54 AM 46.8°F8.2°C 36.5°F2.5°C 67% 2.3 mph ENE3.7 kmh ENE 9.4 mph15.1 kmh 29.62 in1003.0 mb 0.00 in0.0 mm 0.00 in0.0 mm 0.00 in0.0 mm
09:53 AM 46.7°F8.2°C 36.4°F2.4°C 67% 2.4 mph ENE3.9 kmh ENE 9.4 mph15.1 kmh 29.62 in1003.0 mb 0.00 in0.0 mm 0.00 in0.0 mm 0.00 in0.0 mm
09:52 AM 46.8°F8.2°C 36.5°F2.5°C 67% 4.0 mph NE6.4 kmh NE 9.4 mph15.1 kmh 29.63 in1003.4 mb 0.00 in0.0 mm 0.00 in0.0 mm 0.00 in0.0 mm
09:51 AM 46.7°F8.2°C 36.4°F2.4°C 67% 6.0 mph N9.7 kmh N 9.4 mph15.1 kmh 29.62 in1003.0 mb 0.00 in0.0 mm 0.00 in0.0 mm 0.00 in0.0 mm
09:50 AM 46.8°F8.2°C 36.5°F2.5°C 67% 4.9 mph WSW7.9 kmh WSW 7.0 mph11.3 kmh 29.62 in1003.0 mb 0.00 in0.0 mm 0.00 in0.0 mm 0.00 in0.0 mm
09:49 AM 46.8°F8.2°C 36.8°F2.7°C 68% 3.3 mph SE5.3 kmh SE 7.0 mph11.3 kmh 29.62 in1003.0 mb 0.00 in0.0 mm 0.00 in0.0 mm 0.00 in0.0 mm
09:48 AM 46.8°F8.2°C 36.8°F2.7°C 68% 2.5 mph NE4.0 kmh NE 4.7 mph7.6 kmh 29.62 in1003.0 mb 0.00 in0.0 mm 0.00 in0.0 mm 0.00 in0.0 mm
09:47 AM 46.8°F8.2°C 36.5°F2.5°C 67% 2.3 mph NE3.7 kmh NE 4.7 mph7.6 kmh 29.62 in1003.0 mb 0.00 in0.0 mm 0.00 in0.0 mm 0.00 in0.0 mm
09:46 AM 46.8°F8.2°C 36.8°F2.7°C 68% 1.7 mph E2.7 kmh E 4.7 mph7.6 kmh 29.62 in1003.0 mb 0.00 in0.0 mm 0.00 in0.0 mm 0.00 in0.0 mm
09:45 AM 46.8°F8.2°C 36.8°F2.7°C 68% 2.5 mph NE4.0 kmh NE 12.1 mph19.5 kmh 29.62 in1003.0 mb 0.00 in0.0 mm 0.00 in0.0 mm 0.00 in0.0 mm
09:44 AM 46.8°F8.2°C 36.8°F2.7°C 68% 2.9 mph NNE4.7 kmh NNE 12.1 mph19.5 kmh 29.62 in1003.0 mb 0.00 in0.0 mm 0.00 in0.0 mm 0.00 in0.0 mm
09:43 AM 46.7°F8.2°C 36.8°F2.7°C 68% 2.8 mph NE4.5 kmh NE 12.1 mph19.5 kmh 29.62 in1003.0 mb 0.00 in0.0 mm 0.00 in0.0 mm 0.00 in0.0 mm
09:42 AM 46.7°F8.2°C 36.8°F2.7°C 68% 1.8 mph SE2.9 kmh SE 12.1 mph19.5 kmh 29.62 in1003.0 mb 0.00 in0.0 mm 0.00 in0.0 mm 0.00 in0.0 mm
09:41 AM 46.7°F8.2°C 36.8°F2.7°C 68% 1.6 mph ENE2.6 kmh ENE 12.1 mph19.5 kmh 29.62 in1003.0 mb 0.00 in0.0 mm 0.00 in0.0 mm 0.00 in0.0 mm
09:40 AM 46.8°F8.2°C 36.8°F2.7°C 68% 2.2 mph ENE3.5 kmh ENE 12.1 mph19.5 kmh 29.62 in1003.0 mb 0.00 in0.0 mm 0.00 in0.0 mm 0.00 in0.0 mm
09:39 AM 46.8°F8.2°C 36.8°F2.7°C 68% 1.2 mph ENE1.9 kmh ENE 12.1 mph19.5 kmh 29.62 in1003.0 mb 0.00 in0.0 mm 0.00 in0.0 mm 0.00 in0.0 mm
09:38 AM 46.7°F8.2°C 36.8°F2.7°C 68% 1.4 mph N2.3 kmh N 12.1 mph19.5 kmh 29.62 in1003.0 mb 0.00 in0.0 mm 0.00 in0.0 mm 0.00 in0.0 mm
09:37 AM 46.7°F8.2°C 37.1°F2.8°C 69% 2.7 mph N4.3 kmh N 12.1 mph19.5 kmh 29.62 in1003.0 mb 0.00 in0.0 mm 0.00 in0.0 mm 0.00 in0.0 mm
09:36 AM 46.7°F8.2°C 37.1°F2.8°C 69% 3.7 mph NE6.0 kmh NE 12.1 mph19.5 kmh 29.62 in1003.0 mb 0.00 in0.0 mm 0.00 in0.0 mm 0.00 in0.0 mm
09:35 AM 46.8°F8.2°C 37.2°F2.9°C 69% 4.1 mph E6.6 kmh E 12.1 mph19.5 kmh 29.62 in1003.0 mb 0.00 in0.0 mm 0.00 in0.0 mm 0.00 in0.0 mm
09:34 AM 46.7°F8.2°C 37.1°F2.8°C 69% 4.0 mph E6.4 kmh E 11.4 mph18.3 kmh 29.62 in1003.0 mb 0.00 in0.0 mm 0.00 in0.0 mm 0.00 in0.0 mm
09:33 AM 46.8°F8.2°C 37.2°F2.9°C 69% 3.0 mph NW4.8 kmh NW 11.4 mph18.3 kmh 29.62 in1003.0 mb 0.00 in0.0 mm 0.00 in0.0 mm 0.00 in0.0 mm
09:32 AM 46.8°F8.2°C 37.2°F2.9°C 69% 2.5 mph N4.0 kmh N 11.4 mph18.3 kmh 29.62 in1003.0 mb 0.00 in0.0 mm 0.00 in0.0 mm 0.00 in0.0 mm
09:31 AM 46.7°F8.2°C 37.1°F2.8°C 69% 2.8 mph N4.5 kmh N 11.4 mph18.3 kmh 29.62 in1003.0 mb 0.00 in0.0 mm 0.00 in0.0 mm 0.00 in0.0 mm
09:30 AM 46.7°F8.2°C 37.1°F2.8°C 69% 2.8 mph NNW4.5 kmh NNW 11.4 mph18.3 kmh 29.62 in1003.0 mb 0.00 in0.0 mm 0.00 in0.0 mm 0.00 in0.0 mm
09:29 AM 46.7°F8.2°C 37.1°F2.8°C 69% 2.7 mph ENE4.3 kmh ENE 9.8 mph15.8 kmh 29.63 in1003.4 mb 0.00 in0.0 mm 0.00 in0.0 mm 0.00 in0.0 mm
09:28 AM 46.7°F8.2°C 37.1°F2.8°C 69% 3.6 mph W5.8 kmh W 9.8 mph15.8 kmh 29.63 in1003.4 mb 0.00 in0.0 mm 0.00 in0.0 mm 0.00 in0.0 mm
09:27 AM 46.7°F8.2°C 37.1°F2.8°C 69% 3.0 mph WNW4.8 kmh WNW 9.8 mph15.8 kmh 29.63 in1003.4 mb 0.00 in0.0 mm 0.00 in0.0 mm 0.00 in0.0 mm
09:26 AM 46.7°F8.2°C 37.1°F2.8°C 69% 2.8 mph NE4.5 kmh NE 9.8 mph15.8 kmh 29.63 in1003.4 mb 0.00 in0.0 mm 0.00 in0.0 mm 0.00 in0.0 mm
09:25 AM 46.7°F8.2°C 37.1°F2.8°C 69% 3.8 mph E6.1 kmh E 9.8 mph15.8 kmh 29.63 in1003.4 mb 0.00 in0.0 mm 0.00 in0.0 mm 0.00 in0.0 mm
09:24 AM 46.7°F8.2°C 37.1°F2.8°C 69% 3.0 mph E4.8 kmh E 9.8 mph15.8 kmh 29.63 in1003.4 mb 0.00 in0.0 mm 0.00 in0.0 mm 0.00 in0.0 mm
09:23 AM 46.5°F8.1°C 36.9°F2.7°C 69% 3.5 mph NE5.6 kmh NE 9.8 mph15.8 kmh 29.63 in1003.4 mb 0.00 in0.0 mm 0.00 in0.0 mm 0.00 in0.0 mm
09:22 AM 46.5°F8.1°C 36.9°F2.7°C 69% 4.5 mph E7.2 kmh E 9.8 mph15.8 kmh 29.63 in1003.4 mb 0.00 in0.0 mm 0.00 in0.0 mm 0.00 in0.0 mm
09:21 AM 46.7°F8.2°C 37.1°F2.8°C 69% 2.5 mph SE4.0 kmh SE 13.3 mph21.4 kmh 29.63 in1003.4 mb 0.00 in0.0 mm 0.00 in0.0 mm 0.00 in0.0 mm
09:20 AM 46.5°F8.1°C 36.6°F2.6°C 68% 2.3 mph ESE3.7 kmh ESE 13.3 mph21.4 kmh 29.63 in1003.4 mb 0.00 in0.0 mm 0.00 in0.0 mm 0.00 in0.0 mm
09:19 AM 46.5°F8.1°C 36.6°F2.6°C 68% 3.5 mph SE5.6 kmh SE 13.3 mph21.4 kmh 29.63 in1003.4 mb 0.00 in0.0 mm 0.00 in0.0 mm 0.00 in0.0 mm
09:18 AM 46.5°F8.1°C 36.6°F2.6°C 68% 3.3 mph SSE5.3 kmh SSE 13.3 mph21.4 kmh 29.63 in1003.4 mb 0.00 in0.0 mm 0.00 in0.0 mm 0.00 in0.0 mm
09:17 AM 46.5°F8.1°C 36.9°F2.7°C 69% 3.7 mph E6.0 kmh E 13.3 mph21.4 kmh 29.63 in1003.4 mb 0.00 in0.0 mm 0.00 in0.0 mm 0.00 in0.0 mm
09:16 AM 46.5°F8.1°C 36.6°F2.6°C 68% 3.8 mph E6.1 kmh E 13.3 mph21.4 kmh 29.63 in1003.4 mb 0.00 in0.0 mm 0.00 in0.0 mm 0.00 in0.0 mm
09:15 AM 46.5°F8.1°C 36.6°F2.6°C 68% 2.5 mph NE4.0 kmh NE 13.3 mph21.4 kmh 29.63 in1003.4 mb 0.00 in0.0 mm 0.00 in0.0 mm 0.00 in0.0 mm
09:14 AM 46.5°F8.1°C 36.6°F2.6°C 68% 2.4 mph NE3.9 kmh NE 13.3 mph21.4 kmh 29.63 in1003.4 mb 0.00 in0.0 mm 0.00 in0.0 mm 0.00 in0.0 mm
09:13 AM 46.5°F8.1°C 36.6°F2.6°C 68% 4.5 mph E7.2 kmh E 13.3 mph21.4 kmh 29.63 in1003.4 mb 0.00 in0.0 mm 0.00 in0.0 mm 0.00 in0.0 mm
09:12 AM 46.3°F7.9°C 36.4°F2.4°C 68% 5.6 mph ENE9.0 kmh ENE 13.3 mph21.4 kmh 29.63 in1003.4 mb 0.00 in0.0 mm 0.00 in0.0 mm 0.00 in0.0 mm
09:11 AM 46.3°F7.9°C 36.4°F2.4°C 68% 3.6 mph NE5.8 kmh NE 11.0 mph17.7 kmh 29.63 in1003.4 mb 0.00 in0.0 mm 0.00 in0.0 mm 0.00 in0.0 mm
09:10 AM 46.3°F7.9°C 36.4°F2.4°C 68% 3.0 mph ESE4.8 kmh ESE 11.0 mph17.7 kmh 29.63 in1003.4 mb 0.00 in0.0 mm 0.00 in0.0 mm 0.00 in0.0 mm
09:09 AM 46.3°F7.9°C 36.4°F2.4°C 68% 4.2 mph NNW6.8 kmh NNW 11.0 mph17.7 kmh 29.63 in1003.4 mb 0.00 in0.0 mm 0.00 in0.0 mm 0.00 in0.0 mm
09:08 AM 46.1°F7.8°C 36.2°F2.3°C 68% 4.7 mph N7.6 kmh N 11.0 mph17.7 kmh 29.63 in1003.4 mb 0.00 in0.0 mm 0.00 in0.0 mm 0.00 in0.0 mm
09:07 AM 46.1°F7.8°C 36.2°F2.3°C 68% 3.7 mph E6.0 kmh E 11.0 mph17.7 kmh 29.63 in1003.4 mb 0.00 in0.0 mm 0.00 in0.0 mm 0.00 in0.0 mm
09:06 AM 46.1°F7.8°C 36.2°F2.3°C 68% 2.4 mph SE3.9 kmh SE 10.5 mph16.9 kmh 29.63 in1003.4 mb 0.00 in0.0 mm 0.00 in0.0 mm 0.00 in0.0 mm
09:05 AM 46.1°F7.8°C 36.2°F2.3°C 68% 2.4 mph NE3.9 kmh NE 10.5 mph16.9 kmh 29.63 in1003.4 mb 0.00 in0.0 mm 0.00 in0.0 mm 0.00 in0.0 mm
09:04 AM 45.9°F7.7°C 36.0°F2.2°C 68% 1.5 mph NE2.4 kmh NE 10.5 mph16.9 kmh 29.64 in1003.7 mb 0.00 in0.0 mm 0.00 in0.0 mm 0.00 in0.0 mm
09:03 AM 45.9°F7.7°C 36.0°F2.2°C 68% 0.7 mph N1.1 kmh N 10.5 mph16.9 kmh 29.64 in1003.7 mb 0.00 in0.0 mm 0.00 in0.0 mm 0.00 in0.0 mm
09:02 AM 45.9°F7.7°C 36.0°F2.2°C 68% 1.1 mph E1.8 kmh E 10.5 mph16.9 kmh 29.64 in1003.7 mb 0.00 in0.0 mm 0.00 in0.0 mm 0.00 in0.0 mm
09:01 AM 45.9°F7.7°C 36.0°F2.2°C 68% 1.2 mph ESE1.9 kmh ESE 10.5 mph16.9 kmh 29.64 in1003.7 mb 0.00 in0.0 mm 0.00 in0.0 mm 0.00 in0.0 mm
09:00 AM 45.9°F7.7°C 36.0°F2.2°C 68% 2.6 mph N4.2 kmh N 10.5 mph16.9 kmh 29.64 in1003.7 mb 0.00 in0.0 mm 0.00 in0.0 mm 0.00 in0.0 mm
08:59 AM 45.8°F7.7°C 35.9°F2.2°C 68% 3.9 mph NNE6.3 kmh NNE 10.5 mph16.9 kmh 29.64 in1003.7 mb 0.00 in0.0 mm 0.00 in0.0 mm 0.00 in0.0 mm
08:58 AM 45.9°F7.7°C 36.0°F2.2°C 68% 1.6 mph NNE2.6 kmh NNE 10.5 mph16.9 kmh 29.64 in1003.7 mb 0.00 in0.0 mm 0.00 in0.0 mm 0.00 in0.0 mm
08:57 AM 45.9°F7.7°C 36.0°F2.2°C 68% 1.4 mph SSE2.3 kmh SSE 7.9 mph12.7 kmh 29.64 in1003.7 mb 0.00 in0.0 mm 0.00 in0.0 mm 0.00 in0.0 mm
08:56 AM 45.8°F7.7°C 35.9°F2.2°C 68% 3.1 mph ENE5.0 kmh ENE 7.9 mph12.7 kmh 29.64 in1003.7 mb 0.00 in0.0 mm 0.00 in0.0 mm 0.00 in0.0 mm
08:55 AM 45.8°F7.7°C 35.9°F2.2°C 68% 3.4 mph NE5.5 kmh NE 7.9 mph12.7 kmh 29.64 in1003.7 mb 0.00 in0.0 mm 0.00 in0.0 mm 0.00 in0.0 mm
08:54 AM 45.8°F7.7°C 35.9°F2.2°C 68% 1.9 mph NE3.1 kmh NE 4.7 mph7.6 kmh 29.64 in1003.7 mb 0.00 in0.0 mm 0.00 in0.0 mm 0.00 in0.0 mm
08:53 AM 45.8°F7.7°C 35.9°F2.2°C 68% 2.2 mph N3.5 kmh N 4.4 mph7.1 kmh 29.64 in1003.7 mb 0.00 in0.0 mm 0.00 in0.0 mm 0.00 in0.0 mm
08:52 AM 45.8°F7.7°C 35.9°F2.2°C 68% 2.4 mph NNW3.9 kmh NNW 4.4 mph7.1 kmh 29.64 in1003.7 mb 0.00 in0.0 mm 0.00 in0.0 mm 0.00 in0.0 mm
08:51 AM 45.8°F7.7°C 35.9°F2.2°C 68% 1.8 mph NW2.9 kmh NW 4.4 mph7.1 kmh 29.64 in1003.7 mb 0.00 in0.0 mm 0.00 in0.0 mm 0.00 in0.0 mm
08:50 AM 45.8°F7.7°C 35.9°F2.2°C 68% 1.5 mph NNE2.4 kmh NNE 4.4 mph7.1 kmh 29.64 in1003.7 mb 0.00 in0.0 mm 0.00 in0.0 mm 0.00 in0.0 mm
08:49 AM 45.8°F7.7°C 35.9°F2.2°C 68% 1.8 mph NNE2.9 kmh NNE 4.4 mph7.1 kmh 29.64 in1003.7 mb 0.00 in0.0 mm 0.00 in0.0 mm 0.00 in0.0 mm
08:48 AM 45.8°F7.7°C 35.9°F2.2°C 68% 1.9 mph N3.1 kmh N 9.4 mph15.1 kmh 29.64 in1003.7 mb 0.00 in0.0 mm 0.00 in0.0 mm 0.00 in0.0 mm
08:47 AM 45.6°F7.6°C 35.7°F2.1°C 68% 1.5 mph NE2.4 kmh NE 9.4 mph15.1 kmh 29.64 in1003.7 mb 0.00 in0.0 mm 0.00 in0.0 mm 0.00 in0.0 mm
08:46 AM 45.8°F7.7°C 35.9°F2.2°C 68% 1.4 mph E2.3 kmh E 9.4 mph15.1 kmh 29.64 in1003.7 mb 0.00 in0.0 mm 0.00 in0.0 mm 0.00 in0.0 mm
08:45 AM 45.8°F7.7°C 35.9°F2.2°C 68% 0.8 mph NE1.3 kmh NE 9.4 mph15.1 kmh 29.63 in1003.4 mb 0.00 in0.0 mm 0.00 in0.0 mm 0.00 in0.0 mm
08:44 AM 45.6°F7.6°C 35.7°F2.1°C 68% 1.2 mph NNE1.9 kmh NNE 9.4 mph15.1 kmh 29.64 in1003.7 mb 0.00 in0.0 mm 0.00 in0.0 mm 0.00 in0.0 mm
08:43 AM 45.8°F7.7°C 35.9°F2.2°C 68% 2.3 mph NNE3.7 kmh NNE 9.4 mph15.1 kmh 29.63 in1003.4 mb 0.00 in0.0 mm 0.00 in0.0 mm 0.00 in0.0 mm
08:42 AM 45.6°F7.6°C 35.7°F2.1°C 68% 2.4 mph N3.9 kmh N 9.4 mph15.1 kmh 29.63 in1003.4 mb 0.00 in0.0 mm 0.00 in0.0 mm 0.00 in0.0 mm
08:41 AM 45.6°F7.6°C 35.7°F2.1°C 68% 1.9 mph N3.1 kmh N 12.1 mph19.5 kmh 29.63 in1003.4 mb 0.00 in0.0 mm 0.00 in0.0 mm 0.00 in0.0 mm
08:40 AM 45.6°F7.6°C 35.7°F2.1°C 68% 3.5 mph E5.6 kmh E 12.1 mph19.5 kmh 29.63 in1003.4 mb 0.00 in0.0 mm 0.00 in0.0 mm 0.00 in0.0 mm
08:39 AM 45.6°F7.6°C 35.7°F2.1°C 68% 3.0 mph ESE4.8 kmh ESE 12.1 mph19.5 kmh 29.63 in1003.4 mb 0.00 in0.0 mm 0.00 in0.0 mm 0.00 in0.0 mm
08:38 AM 45.4°F7.4°C 35.5°F1.9°C 68% 1.4 mph ENE2.3 kmh ENE 12.1 mph19.5 kmh 29.63 in1003.4 mb 0.00 in0.0 mm 0.00 in0.0 mm 0.00 in0.0 mm
08:37 AM 45.6°F7.6°C 35.7°F2.1°C 68% 2.7 mph ENE4.3 kmh ENE 12.1 mph19.5 kmh 29.63 in1003.4 mb 0.00 in0.0 mm 0.00 in0.0 mm 0.00 in0.0 mm
08:36 AM 45.6°F7.6°C 35.7°F2.1°C 68% 2.0 mph ENE3.2 kmh ENE 12.1 mph19.5 kmh 29.63 in1003.4 mb 0.00 in0.0 mm 0.00 in0.0 mm 0.00 in0.0 mm
08:35 AM 45.4°F7.4°C 35.5°F1.9°C 68% 1.0 mph NE1.6 kmh NE 12.1 mph19.5 kmh 29.63 in1003.4 mb 0.00 in0.0 mm 0.00 in0.0 mm 0.00 in0.0 mm
08:34 AM 45.4°F7.4°C 35.5°F1.9°C 68% 1.9 mph ENE3.1 kmh ENE 12.1 mph19.5 kmh 29.63 in1003.4 mb 0.00 in0.0 mm 0.00 in0.0 mm 0.00 in0.0 mm
08:33 AM 45.2°F7.3°C 35.4°F1.9°C 68% 2.8 mph ENE4.5 kmh ENE 12.1 mph19.5 kmh 29.63 in1003.4 mb 0.00 in0.0 mm 0.00 in0.0 mm 0.00 in0.0 mm
08:32 AM 45.2°F7.3°C 35.4°F1.9°C 68% 5.8 mph E9.3 kmh E 12.1 mph19.5 kmh 29.63 in1003.4 mb 0.00 in0.0 mm 0.00 in0.0 mm 0.00 in0.0 mm
08:31 AM 45.4°F7.4°C 35.5°F1.9°C 68% 8.5 mph ENE13.7 kmh ENE 12.1 mph19.5 kmh 29.63 in1003.4 mb 0.00 in0.0 mm 0.00 in0.0 mm 0.00 in0.0 mm
08:30 AM 45.4°F7.4°C 35.5°F1.9°C 68% 7.1 mph E11.4 kmh E 11.0 mph17.7 kmh 29.63 in1003.4 mb 0.00 in0.0 mm 0.00 in0.0 mm 0.00 in0.0 mm
08:29 AM 45.2°F7.3°C 35.4°F1.9°C 68% 4.5 mph E7.2 kmh E 11.0 mph17.7 kmh 29.63 in1003.4 mb 0.00 in0.0 mm 0.00 in0.0 mm 0.00 in0.0 mm
08:28 AM 45.2°F7.3°C 35.4°F1.9°C 68% 2.8 mph NE4.5 kmh NE 8.2 mph13.2 kmh 29.63 in1003.4 mb 0.00 in0.0 mm 0.00 in0.0 mm 0.00 in0.0 mm
08:27 AM 45.0°F7.2°C 35.2°F1.8°C 68% 2.4 mph NE3.9 kmh NE 8.2 mph13.2 kmh 29.63 in1003.4 mb 0.00 in0.0 mm 0.00 in0.0 mm 0.00 in0.0 mm
08:26 AM 45.0°F7.2°C 35.2°F1.8°C 68% 1.5 mph 2.4 kmh 8.2 mph13.2 kmh 29.63 in1003.4 mb 0.00 in0.0 mm 0.00 in0.0 mm 0.00 in0.0 mm
08:25 AM 45.0°F7.2°C 35.2°F1.8°C 68% 2.8 mph NNE4.5 kmh NNE 8.2 mph13.2 kmh 29.62 in1003.0 mb 0.00 in0.0 mm 0.00 in0.0 mm 0.00 in0.0 mm
08:24 AM 45.0°F7.2°C 35.2°F1.8°C 68% 3.3 mph N5.3 kmh N 8.2 mph13.2 kmh 29.63 in1003.4 mb 0.00 in0.0 mm 0.00 in0.0 mm 0.00 in0.0 mm
08:23 AM 45.0°F7.2°C 35.2°F1.8°C 68% 3.2 mph NNE5.1 kmh NNE 8.2 mph13.2 kmh 29.62 in1003.0 mb 0.00 in0.0 mm 0.00 in0.0 mm 0.00 in0.0 mm
08:22 AM 45.0°F7.2°C 35.2°F1.8°C 68% 3.2 mph NE5.1 kmh NE 8.2 mph13.2 kmh 29.62 in1003.0 mb 0.00 in0.0 mm 0.00 in0.0 mm 0.00 in0.0 mm
08:21 AM 44.9°F7.2°C 35.1°F1.7°C 68% 3.1 mph NE5.0 kmh NE 8.2 mph13.2 kmh 29.62 in1003.0 mb 0.00 in0.0 mm 0.00 in0.0 mm 0.00 in0.0 mm
08:20 AM 45.0°F7.2°C 35.2°F1.8°C 68% 4.2 mph W6.8 kmh W 7.9 mph12.7 kmh 29.62 in1003.0 mb 0.00 in0.0 mm 0.00 in0.0 mm 0.00 in0.0 mm
08:19 AM 45.0°F7.2°C 35.2°F1.8°C 68% 4.3 mph WSW6.9 kmh WSW 7.9 mph12.7 kmh 29.63 in1003.4 mb 0.00 in0.0 mm 0.00 in0.0 mm 0.00 in0.0 mm
08:18 AM 44.9°F7.2°C 35.1°F1.7°C 68% 2.6 mph W4.2 kmh W 7.9 mph12.7 kmh 29.63 in1003.4 mb 0.00 in0.0 mm 0.00 in0.0 mm 0.00 in0.0 mm
08:17 AM 44.9°F7.2°C 35.1°F1.7°C 68% 1.7 mph E2.7 kmh E 6.0 mph9.7 kmh 29.63 in1003.4 mb 0.00 in0.0 mm 0.00 in0.0 mm 0.00 in0.0 mm
08:16 AM 44.9°F7.2°C 35.1°F1.7°C 68% 3.2 mph S5.1 kmh S 6.0 mph9.7 kmh 29.63 in1003.4 mb 0.00 in0.0 mm 0.00 in0.0 mm 0.00 in0.0 mm
08:15 AM 44.7°F7.1°C 34.9°F1.6°C 68% 2.7 mph SW4.3 kmh SW 6.0 mph9.7 kmh 29.63 in1003.4 mb 0.00 in0.0 mm 0.00 in0.0 mm 0.00 in0.0 mm
08:14 AM 44.9°F7.2°C 35.1°F1.7°C 68% 2.4 mph N3.9 kmh N 6.0 mph9.7 kmh 29.63 in1003.4 mb 0.00 in0.0 mm 0.00 in0.0 mm 0.00 in0.0 mm
08:13 AM 44.7°F7.1°C 34.9°F1.6°C 68% 2.8 mph NNE4.5 kmh NNE 6.0 mph9.7 kmh 29.63 in1003.4 mb 0.00 in0.0 mm 0.00 in0.0 mm 0.00 in0.0 mm
08:12 AM 44.9°F7.2°C 35.1°F1.7°C 68% 2.9 mph ESE4.7 kmh ESE 6.0 mph9.7 kmh 29.63 in1003.4 mb 0.00 in0.0 mm 0.00 in0.0 mm 0.00 in0.0 mm
08:11 AM 44.7°F7.1°C 34.9°F1.6°C 68% 2.5 mph ESE4.0 kmh ESE 6.0 mph9.7 kmh 29.63 in1003.4 mb 0.00 in0.0 mm 0.00 in0.0 mm 0.00 in0.0 mm
08:10 AM 44.7°F7.1°C 34.9°F1.6°C 68% 1.4 mph N2.3 kmh N 5.4 mph8.7 kmh 29.63 in1003.4 mb 0.00 in0.0 mm 0.00 in0.0 mm 0.00 in0.0 mm
08:09 AM 44.7°F7.1°C 34.9°F1.6°C 68% 1.6 mph NNW2.6 kmh NNW 5.4 mph8.7 kmh 29.63 in1003.4 mb 0.00 in0.0 mm 0.00 in0.0 mm 0.00 in0.0 mm
08:08 AM 44.7°F7.1°C 34.9°F1.6°C 68% 1.4 mph WNW2.3 kmh WNW 5.4 mph8.7 kmh 29.63 in1003.4 mb 0.00 in0.0 mm 0.00 in0.0 mm 0.00 in0.0 mm
08:07 AM 44.7°F7.1°C 34.9°F1.6°C 68% 1.4 mph SW2.3 kmh SW 5.4 mph8.7 kmh 29.63 in1003.4 mb 0.00 in0.0 mm 0.00 in0.0 mm 0.00 in0.0 mm
08:06 AM 44.7°F7.1°C 34.9°F1.6°C 68% 1.6 mph SE2.6 kmh SE 5.4 mph8.7 kmh 29.63 in1003.4 mb 0.00 in0.0 mm 0.00 in0.0 mm 0.00 in0.0 mm
08:05 AM 44.5°F6.9°C 34.7°F1.5°C 68% 2.5 mph E4.0 kmh E 5.4 mph8.7 kmh 29.63 in1003.4 mb 0.00 in0.0 mm 0.00 in0.0 mm 0.00 in0.0 mm
08:04 AM 44.5°F6.9°C 34.7°F1.5°C 68% 3.1 mph N5.0 kmh N 5.4 mph8.7 kmh 29.63 in1003.4 mb 0.00 in0.0 mm 0.00 in0.0 mm 0.00 in0.0 mm
08:03 AM 44.5°F6.9°C 34.7°F1.5°C 68% 1.9 mph W3.1 kmh W 5.4 mph8.7 kmh 29.63 in1003.4 mb 0.00 in0.0 mm 0.00 in0.0 mm 0.00 in0.0 mm
08:02 AM 44.5°F6.9°C 34.7°F1.5°C 68% 0.8 mph ESE1.3 kmh ESE 5.1 mph8.2 kmh 29.63 in1003.4 mb 0.00 in0.0 mm 0.00 in0.0 mm 0.00 in0.0 mm
08:01 AM 44.5°F6.9°C 34.7°F1.5°C 68% 1.2 mph ESE1.9 kmh ESE 5.1 mph8.2 kmh 29.63 in1003.4 mb 0.00 in0.0 mm 0.00 in0.0 mm 0.00 in0.0 mm
08:00 AM 44.3°F6.8°C 34.5°F1.4°C 68% 2.2 mph NE3.5 kmh NE 5.1 mph8.2 kmh 29.64 in1003.7 mb 0.00 in0.0 mm 0.00 in0.0 mm 0.00 in0.0 mm
07:59 AM 44.3°F6.8°C 34.5°F1.4°C 68% 2.4 mph NE3.9 kmh NE 5.1 mph8.2 kmh 29.64 in1003.7 mb 0.00 in0.0 mm 0.00 in0.0 mm 0.00 in0.0 mm
07:58 AM 44.5°F6.9°C 34.3°F1.3°C 67% 1.5 mph SSW2.4 kmh SSW 5.1 mph8.2 kmh 29.64 in1003.7 mb 0.00 in0.0 mm 0.00 in0.0 mm 0.00 in0.0 mm
07:57 AM 44.3°F6.8°C 34.5°F1.4°C 68% 0.9 mph SSE1.4 kmh SSE 4.4 mph7.1 kmh 29.64 in1003.7 mb 0.00 in0.0 mm 0.00 in0.0 mm 0.00 in0.0 mm
07:56 AM 44.3°F6.8°C 34.5°F1.4°C 68% 1.7 mph SSE2.7 kmh SSE 4.4 mph7.1 kmh 29.64 in1003.7 mb 0.00 in0.0 mm 0.00 in0.0 mm 0.00 in0.0 mm
07:55 AM 44.3°F6.8°C 34.5°F1.4°C 68% 2.4 mph SSE3.9 kmh SSE 4.4 mph7.1 kmh 29.64 in1003.7 mb 0.00 in0.0 mm 0.00 in0.0 mm 0.00 in0.0 mm
07:54 AM 44.3°F6.8°C 34.5°F1.4°C 68% 1.3 mph E2.1 kmh E 4.4 mph7.1 kmh 29.64 in1003.7 mb 0.00 in0.0 mm 0.00 in0.0 mm 0.00 in0.0 mm
07:53 AM 44.3°F6.8°C 34.5°F1.4°C 68% 0.9 mph NE1.4 kmh NE 4.4 mph7.1 kmh 29.64 in1003.7 mb 0.00 in0.0 mm 0.00 in0.0 mm 0.00 in0.0 mm
07:52 AM 44.3°F6.8°C 34.5°F1.4°C 68% 2.1 mph SSW3.4 kmh SSW 4.4 mph7.1 kmh 29.64 in1003.7 mb 0.00 in0.0 mm 0.00 in0.0 mm 0.00 in0.0 mm
07:51 AM 44.1°F6.7°C 34.3°F1.3°C 68% 3.0 mph SW4.8 kmh SW 4.4 mph7.1 kmh 29.64 in1003.7 mb 0.00 in0.0 mm 0.00 in0.0 mm 0.00 in0.0 mm
07:50 AM 44.1°F6.7°C 34.3°F1.3°C 68% 2.8 mph S4.5 kmh S 4.4 mph7.1 kmh 29.64 in1003.7 mb 0.00 in0.0 mm 0.00 in0.0 mm 0.00 in0.0 mm
07:49 AM 44.1°F6.7°C 34.3°F1.3°C 68% 2.2 mph SSE3.5 kmh SSE 4.4 mph7.1 kmh 29.64 in1003.7 mb 0.00 in0.0 mm 0.00 in0.0 mm 0.00 in0.0 mm
07:48 AM 44.1°F6.7°C 34.3°F1.3°C 68% 1.6 mph NW2.6 kmh NW 3.5 mph5.6 kmh 29.64 in1003.7 mb 0.00 in0.0 mm 0.00 in0.0 mm 0.00 in0.0 mm
07:47 AM 44.1°F6.7°C 34.3°F1.3°C 68% 1.6 mph E2.6 kmh E 3.5 mph5.6 kmh 29.64 in1003.7 mb 0.00 in0.0 mm 0.00 in0.0 mm 0.00 in0.0 mm
07:46 AM 44.0°F6.7°C 34.2°F1.2°C 68% 1.1 mph ESE1.8 kmh ESE 3.5 mph5.6 kmh 29.64 in1003.7 mb 0.00 in0.0 mm 0.00 in0.0 mm 0.00 in0.0 mm
07:45 AM 44.1°F6.7°C 34.3°F1.3°C 68% 1.3 mph NE2.1 kmh NE 3.5 mph5.6 kmh 29.64 in1003.7 mb 0.00 in0.0 mm 0.00 in0.0 mm 0.00 in0.0 mm
07:44 AM 44.0°F6.7°C 34.2°F1.2°C 68% 1.9 mph NE3.1 kmh NE 3.5 mph5.6 kmh 29.64 in1003.7 mb 0.00 in0.0 mm 0.00 in0.0 mm 0.00 in0.0 mm
07:43 AM 44.0°F6.7°C 34.2°F1.2°C 68% 1.7 mph N2.7 kmh N 3.1 mph5.0 kmh 29.64 in1003.7 mb 0.00 in0.0 mm 0.00 in0.0 mm 0.00 in0.0 mm
07:42 AM 44.0°F6.7°C 34.2°F1.2°C 68% 1.6 mph NNW2.6 kmh NNW 3.1 mph5.0 kmh 29.64 in1003.7 mb 0.00 in0.0 mm 0.00 in0.0 mm 0.00 in0.0 mm
07:41 AM 44.0°F6.7°C 34.2°F1.2°C 68% 0.9 mph NNW1.4 kmh NNW 3.1 mph5.0 kmh 29.64 in1003.7 mb 0.00 in0.0 mm 0.00 in0.0 mm 0.00 in0.0 mm
07:40 AM 44.0°F6.7°C 34.2°F1.2°C 68% 0.9 mph NNW1.4 kmh NNW 3.1 mph5.0 kmh 29.64 in1003.7 mb 0.00 in0.0 mm 0.00 in0.0 mm 0.00 in0.0 mm
07:39 AM 44.0°F6.7°C 34.2°F1.2°C 68% 1.4 mph N2.3 kmh N 3.1 mph5.0 kmh 29.64 in1003.7 mb 0.00 in0.0 mm 0.00 in0.0 mm 0.00 in0.0 mm
07:38 AM 43.8°F6.6°C 34.1°F1.2°C 68% 1.5 mph E2.4 kmh E 3.1 mph5.0 kmh 29.64 in1003.7 mb 0.00 in0.0 mm 0.00 in0.0 mm 0.00 in0.0 mm
07:37 AM 43.8°F6.6°C 34.1°F1.2°C 68% 1.0 mph SE1.6 kmh SE 2.8 mph4.5 kmh 29.64 in1003.7 mb 0.00 in0.0 mm 0.00 in0.0 mm 0.00 in0.0 mm
07:36 AM 43.8°F6.6°C 34.1°F1.2°C 68% 0.7 mph E1.1 kmh E 3.9 mph6.3 kmh 29.64 in1003.7 mb 0.00 in0.0 mm 0.00 in0.0 mm 0.00 in0.0 mm
07:35 AM 43.8°F6.6°C 34.1°F1.2°C 68% 0.6 mph N1.0 kmh N 3.9 mph6.3 kmh 29.64 in1003.7 mb 0.00 in0.0 mm 0.00 in0.0 mm 0.00 in0.0 mm
07:34 AM 43.7°F6.5°C 33.9°F1.1°C 68% 0.6 mph NNE1.0 kmh NNE 8.6 mph13.8 kmh 29.64 in1003.7 mb 0.00 in0.0 mm 0.00 in0.0 mm 0.00 in0.0 mm
07:33 AM 43.7°F6.5°C 33.9°F1.1°C 68% 1.0 mph SSE1.6 kmh SSE 8.6 mph13.8 kmh 29.64 in1003.7 mb 0.00 in0.0 mm 0.00 in0.0 mm 0.00 in0.0 mm
07:32 AM 43.7°F6.5°C 33.9°F1.1°C 68% 1.4 mph S2.3 kmh S 8.6 mph13.8 kmh 29.64 in1003.7 mb 0.00 in0.0 mm 0.00 in0.0 mm 0.00 in0.0 mm
07:31 AM 43.7°F6.5°C 33.9°F1.1°C 68% 1.4 mph SSE2.3 kmh SSE 8.6 mph13.8 kmh 29.64 in1003.7 mb 0.00 in0.0 mm 0.00 in0.0 mm 0.00 in0.0 mm
07:30 AM 43.7°F6.5°C 33.9°F1.1°C 68% 0.9 mph S1.4 kmh S 12.6 mph20.3 kmh 29.64 in1003.7 mb 0.00 in0.0 mm 0.00 in0.0 mm 0.00 in0.0 mm
07:29 AM 43.7°F6.5°C 33.9°F1.1°C 68% 0.7 mph SW1.1 kmh SW 12.6 mph20.3 kmh 29.64 in1003.7 mb 0.00 in0.0 mm 0.00 in0.0 mm 0.00 in0.0 mm
07:28 AM 43.5°F6.4°C 33.7°F0.9°C 68% 1.5 mph WSW2.4 kmh WSW 12.6 mph20.3 kmh 29.64 in1003.7 mb 0.00 in0.0 mm 0.00 in0.0 mm 0.00 in0.0 mm
07:27 AM 43.7°F6.5°C 33.9°F1.1°C 68% 1.8 mph WSW2.9 kmh WSW 12.6 mph20.3 kmh 29.64 in1003.7 mb 0.00 in0.0 mm 0.00 in0.0 mm 0.00 in0.0 mm
07:26 AM 43.5°F6.4°C 33.7°F0.9°C 68% 2.4 mph E3.9 kmh E 12.6 mph20.3 kmh 29.64 in1003.7 mb 0.00 in0.0 mm 0.00 in0.0 mm 0.00 in0.0 mm
07:25 AM 43.5°F6.4°C 33.7°F0.9°C 68% 3.1 mph E5.0 kmh E 12.6 mph20.3 kmh 29.64 in1003.7 mb 0.00 in0.0 mm 0.00 in0.0 mm 0.00 in0.0 mm
07:24 AM 43.5°F6.4°C 33.7°F0.9°C 68% 2.0 mph E3.2 kmh E 12.6 mph20.3 kmh 29.64 in1003.7 mb 0.00 in0.0 mm 0.00 in0.0 mm 0.00 in0.0 mm
07:23 AM 43.3°F6.3°C 33.5°F0.8°C 68% 0.9 mph ENE1.4 kmh ENE 12.6 mph20.3 kmh 29.64 in1003.7 mb 0.00 in0.0 mm 0.00 in0.0 mm 0.00 in0.0 mm
07:22 AM 43.3°F6.3°C 33.5°F0.8°C 68% 3.2 mph ENE5.1 kmh ENE 12.6 mph20.3 kmh 29.64 in1003.7 mb 0.00 in0.0 mm 0.00 in0.0 mm 0.00 in0.0 mm
07:21 AM 43.3°F6.3°C 33.5°F0.8°C 68% 8.0 mph E12.9 kmh E 12.6 mph20.3 kmh 29.64 in1003.7 mb 0.00 in0.0 mm 0.00 in0.0 mm 0.00 in0.0 mm
07:20 AM 43.3°F6.3°C 33.5°F0.8°C 68% 7.8 mph ESE12.6 kmh ESE 12.6 mph20.3 kmh 29.65 in1004.1 mb 0.00 in0.0 mm 0.00 in0.0 mm 0.00 in0.0 mm
07:19 AM 43.3°F6.3°C 33.5°F0.8°C 68% 4.1 mph S6.6 kmh S 12.6 mph20.3 kmh 29.65 in1004.1 mb 0.00 in0.0 mm 0.00 in0.0 mm 0.00 in0.0 mm
07:18 AM 43.3°F6.3°C 33.5°F0.8°C 68% 2.8 mph NW4.5 kmh NW 5.4 mph8.7 kmh 29.65 in1004.1 mb 0.00 in0.0 mm 0.00 in0.0 mm 0.00 in0.0 mm
07:17 AM 43.3°F6.3°C 33.5°F0.8°C 68% 2.1 mph WNW3.4 kmh WNW 5.1 mph8.2 kmh 29.65 in1004.1 mb 0.00 in0.0 mm 0.00 in0.0 mm 0.00 in0.0 mm
07:16 AM 43.3°F6.3°C 33.5°F0.8°C 68% 1.5 mph E2.4 kmh E 3.5 mph5.6 kmh 29.65 in1004.1 mb 0.00 in0.0 mm 0.00 in0.0 mm 0.00 in0.0 mm
07:15 AM 43.2°F6.2°C 33.4°F0.8°C 68% 1.6 mph E2.6 kmh E 2.8 mph4.5 kmh 29.65 in1004.1 mb 0.00 in0.0 mm 0.00 in0.0 mm 0.00 in0.0 mm
07:14 AM 43.2°F6.2°C 33.4°F0.8°C 68% 1.6 mph SE2.6 kmh SE 2.8 mph4.5 kmh 29.65 in1004.1 mb 0.00 in0.0 mm 0.00 in0.0 mm 0.00 in0.0 mm
07:13 AM 43.2°F6.2°C 33.4°F0.8°C 68% 1.4 mph S2.3 kmh S 5.4 mph8.7 kmh 29.65 in1004.1 mb 0.00 in0.0 mm 0.00 in0.0 mm 0.00 in0.0 mm
07:12 AM 43.2°F6.2°C 33.4°F0.8°C 68% 1.2 mph W1.9 kmh W 5.4 mph8.7 kmh 29.65 in1004.1 mb 0.00 in0.0 mm 0.00 in0.0 mm 0.00 in0.0 mm
07:11 AM 43.2°F6.2°C 33.4°F0.8°C 68% 1.0 mph NW1.6 kmh NW 5.4 mph8.7 kmh 29.65 in1004.1 mb 0.00 in0.0 mm 0.00 in0.0 mm 0.00 in0.0 mm
07:10 AM 43.2°F6.2°C 33.4°F0.8°C 68% 0.6 mph SW1.0 kmh SW 6.0 mph9.7 kmh 29.65 in1004.1 mb 0.00 in0.0 mm 0.00 in0.0 mm 0.00 in0.0 mm
07:09 AM 43.2°F6.2°C 33.4°F0.8°C 68% 1.0 mph NNW1.6 kmh NNW 6.0 mph9.7 kmh 29.65 in1004.1 mb 0.00 in0.0 mm 0.00 in0.0 mm 0.00 in0.0 mm
07:08 AM 43.2°F6.2°C 33.4°F0.8°C 68% 1.0 mph NNW1.6 kmh NNW 6.0 mph9.7 kmh 29.65 in1004.1 mb 0.00 in0.0 mm 0.00 in0.0 mm 0.00 in0.0 mm
07:07 AM 43.0°F6.1°C 33.2°F0.7°C 68% 0.6 mph NW1.0 kmh NW 6.0 mph9.7 kmh 29.65 in1004.1 mb 0.00 in0.0 mm 0.00 in0.0 mm 0.00 in0.0 mm
07:06 AM 43.0°F6.1°C 33.2°F0.7°C 68% 1.0 mph NW1.6 kmh NW 6.0 mph9.7 kmh 29.65 in1004.1 mb 0.00 in0.0 mm 0.00 in0.0 mm 0.00 in0.0 mm
07:05 AM 43.0°F6.1°C 33.2°F0.7°C 68% 2.8 mph S4.5 kmh S 6.3 mph10.1 kmh 29.65 in1004.1 mb 0.00 in0.0 mm 0.00 in0.0 mm 0.00 in0.0 mm
07:04 AM 43.0°F6.1°C 33.2°F0.7°C 68% 3.8 mph SE6.1 kmh SE 6.3 mph10.1 kmh 29.65 in1004.1 mb 0.00 in0.0 mm 0.00 in0.0 mm 0.00 in0.0 mm
07:03 AM 43.0°F6.1°C 33.2°F0.7°C 68% 2.2 mph E3.5 kmh E 6.3 mph10.1 kmh 29.65 in1004.1 mb 0.00 in0.0 mm 0.00 in0.0 mm 0.00 in0.0 mm
07:02 AM 43.0°F6.1°C 33.2°F0.7°C 68% 2.2 mph NW3.5 kmh NW 6.3 mph10.1 kmh 29.65 in1004.1 mb 0.00 in0.0 mm 0.00 in0.0 mm 0.00 in0.0 mm
07:01 AM 43.0°F6.1°C 33.2°F0.7°C 68% 2.0 mph NW3.2 kmh NW 6.3 mph10.1 kmh 29.65 in1004.1 mb 0.00 in0.0 mm 0.00 in0.0 mm 0.00 in0.0 mm
07:00 AM 43.0°F6.1°C 33.2°F0.7°C 68% 0.7 mph N1.1 kmh N 8.2 mph13.2 kmh 29.65 in1004.1 mb 0.00 in0.0 mm 0.00 in0.0 mm 0.00 in0.0 mm
06:59 AM 42.8°F6.0°C 33.0°F0.6°C 68% 1.3 mph NNE2.1 kmh NNE 8.2 mph13.2 kmh 29.65 in1004.1 mb 0.00 in0.0 mm 0.00 in0.0 mm 0.00 in0.0 mm
06:58 AM 43.0°F6.1°C 33.2°F0.7°C 68% 2.1 mph NE3.4 kmh NE 8.2 mph13.2 kmh 29.65 in1004.1 mb 0.00 in0.0 mm 0.00 in0.0 mm 0.00 in0.0 mm
06:57 AM 42.8°F6.0°C 33.0°F0.6°C 68% 3.6 mph ENE5.8 kmh ENE 8.2 mph13.2 kmh 29.65 in1004.1 mb 0.00 in0.0 mm 0.00 in0.0 mm 0.00 in0.0 mm
06:56 AM 42.8°F6.0°C 33.0°F0.6°C 68% 3.4 mph NE5.5 kmh NE 8.2 mph13.2 kmh 29.65 in1004.1 mb 0.00 in0.0 mm 0.00 in0.0 mm 0.00 in0.0 mm
06:55 AM 43.0°F6.1°C 33.2°F0.7°C 68% 1.7 mph NE2.7 kmh NE 8.2 mph13.2 kmh 29.65 in1004.1 mb 0.00 in0.0 mm 0.00 in0.0 mm 0.00 in0.0 mm
06:54 AM 43.0°F6.1°C 33.2°F0.7°C 68% 2.4 mph NNE3.9 kmh NNE 8.2 mph13.2 kmh 29.65 in1004.1 mb 0.00 in0.0 mm 0.00 in0.0 mm 0.00 in0.0 mm
06:53 AM 42.8°F6.0°C 33.0°F0.6°C 68% 2.9 mph NNE4.7 kmh NNE 8.2 mph13.2 kmh 29.65 in1004.1 mb 0.00 in0.0 mm 0.00 in0.0 mm 0.00 in0.0 mm
06:52 AM 42.8°F6.0°C 33.0°F0.6°C 68% 3.0 mph N4.8 kmh N 8.2 mph13.2 kmh 29.65 in1004.1 mb 0.00 in0.0 mm 0.00 in0.0 mm 0.00 in0.0 mm
06:51 AM 42.8°F6.0°C 33.0°F0.6°C 68% 3.5 mph N5.6 kmh N 8.2 mph13.2 kmh 29.65 in1004.1 mb 0.00 in0.0 mm 0.00 in0.0 mm 0.00 in0.0 mm
06:50 AM 42.8°F6.0°C 33.0°F0.6°C 68% 3.5 mph N5.6 kmh N 8.2 mph13.2 kmh 29.65 in1004.1 mb 0.00 in0.0 mm 0.00 in0.0 mm 0.00 in0.0 mm
06:49 AM 42.8°F6.0°C 33.0°F0.6°C 68% 1.7 mph NE2.7 kmh NE 3.5 mph5.6 kmh 29.65 in1004.1 mb 0.00 in0.0 mm 0.00 in0.0 mm 0.00 in0.0 mm
06:48 AM 42.8°F6.0°C 33.0°F0.6°C 68% 1.3 mph N2.1 kmh N 3.5 mph5.6 kmh 29.66 in1004.4 mb 0.00 in0.0 mm 0.00 in0.0 mm 0.00 in0.0 mm
06:47 AM 42.8°F6.0°C 33.0°F0.6°C 68% 1.7 mph N2.7 kmh N 3.5 mph5.6 kmh 29.66 in1004.4 mb 0.00 in0.0 mm 0.00 in0.0 mm 0.00 in0.0 mm
06:46 AM 42.8°F6.0°C 33.0°F0.6°C 68% 2.0 mph NNE3.2 kmh NNE 4.4 mph7.1 kmh 29.66 in1004.4 mb 0.00 in0.0 mm 0.00 in0.0 mm 0.00 in0.0 mm
06:45 AM 42.8°F6.0°C 33.0°F0.6°C 68% 1.8 mph N2.9 kmh N 4.4 mph7.1 kmh 29.66 in1004.4 mb 0.00 in0.0 mm 0.00 in0.0 mm 0.00 in0.0 mm
06:44 AM 42.8°F6.0°C 33.0°F0.6°C 68% 1.5 mph W2.4 kmh W 4.4 mph7.1 kmh 29.66 in1004.4 mb 0.00 in0.0 mm 0.00 in0.0 mm 0.00 in0.0 mm
06:43 AM 42.8°F6.0°C 33.0°F0.6°C 68% 1.3 mph SW2.1 kmh SW 4.4 mph7.1 kmh 29.66 in1004.4 mb 0.00 in0.0 mm 0.00 in0.0 mm 0.00 in0.0 mm
06:42 AM 42.8°F6.0°C 33.0°F0.6°C 68% 1.3 mph W2.1 kmh W 4.4 mph7.1 kmh 29.66 in1004.4 mb 0.00 in0.0 mm 0.00 in0.0 mm 0.00 in0.0 mm
06:41 AM 42.8°F6.0°C 33.0°F0.6°C 68% 1.8 mph NNE2.9 kmh NNE 4.4 mph7.1 kmh 29.66 in1004.4 mb 0.00 in0.0 mm 0.00 in0.0 mm 0.00 in0.0 mm
06:40 AM 42.8°F6.0°C 33.0°F0.6°C 68% 1.7 mph NE2.7 kmh NE 4.7 mph7.6 kmh 29.66 in1004.4 mb 0.00 in0.0 mm 0.00 in0.0 mm 0.00 in0.0 mm
06:39 AM 42.8°F6.0°C 33.0°F0.6°C 68% 1.8 mph N2.9 kmh N 4.7 mph7.6 kmh 29.66 in1004.4 mb 0.00 in0.0 mm 0.00 in0.0 mm 0.00 in0.0 mm
06:38 AM 42.8°F6.0°C 33.0°F0.6°C 68% 2.0 mph NW3.2 kmh NW 4.7 mph7.6 kmh 29.66 in1004.4 mb 0.00 in0.0 mm 0.00 in0.0 mm 0.00 in0.0 mm
06:37 AM 42.8°F6.0°C 33.0°F0.6°C 68% 2.0 mph N3.2 kmh N 4.7 mph7.6 kmh 29.66 in1004.4 mb 0.00 in0.0 mm 0.00 in0.0 mm 0.00 in0.0 mm
06:36 AM 42.8°F6.0°C 33.0°F0.6°C 68% 1.6 mph N2.6 kmh N 4.7 mph7.6 kmh 29.66 in1004.4 mb 0.00 in0.0 mm 0.00 in0.0 mm 0.00 in0.0 mm
06:35 AM 42.8°F6.0°C 33.0°F0.6°C 68% 1.3 mph S2.1 kmh S 4.7 mph7.6 kmh 29.66 in1004.4 mb 0.00 in0.0 mm 0.00 in0.0 mm 0.00 in0.0 mm
06:34 AM 42.6°F5.9°C 32.8°F0.4°C 68% 1.5 mph S2.4 kmh S 4.7 mph7.6 kmh 29.66 in1004.4 mb 0.00 in0.0 mm 0.00 in0.0 mm 0.00 in0.0 mm
06:33 AM 42.6°F5.9°C 32.8°F0.4°C 68% 1.1 mph SSW1.8 kmh SSW 4.7 mph7.6 kmh 29.66 in1004.4 mb 0.00 in0.0 mm 0.00 in0.0 mm 0.00 in0.0 mm
06:32 AM 42.8°F6.0°C 33.0°F0.6°C 68% 1.2 mph SW1.9 kmh SW 4.7 mph7.6 kmh 29.66 in1004.4 mb 0.00 in0.0 mm 0.00 in0.0 mm 0.00 in0.0 mm
06:31 AM 42.6°F5.9°C 32.8°F0.4°C 68% 1.5 mph SW2.4 kmh SW 5.1 mph8.2 kmh 29.66 in1004.4 mb 0.00 in0.0 mm 0.00 in0.0 mm 0.00 in0.0 mm
06:30 AM 42.6°F5.9°C 32.8°F0.4°C 68% 1.5 mph SW2.4 kmh SW 5.1 mph8.2 kmh 29.66 in1004.4 mb 0.00 in0.0 mm 0.00 in0.0 mm 0.00 in0.0 mm
06:29 AM 42.6°F5.9°C 32.8°F0.4°C 68% 1.3 mph SW2.1 kmh SW 5.1 mph8.2 kmh 29.66 in1004.4 mb 0.00 in0.0 mm 0.00 in0.0 mm 0.00 in0.0 mm
06:28 AM 42.6°F5.9°C 32.8°F0.4°C 68% 1.6 mph SE2.6 kmh SE 5.1 mph8.2 kmh 29.66 in1004.4 mb 0.00 in0.0 mm 0.00 in0.0 mm 0.00 in0.0 mm
06:27 AM 42.6°F5.9°C 32.8°F0.4°C 68% 2.0 mph ESE3.2 kmh ESE 5.1 mph8.2 kmh 29.66 in1004.4 mb 0.00 in0.0 mm 0.00 in0.0 mm 0.00 in0.0 mm
06:26 AM 42.6°F5.9°C 32.8°F0.4°C 68% 1.2 mph NW1.9 kmh NW 5.1 mph8.2 kmh 29.66 in1004.4 mb 0.00 in0.0 mm 0.00 in0.0 mm 0.00 in0.0 mm
06:25 AM 42.6°F5.9°C 32.8°F0.4°C 68% 0.6 mph SSW1.0 kmh SSW 5.1 mph8.2 kmh 29.66 in1004.4 mb 0.00 in0.0 mm 0.00 in0.0 mm 0.00 in0.0 mm
06:24 AM 42.6°F5.9°C 32.8°F0.4°C 68% 1.0 mph NE1.6 kmh NE 5.1 mph8.2 kmh 29.66 in1004.4 mb 0.00 in0.0 mm 0.00 in0.0 mm 0.00 in0.0 mm
06:23 AM 42.6°F5.9°C 32.8°F0.4°C 68% 2.3 mph ENE3.7 kmh ENE 5.1 mph8.2 kmh 29.66 in1004.4 mb 0.00 in0.0 mm 0.00 in0.0 mm 0.00 in0.0 mm
06:22 AM 42.6°F5.9°C 32.8°F0.4°C 68% 2.2 mph ENE3.5 kmh ENE 5.1 mph8.2 kmh 29.66 in1004.4 mb 0.00 in0.0 mm 0.00 in0.0 mm 0.00 in0.0 mm
06:21 AM 42.4°F5.8°C 32.7°F0.4°C 68% 1.6 mph E2.6 kmh E 5.1 mph8.2 kmh 29.66 in1004.4 mb 0.00 in0.0 mm 0.00 in0.0 mm 0.00 in0.0 mm
06:20 AM 42.4°F5.8°C 32.7°F0.4°C 68% 1.4 mph ESE2.3 kmh ESE 5.1 mph8.2 kmh 29.66 in1004.4 mb 0.00 in0.0 mm 0.00 in0.0 mm 0.00 in0.0 mm
06:19 AM 42.4°F5.8°C 32.7°F0.4°C 68% 1.1 mph S1.8 kmh S 5.1 mph8.2 kmh 29.66 in1004.4 mb 0.00 in0.0 mm 0.00 in0.0 mm 0.00 in0.0 mm
06:18 AM 42.4°F5.8°C 32.7°F0.4°C 68% 1.1 mph SE1.8 kmh SE 5.1 mph8.2 kmh 29.66 in1004.4 mb 0.00 in0.0 mm 0.00 in0.0 mm 0.00 in0.0 mm
06:17 AM 42.4°F5.8°C 32.7°F0.4°C 68% 0.8 mph S1.3 kmh S 5.1 mph8.2 kmh 29.66 in1004.4 mb 0.00 in0.0 mm 0.00 in0.0 mm 0.00 in0.0 mm
06:16 AM 42.4°F5.8°C 32.7°F0.4°C 68% 0.6 mph NNE1.0 kmh NNE 5.1 mph8.2 kmh 29.66 in1004.4 mb 0.00 in0.0 mm 0.00 in0.0 mm 0.00 in0.0 mm
06:15 AM 42.4°F5.8°C 32.7°F0.4°C 68% 2.0 mph E3.2 kmh E 5.1 mph8.2 kmh 29.66 in1004.4 mb 0.00 in0.0 mm 0.00 in0.0 mm 0.00 in0.0 mm
06:14 AM 42.4°F5.8°C 32.7°F0.4°C 68% 2.7 mph ESE4.3 kmh ESE 7.0 mph11.3 kmh 29.66 in1004.4 mb 0.00 in0.0 mm 0.00 in0.0 mm 0.00 in0.0 mm
06:13 AM 42.3°F5.7°C 32.6°F0.3°C 68% 1.5 mph E2.4 kmh E 7.0 mph11.3 kmh 29.66 in1004.4 mb 0.00 in0.0 mm 0.00 in0.0 mm 0.00 in0.0 mm
06:12 AM 42.3°F5.7°C 32.6°F0.3°C 68% 2.0 mph SE3.2 kmh SE 7.0 mph11.3 kmh 29.66 in1004.4 mb 0.00 in0.0 mm 0.00 in0.0 mm 0.00 in0.0 mm
06:11 AM 42.3°F5.7°C 32.6°F0.3°C 68% 2.2 mph ESE3.5 kmh ESE 7.0 mph11.3 kmh 29.66 in1004.4 mb 0.00 in0.0 mm 0.00 in0.0 mm 0.00 in0.0 mm
06:10 AM 42.3°F5.7°C 32.6°F0.3°C 68% 1.2 mph E1.9 kmh E 7.0 mph11.3 kmh 29.66 in1004.4 mb 0.00 in0.0 mm 0.00 in0.0 mm 0.00 in0.0 mm
06:09 AM 42.3°F5.7°C 32.6°F0.3°C 68% 1.1 mph WSW1.8 kmh WSW 7.0 mph11.3 kmh 29.66 in1004.4 mb 0.00 in0.0 mm 0.00 in0.0 mm 0.00 in0.0 mm
06:08 AM 42.3°F5.7°C 32.6°F0.3°C 68% 1.3 mph NW2.1 kmh NW 7.0 mph11.3 kmh 29.66 in1004.4 mb 0.00 in0.0 mm 0.00 in0.0 mm 0.00 in0.0 mm
06:07 AM 42.3°F5.7°C 32.6°F0.3°C 68% 1.8 mph S2.9 kmh S 7.0 mph11.3 kmh 29.66 in1004.4 mb 0.00 in0.0 mm 0.00 in0.0 mm 0.00 in0.0 mm
06:06 AM 42.3°F5.7°C 32.6°F0.3°C 68% 2.8 mph E4.5 kmh E 7.0 mph11.3 kmh 29.66 in1004.4 mb 0.00 in0.0 mm 0.00 in0.0 mm 0.00 in0.0 mm
06:05 AM 42.3°F5.7°C 32.6°F0.3°C 68% 2.0 mph ENE3.2 kmh ENE 7.0 mph11.3 kmh 29.66 in1004.4 mb 0.00 in0.0 mm 0.00 in0.0 mm 0.00 in0.0 mm
06:04 AM 42.3°F5.7°C 32.6°F0.3°C 68% 0.8 mph ESE1.3 kmh ESE 3.5 mph5.6 kmh 29.66 in1004.4 mb 0.00 in0.0 mm 0.00 in0.0 mm 0.00 in0.0 mm
06:03 AM 42.3°F5.7°C 32.6°F0.3°C 68% 1.0 mph NNE1.6 kmh NNE 3.5 mph5.6 kmh 29.66 in1004.4 mb 0.00 in0.0 mm 0.00 in0.0 mm 0.00 in0.0 mm
06:02 AM 42.1°F5.6°C 32.4°F0.2°C 68% 0.8 mph NNW1.3 kmh NNW 3.5 mph5.6 kmh 29.66 in1004.4 mb 0.00 in0.0 mm 0.00 in0.0 mm 0.00 in0.0 mm
06:01 AM 42.1°F5.6°C 32.4°F0.2°C 68% 0.7 mph NW1.1 kmh NW 3.5 mph5.6 kmh 29.66 in1004.4 mb 0.00 in0.0 mm 0.00 in0.0 mm 0.00 in0.0 mm
06:00 AM 42.1°F5.6°C 32.4°F0.2°C 68% 0.6 mph NE1.0 kmh NE 3.5 mph5.6 kmh 29.66 in1004.4 mb 0.00 in0.0 mm 0.00 in0.0 mm 0.00 in0.0 mm
05:59 AM 42.1°F5.6°C 32.4°F0.2°C 68% 0.6 mph NE1.0 kmh NE 3.5 mph5.6 kmh 29.66 in1004.4 mb 0.00 in0.0 mm 0.00 in0.0 mm 0.00 in0.0 mm
05:58 AM 42.1°F5.6°C 32.4°F0.2°C 68% 0.9 mph S1.4 kmh S 3.5 mph5.6 kmh 29.66 in1004.4 mb 0.00 in0.0 mm 0.00 in0.0 mm 0.00 in0.0 mm
05:57 AM 42.1°F5.6°C 32.4°F0.2°C 68% 1.5 mph SSE2.4 kmh SSE 3.5 mph5.6 kmh 29.66 in1004.4 mb 0.00 in0.0 mm 0.00 in0.0 mm 0.00 in0.0 mm
05:56 AM 42.1°F5.6°C 32.4°F0.2°C 68% 1.5 mph SE2.4 kmh SE 3.5 mph5.6 kmh 29.66 in1004.4 mb 0.00 in0.0 mm 0.00 in0.0 mm 0.00 in0.0 mm
05:55 AM 41.9°F5.5°C 32.2°F0.1°C 68% 1.6 mph SSW2.6 kmh SSW 3.1 mph5.0 kmh 29.66 in1004.4 mb 0.00 in0.0 mm 0.00 in0.0 mm 0.00 in0.0 mm
05:54 AM 42.1°F5.6°C 32.4°F0.2°C 68% 1.4 mph SW2.3 kmh SW 3.1 mph5.0 kmh 29.66 in1004.4 mb 0.00 in0.0 mm 0.00 in0.0 mm 0.00 in0.0 mm
05:53 AM 42.1°F5.6°C 32.4°F0.2°C 68% 0.8 mph SSE1.3 kmh SSE 2.3 mph3.7 kmh 29.66 in1004.4 mb 0.00 in0.0 mm 0.00 in0.0 mm 0.00 in0.0 mm
05:52 AM 41.9°F5.5°C 32.2°F0.1°C 68% 0.8 mph S1.3 kmh S 2.3 mph3.7 kmh 29.66 in1004.4 mb 0.00 in0.0 mm 0.00 in0.0 mm 0.00 in0.0 mm
05:51 AM 41.9°F5.5°C 32.2°F0.1°C 68% 0.5 mph SW0.8 kmh SW 2.8 mph4.5 kmh 29.66 in1004.4 mb 0.00 in0.0 mm 0.00 in0.0 mm 0.00 in0.0 mm
05:50 AM 41.9°F5.5°C 32.2°F0.1°C 68% 0.5 mph S0.8 kmh S 2.8 mph4.5 kmh 29.66 in1004.4 mb 0.00 in0.0 mm 0.00 in0.0 mm 0.00 in0.0 mm
05:49 AM 41.9°F5.5°C 32.2°F0.1°C 68% 0.5 mph SSE0.8 kmh SSE 2.8 mph4.5 kmh 29.66 in1004.4 mb 0.00 in0.0 mm 0.00 in0.0 mm 0.00 in0.0 mm
05:48 AM 41.9°F5.5°C 32.2°F0.1°C 68% 0.5 mph SSE0.8 kmh SSE 2.8 mph4.5 kmh 29.66 in1004.4 mb 0.00 in0.0 mm 0.00 in0.0 mm 0.00 in0.0 mm
05:47 AM 41.9°F5.5°C 32.2°F0.1°C 68% 0.9 mph ESE1.4 kmh ESE 2.8 mph4.5 kmh 29.66 in1004.4 mb 0.00 in0.0 mm 0.00 in0.0 mm 0.00 in0.0 mm
05:46 AM 41.9°F5.5°C 32.2°F0.1°C 68% 1.1 mph ENE1.8 kmh ENE 2.8 mph4.5 kmh 29.65 in1004.1 mb 0.00 in0.0 mm 0.00 in0.0 mm 0.00 in0.0 mm
05:45 AM 41.9°F5.5°C 32.2°F0.1°C 68% 0.8 mph NNE1.3 kmh NNE 2.8 mph4.5 kmh 29.65 in1004.1 mb 0.00 in0.0 mm 0.00 in0.0 mm 0.00 in0.0 mm
05:44 AM 41.9°F5.5°C 32.2°F0.1°C 68% 0.6 mph NE1.0 kmh NE 2.8 mph4.5 kmh 29.65 in1004.1 mb 0.00 in0.0 mm 0.00 in0.0 mm 0.00 in0.0 mm
05:43 AM 41.9°F5.5°C 32.2°F0.1°C 68% 1.4 mph WNW2.3 kmh WNW 2.8 mph4.5 kmh 29.65 in1004.1 mb 0.00 in0.0 mm 0.00 in0.0 mm 0.00 in0.0 mm
05:42 AM 41.7°F5.4°C 32.0°F0.0°C 68% 1.6 mph NNE2.6 kmh NNE 2.8 mph4.5 kmh 29.65 in1004.1 mb 0.00 in0.0 mm 0.00 in0.0 mm 0.00 in0.0 mm
05:41 AM 41.7°F5.4°C 32.0°F0.0°C 68% 2.0 mph E3.2 kmh E 2.8 mph4.5 kmh 29.65 in1004.1 mb 0.00 in0.0 mm 0.00 in0.0 mm 0.00 in0.0 mm
05:40 AM 41.7°F5.4°C 32.0°F0.0°C 68% 1.4 mph E2.3 kmh E 3.9 mph6.3 kmh 29.65 in1004.1 mb 0.00 in0.0 mm 0.00 in0.0 mm 0.00 in0.0 mm
05:39 AM 41.7°F5.4°C 32.0°F0.0°C 68% 0.9 mph W1.4 kmh W 3.9 mph6.3 kmh 29.65 in1004.1 mb 0.00 in0.0 mm 0.00 in0.0 mm 0.00 in0.0 mm
05:38 AM 41.7°F5.4°C 32.0°F0.0°C 68% 0.8 mph SW1.3 kmh SW 3.9 mph6.3 kmh 29.65 in1004.1 mb 0.00 in0.0 mm 0.00 in0.0 mm 0.00 in0.0 mm
05:37 AM 41.7°F5.4°C 32.0°F0.0°C 68% 0.6 mph SSE1.0 kmh SSE 3.9 mph6.3 kmh 29.65 in1004.1 mb 0.00 in0.0 mm 0.00 in0.0 mm 0.00 in0.0 mm
05:36 AM 41.7°F5.4°C 32.0°F0.0°C 68% 0.5 mph SSE0.8 kmh SSE 3.9 mph6.3 kmh 29.65 in1004.1 mb 0.00 in0.0 mm 0.00 in0.0 mm 0.00 in0.0 mm
05:35 AM 41.7°F5.4°C 32.0°F0.0°C 68% 0.4 mph ENE0.6 kmh ENE 3.9 mph6.3 kmh 29.65 in1004.1 mb 0.00 in0.0 mm 0.00 in0.0 mm 0.00 in0.0 mm
05:34 AM 41.7°F5.4°C 32.0°F0.0°C 68% 0.6 mph E1.0 kmh E 3.9 mph6.3 kmh 29.65 in1004.1 mb 0.00 in0.0 mm 0.00 in0.0 mm 0.00 in0.0 mm
05:33 AM 41.7°F5.4°C 32.0°F0.0°C 68% 0.7 mph E1.1 kmh E 3.9 mph6.3 kmh 29.65 in1004.1 mb 0.00 in0.0 mm 0.00 in0.0 mm 0.00 in0.0 mm
05:32 AM 41.7°F5.4°C 32.0°F0.0°C 68% 1.4 mph ENE2.3 kmh ENE 3.9 mph6.3 kmh 29.65 in1004.1 mb 0.00 in0.0 mm 0.00 in0.0 mm 0.00 in0.0 mm
05:31 AM 41.7°F5.4°C 32.0°F0.0°C 68% 1.5 mph ENE2.4 kmh ENE 3.9 mph6.3 kmh 29.65 in1004.1 mb 0.00 in0.0 mm 0.00 in0.0 mm 0.00 in0.0 mm
05:30 AM 41.7°F5.4°C 32.0°F0.0°C 68% 0.9 mph NE1.4 kmh NE 2.8 mph4.5 kmh 29.65 in1004.1 mb 0.00 in0.0 mm 0.00 in0.0 mm 0.00 in0.0 mm
05:29 AM 41.7°F5.4°C 32.0°F0.0°C 68% 0.8 mph NE1.3 kmh NE 2.8 mph4.5 kmh 29.65 in1004.1 mb 0.00 in0.0 mm 0.00 in0.0 mm 0.00 in0.0 mm
05:28 AM 41.7°F5.4°C 32.0°F0.0°C 68% 0.6 mph E1.0 kmh E 2.8 mph4.5 kmh 29.65 in1004.1 mb 0.00 in0.0 mm 0.00 in0.0 mm 0.00 in0.0 mm
05:27 AM 41.7°F5.4°C 32.0°F0.0°C 68% 0.8 mph NNW1.3 kmh NNW 7.9 mph12.7 kmh 29.65 in1004.1 mb 0.00 in0.0 mm 0.00 in0.0 mm 0.00 in0.0 mm
05:26 AM 41.7°F5.4°C 32.0°F0.0°C 68% 0.9 mph N1.4 kmh N 7.9 mph12.7 kmh 29.66 in1004.4 mb 0.00 in0.0 mm 0.00 in0.0 mm 0.00 in0.0 mm
05:25 AM 41.7°F5.4°C 32.0°F0.0°C 68% 0.6 mph NE1.0 kmh NE 7.9 mph12.7 kmh 29.65 in1004.1 mb 0.00 in0.0 mm 0.00 in0.0 mm 0.00 in0.0 mm
05:24 AM 41.7°F5.4°C 32.0°F0.0°C 68% 0.7 mph NE1.1 kmh NE 7.9 mph12.7 kmh 29.66 in1004.4 mb 0.00 in0.0 mm 0.00 in0.0 mm 0.00 in0.0 mm
05:23 AM 41.7°F5.4°C 32.0°F0.0°C 68% 1.3 mph NNE2.1 kmh NNE 7.9 mph12.7 kmh 29.66 in1004.4 mb 0.00 in0.0 mm 0.00 in0.0 mm 0.00 in0.0 mm
05:22 AM 41.7°F5.4°C 32.0°F0.0°C 68% 1.8 mph NNE2.9 kmh NNE 7.9 mph12.7 kmh 29.66 in1004.4 mb 0.00 in0.0 mm 0.00 in0.0 mm 0.00 in0.0 mm
05:21 AM 41.7°F5.4°C 32.0°F0.0°C 68% 1.5 mph NNE2.4 kmh NNE 7.9 mph12.7 kmh 29.66 in1004.4 mb 0.00 in0.0 mm 0.00 in0.0 mm 0.00 in0.0 mm
05:20 AM 41.7°F5.4°C 32.0°F0.0°C 68% 0.8 mph E1.3 kmh E 7.9 mph12.7 kmh 29.66 in1004.4 mb 0.00 in0.0 mm 0.00 in0.0 mm 0.00 in0.0 mm
05:19 AM 41.7°F5.4°C 32.0°F0.0°C 68% 1.5 mph S2.4 kmh S 7.9 mph12.7 kmh 29.66 in1004.4 mb 0.00 in0.0 mm 0.00 in0.0 mm 0.00 in0.0 mm
05:18 AM 41.7°F5.4°C 32.0°F0.0°C 68% 4.5 mph SSW7.2 kmh SSW 7.9 mph12.7 kmh 29.66 in1004.4 mb 0.00 in0.0 mm 0.00 in0.0 mm 0.00 in0.0 mm
05:17 AM 41.7°F5.4°C 32.0°F0.0°C 68% 4.6 mph SSW7.4 kmh SSW 7.9 mph12.7 kmh 29.66 in1004.4 mb 0.00 in0.0 mm 0.00 in0.0 mm 0.00 in0.0 mm
05:16 AM 41.7°F5.4°C 32.0°F0.0°C 68% 2.5 mph SW4.0 kmh SW 7.9 mph12.7 kmh 29.66 in1004.4 mb 0.00 in0.0 mm 0.00 in0.0 mm 0.00 in0.0 mm
05:15 AM 41.7°F5.4°C 32.0°F0.0°C 68% 2.3 mph NW3.7 kmh NW 5.4 mph8.7 kmh 29.66 in1004.4 mb 0.00 in0.0 mm 0.00 in0.0 mm 0.00 in0.0 mm
05:14 AM 41.7°F5.4°C 32.0°F0.0°C 68% 1.6 mph NW2.6 kmh NW 5.4 mph8.7 kmh 29.66 in1004.4 mb 0.00 in0.0 mm 0.00 in0.0 mm 0.00 in0.0 mm
05:13 AM 41.7°F5.4°C 32.0°F0.0°C 68% 1.2 mph NE1.9 kmh NE 3.1 mph5.0 kmh 29.66 in1004.4 mb 0.00 in0.0 mm 0.00 in0.0 mm 0.00 in0.0 mm
05:12 AM 41.7°F5.4°C 32.0°F0.0°C 68% 1.6 mph NE2.6 kmh NE 3.1 mph5.0 kmh 29.66 in1004.4 mb 0.00 in0.0 mm 0.00 in0.0 mm 0.00 in0.0 mm
05:11 AM 41.7°F5.4°C 32.0°F0.0°C 68% 0.8 mph ENE1.3 kmh ENE 3.1 mph5.0 kmh 29.66 in1004.4 mb 0.00 in0.0 mm 0.00 in0.0 mm 0.00 in0.0 mm
05:10 AM 41.7°F5.4°C 32.0°F0.0°C 68% 1.1 mph NW1.8 kmh NW 3.1 mph5.0 kmh 29.66 in1004.4 mb 0.00 in0.0 mm 0.00 in0.0 mm 0.00 in0.0 mm
05:09 AM 41.7°F5.4°C 32.0°F0.0°C 68% 1.0 mph NNW1.6 kmh NNW 3.1 mph5.0 kmh 29.66 in1004.4 mb 0.00 in0.0 mm 0.00 in0.0 mm 0.00 in0.0 mm
05:08 AM 41.7°F5.4°C 32.0°F0.0°C 68% 0.4 mph ESE0.6 kmh ESE 3.1 mph5.0 kmh 29.66 in1004.4 mb 0.00 in0.0 mm 0.00 in0.0 mm 0.00 in0.0 mm
05:07 AM 41.7°F5.4°C 32.0°F0.0°C 68% 0.5 mph E0.8 kmh E 3.1 mph5.0 kmh 29.66 in1004.4 mb 0.00 in0.0 mm 0.00 in0.0 mm 0.00 in0.0 mm
05:06 AM 41.7°F5.4°C 32.0°F0.0°C 68% 0.6 mph WSW1.0 kmh WSW 3.1 mph5.0 kmh 29.66 in1004.4 mb 0.00 in0.0 mm 0.00 in0.0 mm 0.00 in0.0 mm
05:05 AM 41.5°F5.3°C 31.8°F-0.1°C 68% 0.7 mph WSW1.1 kmh WSW 3.1 mph5.0 kmh 29.66 in1004.4 mb 0.00 in0.0 mm 0.00 in0.0 mm 0.00 in0.0 mm
05:04 AM 41.5°F5.3°C 31.8°F-0.1°C 68% 0.5 mph W0.8 kmh W 3.1 mph5.0 kmh 29.66 in1004.4 mb 0.00 in0.0 mm 0.00 in0.0 mm 0.00 in0.0 mm
05:03 AM 41.5°F5.3°C 31.8°F-0.1°C 68% 0.5 mph E0.8 kmh E 3.1 mph5.0 kmh 29.66 in1004.4 mb 0.00 in0.0 mm 0.00 in0.0 mm 0.00 in0.0 mm
05:02 AM 41.5°F5.3°C 31.8°F-0.1°C 68% 0.9 mph SW1.4 kmh SW 3.1 mph5.0 kmh 29.66 in1004.4 mb 0.00 in0.0 mm 0.00 in0.0 mm 0.00 in0.0 mm
05:01 AM 41.5°F5.3°C 31.8°F-0.1°C 68% 0.8 mph SSW1.3 kmh SSW 3.1 mph5.0 kmh 29.66 in1004.4 mb 0.00 in0.0 mm 0.00 in0.0 mm 0.00 in0.0 mm
05:00 AM 41.5°F5.3°C 31.8°F-0.1°C 68% 0.7 mph SE1.1 kmh SE 3.1 mph5.0 kmh 29.66 in1004.4 mb 0.00 in0.0 mm 0.00 in0.0 mm 0.00 in0.0 mm
04:59 AM 41.5°F5.3°C 31.8°F-0.1°C 68% 1.1 mph SE1.8 kmh SE 3.1 mph5.0 kmh 29.66 in1004.4 mb 0.00 in0.0 mm 0.00 in0.0 mm 0.00 in0.0 mm
04:58 AM 41.5°F5.3°C 31.8°F-0.1°C 68% 1.1 mph ESE1.8 kmh ESE 3.1 mph5.0 kmh 29.66 in1004.4 mb 0.00 in0.0 mm 0.00 in0.0 mm 0.00 in0.0 mm
04:57 AM 41.5°F5.3°C 31.8°F-0.1°C 68% 0.9 mph E1.4 kmh E 3.1 mph5.0 kmh 29.66 in1004.4 mb 0.00 in0.0 mm 0.00 in0.0 mm 0.00 in0.0 mm
04:56 AM 41.5°F5.3°C 31.8°F-0.1°C 68% 0.5 mph SW0.8 kmh SW 3.1 mph5.0 kmh 29.66 in1004.4 mb 0.00 in0.0 mm 0.00 in0.0 mm 0.00 in0.0 mm
04:55 AM 41.5°F5.3°C 31.8°F-0.1°C 68% 0.5 mph NNW0.8 kmh NNW 3.1 mph5.0 kmh 29.66 in1004.4 mb 0.00 in0.0 mm 0.00 in0.0 mm 0.00 in0.0 mm
04:54 AM 41.5°F5.3°C 31.8°F-0.1°C 68% 0.6 mph N1.0 kmh N 3.1 mph5.0 kmh 29.66 in1004.4 mb 0.00 in0.0 mm 0.00 in0.0 mm 0.00 in0.0 mm
04:53 AM 41.5°F5.3°C 31.8°F-0.1°C 68% 0.5 mph N0.8 kmh N 3.1 mph5.0 kmh 29.66 in1004.4 mb 0.00 in0.0 mm 0.00 in0.0 mm 0.00 in0.0 mm
04:52 AM 41.5°F5.3°C 31.8°F-0.1°C 68% 0.5 mph NE0.8 kmh NE 3.1 mph5.0 kmh 29.66 in1004.4 mb 0.00 in0.0 mm 0.00 in0.0 mm 0.00 in0.0 mm
04:51 AM 41.5°F5.3°C 31.8°F-0.1°C 68% 1.1 mph N1.8 kmh N 4.4 mph7.1 kmh 29.66 in1004.4 mb 0.00 in0.0 mm 0.00 in0.0 mm 0.00 in0.0 mm
04:50 AM 41.5°F5.3°C 31.8°F-0.1°C 68% 1.1 mph N1.8 kmh N 4.4 mph7.1 kmh 29.66 in1004.4 mb 0.00 in0.0 mm 0.00 in0.0 mm 0.00 in0.0 mm
04:49 AM 41.5°F5.3°C 31.8°F-0.1°C 68% 1.0 mph WSW1.6 kmh WSW 4.4 mph7.1 kmh 29.66 in1004.4 mb 0.00 in0.0 mm 0.00 in0.0 mm 0.00 in0.0 mm
04:48 AM 41.5°F5.3°C 31.8°F-0.1°C 68% 0.9 mph WSW1.4 kmh WSW 4.4 mph7.1 kmh 29.66 in1004.4 mb 0.00 in0.0 mm 0.00 in0.0 mm 0.00 in0.0 mm
04:47 AM 41.5°F5.3°C 31.8°F-0.1°C 68% 0.9 mph SE1.4 kmh SE 4.4 mph7.1 kmh 29.66 in1004.4 mb 0.00 in0.0 mm 0.00 in0.0 mm 0.00 in0.0 mm
04:46 AM 41.5°F5.3°C 31.8°F-0.1°C 68% 1.4 mph E2.3 kmh E 4.4 mph7.1 kmh 29.66 in1004.4 mb 0.00 in0.0 mm 0.00 in0.0 mm 0.00 in0.0 mm
04:45 AM 41.5°F5.3°C 31.8°F-0.1°C 68% 0.9 mph NE1.4 kmh NE 4.4 mph7.1 kmh 29.66 in1004.4 mb 0.00 in0.0 mm 0.00 in0.0 mm 0.00 in0.0 mm
04:44 AM 41.5°F5.3°C 31.8°F-0.1°C 68% 0.6 mph N1.0 kmh N 4.4 mph7.1 kmh 29.66 in1004.4 mb 0.00 in0.0 mm 0.00 in0.0 mm 0.00 in0.0 mm
04:43 AM 41.5°F5.3°C 31.8°F-0.1°C 68% 1.0 mph NNE1.6 kmh NNE 4.4 mph7.1 kmh 29.66 in1004.4 mb 0.00 in0.0 mm 0.00 in0.0 mm 0.00 in0.0 mm
04:42 AM 41.4°F5.2°C 31.7°F-0.2°C 68% 1.7 mph SSE2.7 kmh SSE 4.4 mph7.1 kmh 29.66 in1004.4 mb 0.00 in0.0 mm 0.00 in0.0 mm 0.00 in0.0 mm
04:41 AM 41.4°F5.2°C 31.7°F-0.2°C 68% 1.2 mph S1.9 kmh S 4.4 mph7.1 kmh 29.66 in1004.4 mb 0.00 in0.0 mm 0.00 in0.0 mm 0.00 in0.0 mm
04:40 AM 41.4°F5.2°C 31.7°F-0.2°C 68% 1.1 mph NE1.8 kmh NE 3.5 mph5.6 kmh 29.66 in1004.4 mb 0.00 in0.0 mm 0.00 in0.0 mm 0.00 in0.0 mm
04:39 AM 41.4°F5.2°C 31.7°F-0.2°C 68% 1.1 mph NE1.8 kmh NE 3.5 mph5.6 kmh 29.66 in1004.4 mb 0.00 in0.0 mm 0.00 in0.0 mm 0.00 in0.0 mm
04:38 AM 41.4°F5.2°C 31.7°F-0.2°C 68% 0.5 mph NE0.8 kmh NE 3.5 mph5.6 kmh 29.66 in1004.4 mb 0.00 in0.0 mm 0.00 in0.0 mm 0.00 in0.0 mm
04:37 AM 41.4°F5.2°C 31.7°F-0.2°C 68% 0.5 mph NE0.8 kmh NE 3.5 mph5.6 kmh 29.66 in1004.4 mb 0.00 in0.0 mm 0.00 in0.0 mm 0.00 in0.0 mm
04:36 AM 41.4°F5.2°C 31.7°F-0.2°C 68% 0.6 mph WNW1.0 kmh WNW 3.5 mph5.6 kmh 29.66 in1004.4 mb 0.00 in0.0 mm 0.00 in0.0 mm 0.00 in0.0 mm
04:35 AM 41.4°F5.2°C 31.7°F-0.2°C 68% 1.1 mph NNW1.8 kmh NNW 3.5 mph5.6 kmh 29.66 in1004.4 mb 0.00 in0.0 mm 0.00 in0.0 mm 0.00 in0.0 mm
04:34 AM 41.4°F5.2°C 31.7°F-0.2°C 68% 1.7 mph 2.7 kmh 3.5 mph5.6 kmh 29.66 in1004.4 mb 0.00 in0.0 mm 0.00 in0.0 mm 0.00 in0.0 mm
04:33 AM 41.4°F5.2°C 31.7°F-0.2°C 68% 1.3 mph NNE2.1 kmh NNE 3.1 mph5.0 kmh 29.66 in1004.4 mb 0.00 in0.0 mm 0.00 in0.0 mm 0.00 in0.0 mm
04:32 AM 41.4°F5.2°C 31.7°F-0.2°C 68% 0.6 mph E1.0 kmh E 3.1 mph5.0 kmh 29.66 in1004.4 mb 0.00 in0.0 mm 0.00 in0.0 mm 0.00 in0.0 mm
04:31 AM 41.4°F5.2°C 31.7°F-0.2°C 68% 0.5 mph ESE0.8 kmh ESE 3.1 mph5.0 kmh 29.66 in1004.4 mb 0.00 in0.0 mm 0.00 in0.0 mm 0.00 in0.0 mm
04:30 AM 41.4°F5.2°C 31.7°F-0.2°C 68% 0.5 mph S0.8 kmh S 5.1 mph8.2 kmh 29.66 in1004.4 mb 0.00 in0.0 mm 0.00 in0.0 mm 0.00 in0.0 mm
04:29 AM 41.4°F5.2°C 31.7°F-0.2°C 68% 0.7 mph SW1.1 kmh SW 5.1 mph8.2 kmh 29.66 in1004.4 mb 0.00 in0.0 mm 0.00 in0.0 mm 0.00 in0.0 mm
04:28 AM 41.4°F5.2°C 31.7°F-0.2°C 68% 1.0 mph SSW1.6 kmh SSW 5.1 mph8.2 kmh 29.66 in1004.4 mb 0.00 in0.0 mm 0.00 in0.0 mm 0.00 in0.0 mm
04:27 AM 41.4°F5.2°C 31.7°F-0.2°C 68% 1.2 mph SE1.9 kmh SE 5.1 mph8.2 kmh 29.66 in1004.4 mb 0.00 in0.0 mm 0.00 in0.0 mm 0.00 in0.0 mm
04:26 AM 41.4°F5.2°C 31.7°F-0.2°C 68% 0.9 mph ENE1.4 kmh ENE 5.1 mph8.2 kmh 29.66 in1004.4 mb 0.00 in0.0 mm 0.00 in0.0 mm 0.00 in0.0 mm
04:25 AM 41.4°F5.2°C 31.7°F-0.2°C 68% 1.1 mph N1.8 kmh N 5.1 mph8.2 kmh 29.66 in1004.4 mb 0.00 in0.0 mm 0.00 in0.0 mm 0.00 in0.0 mm
04:24 AM 41.4°F5.2°C 31.7°F-0.2°C 68% 1.0 mph N1.6 kmh N 5.1 mph8.2 kmh 29.66 in1004.4 mb 0.00 in0.0 mm 0.00 in0.0 mm 0.00 in0.0 mm
04:23 AM 41.4°F5.2°C 31.7°F-0.2°C 68% 0.5 mph N0.8 kmh N 5.1 mph8.2 kmh 29.66 in1004.4 mb 0.00 in0.0 mm 0.00 in0.0 mm 0.00 in0.0 mm
04:22 AM 41.4°F5.2°C 31.7°F-0.2°C 68% 0.9 mph SSE1.4 kmh SSE 5.1 mph8.2 kmh 29.66 in1004.4 mb 0.00 in0.0 mm 0.00 in0.0 mm 0.00 in0.0 mm
04:21 AM 41.4°F5.2°C 31.7°F-0.2°C 68% 2.0 mph S3.2 kmh S 9.4 mph15.1 kmh 29.66 in1004.4 mb 0.00 in0.0 mm 0.00 in0.0 mm 0.00 in0.0 mm
04:20 AM 41.4°F5.2°C 31.7°F-0.2°C 68% 1.8 mph S2.9 kmh S 9.4 mph15.1 kmh 29.66 in1004.4 mb 0.00 in0.0 mm 0.00 in0.0 mm 0.00 in0.0 mm
04:19 AM 41.4°F5.2°C 31.7°F-0.2°C 68% 1.3 mph SSW2.1 kmh SSW 9.4 mph15.1 kmh 29.66 in1004.4 mb 0.00 in0.0 mm 0.00 in0.0 mm 0.00 in0.0 mm
04:18 AM 41.4°F5.2°C 31.7°F-0.2°C 68% 2.2 mph E3.5 kmh E 9.4 mph15.1 kmh 29.66 in1004.4 mb 0.00 in0.0 mm 0.00 in0.0 mm 0.00 in0.0 mm
04:17 AM 41.2°F5.1°C 31.5°F-0.3°C 68% 2.2 mph NE3.5 kmh NE 9.4 mph15.1 kmh 29.66 in1004.4 mb 0.00 in0.0 mm 0.00 in0.0 mm 0.00 in0.0 mm
04:16 AM 41.4°F5.2°C 31.7°F-0.2°C 68% 1.3 mph N2.1 kmh N 9.4 mph15.1 kmh 29.66 in1004.4 mb 0.00 in0.0 mm 0.00 in0.0 mm 0.00 in0.0 mm
04:15 AM 41.4°F5.2°C 31.7°F-0.2°C 68% 0.6 mph S1.0 kmh S 9.4 mph15.1 kmh 29.66 in1004.4 mb 0.00 in0.0 mm 0.00 in0.0 mm 0.00 in0.0 mm
04:14 AM 41.4°F5.2°C 31.7°F-0.2°C 68% 0.4 mph S0.6 kmh S 9.4 mph15.1 kmh 29.66 in1004.4 mb 0.00 in0.0 mm 0.00 in0.0 mm 0.00 in0.0 mm
04:13 AM 41.4°F5.2°C 31.7°F-0.2°C 68% 1.2 mph S1.9 kmh S 9.4 mph15.1 kmh 29.66 in1004.4 mb 0.00 in0.0 mm 0.00 in0.0 mm 0.00 in0.0 mm
04:12 AM 41.4°F5.2°C 31.7°F-0.2°C 68% 4.1 mph S6.6 kmh S 9.4 mph15.1 kmh 29.66 in1004.4 mb 0.00 in0.0 mm 0.00 in0.0 mm 0.00 in0.0 mm
04:11 AM 41.4°F5.2°C 31.7°F-0.2°C 68% 4.3 mph E6.9 kmh E 9.4 mph15.1 kmh 29.66 in1004.4 mb 0.00 in0.0 mm 0.00 in0.0 mm 0.00 in0.0 mm
04:10 AM 41.4°F5.2°C 31.7°F-0.2°C 68% 2.5 mph N4.0 kmh N 7.9 mph12.7 kmh 29.66 in1004.4 mb 0.00 in0.0 mm 0.00 in0.0 mm 0.00 in0.0 mm
04:09 AM 41.4°F5.2°C 31.7°F-0.2°C 68% 3.6 mph NNE5.8 kmh NNE 7.9 mph12.7 kmh 29.66 in1004.4 mb 0.00 in0.0 mm 0.00 in0.0 mm 0.00 in0.0 mm
04:08 AM 41.4°F5.2°C 31.7°F-0.2°C 68% 3.6 mph NNE5.8 kmh NNE 7.9 mph12.7 kmh 29.66 in1004.4 mb 0.00 in0.0 mm 0.00 in0.0 mm 0.00 in0.0 mm
04:07 AM 41.2°F5.1°C 31.5°F-0.3°C 68% 3.4 mph NE5.5 kmh NE 7.9 mph12.7 kmh 29.66 in1004.4 mb 0.00 in0.0 mm 0.00 in0.0 mm 0.00 in0.0 mm
04:06 AM 41.2°F5.1°C 31.5°F-0.3°C 68% 3.3 mph NNE5.3 kmh NNE 7.9 mph12.7 kmh 29.66 in1004.4 mb 0.00 in0.0 mm 0.00 in0.0 mm 0.00 in0.0 mm
04:05 AM 41.2°F5.1°C 31.5°F-0.3°C 68% 3.3 mph N5.3 kmh N 7.0 mph11.3 kmh 29.66 in1004.4 mb 0.00 in0.0 mm 0.00 in0.0 mm 0.00 in0.0 mm
04:04 AM 41.2°F5.1°C 31.5°F-0.3°C 68% 3.8 mph N6.1 kmh N 7.0 mph11.3 kmh 29.66 in1004.4 mb 0.00 in0.0 mm 0.00 in0.0 mm 0.00 in0.0 mm
04:03 AM 41.2°F5.1°C 31.5°F-0.3°C 68% 2.9 mph NE4.7 kmh NE 6.0 mph9.7 kmh 29.66 in1004.4 mb 0.00 in0.0 mm 0.00 in0.0 mm 0.00 in0.0 mm
04:02 AM 41.2°F5.1°C 31.5°F-0.3°C 68% 3.5 mph NE5.6 kmh NE 6.0 mph9.7 kmh 29.66 in1004.4 mb 0.00 in0.0 mm 0.00 in0.0 mm 0.00 in0.0 mm
04:01 AM 41.2°F5.1°C 31.5°F-0.3°C 68% 2.8 mph NE4.5 kmh NE 6.0 mph9.7 kmh 29.66 in1004.4 mb 0.00 in0.0 mm 0.00 in0.0 mm 0.00 in0.0 mm
04:00 AM 41.2°F5.1°C 31.5°F-0.3°C 68% 0.9 mph NE1.4 kmh NE 4.4 mph7.1 kmh 29.66 in1004.4 mb 0.00 in0.0 mm 0.00 in0.0 mm 0.00 in0.0 mm
03:59 AM 41.2°F5.1°C 31.5°F-0.3°C 68% 0.8 mph SSE1.3 kmh SSE 4.4 mph7.1 kmh 29.67 in1004.7 mb 0.00 in0.0 mm 0.00 in0.0 mm 0.00 in0.0 mm
03:58 AM 41.2°F5.1°C 31.5°F-0.3°C 68% 1.2 mph E1.9 kmh E 4.4 mph7.1 kmh 29.67 in1004.7 mb 0.00 in0.0 mm 0.00 in0.0 mm 0.00 in0.0 mm
03:57 AM 41.2°F5.1°C 31.5°F-0.3°C 68% 1.5 mph E2.4 kmh E 4.4 mph7.1 kmh 29.67 in1004.7 mb 0.00 in0.0 mm 0.00 in0.0 mm 0.00 in0.0 mm
03:56 AM 41.2°F5.1°C 31.5°F-0.3°C 68% 1.6 mph SE2.6 kmh SE 4.4 mph7.1 kmh 29.67 in1004.7 mb 0.00 in0.0 mm 0.00 in0.0 mm 0.00 in0.0 mm
03:55 AM 41.2°F5.1°C 31.5°F-0.3°C 68% 1.3 mph NE2.1 kmh NE 4.4 mph7.1 kmh 29.68 in1005.1 mb 0.00 in0.0 mm 0.00 in0.0 mm 0.00 in0.0 mm
03:54 AM 41.2°F5.1°C 31.5°F-0.3°C 68% 1.0 mph NE1.6 kmh NE 4.4 mph7.1 kmh 29.68 in1005.1 mb 0.00 in0.0 mm 0.00 in0.0 mm 0.00 in0.0 mm
03:53 AM 41.2°F5.1°C 31.5°F-0.3°C 68% 1.0 mph ENE1.6 kmh ENE 4.4 mph7.1 kmh 29.68 in1005.1 mb 0.00 in0.0 mm 0.00 in0.0 mm 0.00 in0.0 mm
03:52 AM 41.2°F5.1°C 31.5°F-0.3°C 68% 1.0 mph NE1.6 kmh NE 5.4 mph8.7 kmh 29.68 in1005.1 mb 0.00 in0.0 mm 0.00 in0.0 mm 0.00 in0.0 mm
03:51 AM 41.2°F5.1°C 31.5°F-0.3°C 68% 0.8 mph ENE1.3 kmh ENE 5.4 mph8.7 kmh 29.68 in1005.1 mb 0.00 in0.0 mm 0.00 in0.0 mm 0.00 in0.0 mm
03:50 AM 41.2°F5.1°C 31.5°F-0.3°C 68% 1.3 mph E2.1 kmh E 5.4 mph8.7 kmh 29.68 in1005.1 mb 0.00 in0.0 mm 0.00 in0.0 mm 0.00 in0.0 mm
03:49 AM 41.2°F5.1°C 31.5°F-0.3°C 68% 1.1 mph E1.8 kmh E 5.4 mph8.7 kmh 29.69 in1005.4 mb 0.00 in0.0 mm 0.00 in0.0 mm 0.00 in0.0 mm
03:48 AM 41.2°F5.1°C 31.5°F-0.3°C 68% 0.6 mph NE1.0 kmh NE 5.4 mph8.7 kmh 29.68 in1005.1 mb 0.00 in0.0 mm 0.00 in0.0 mm 0.00 in0.0 mm
03:47 AM 41.2°F5.1°C 31.5°F-0.3°C 68% 1.0 mph NNE1.6 kmh NNE 5.4 mph8.7 kmh 29.68 in1005.1 mb 0.00 in0.0 mm 0.00 in0.0 mm 0.00 in0.0 mm
03:46 AM 41.2°F5.1°C 31.5°F-0.3°C 68% 0.9 mph NW1.4 kmh NW 5.4 mph8.7 kmh 29.69 in1005.4 mb 0.00 in0.0 mm 0.00 in0.0 mm 0.00 in0.0 mm
03:45 AM 41.2°F5.1°C 31.5°F-0.3°C 68% 0.8 mph NE1.3 kmh NE 5.4 mph8.7 kmh 29.69 in1005.4 mb 0.00 in0.0 mm 0.00 in0.0 mm 0.00 in0.0 mm
03:44 AM 41.2°F5.1°C 31.5°F-0.3°C 68% 2.9 mph NE4.7 kmh NE 5.4 mph8.7 kmh 29.69 in1005.4 mb 0.00 in0.0 mm 0.00 in0.0 mm 0.00 in0.0 mm
03:43 AM 41.2°F5.1°C 31.5°F-0.3°C 68% 3.2 mph NE5.1 kmh NE 5.4 mph8.7 kmh 29.69 in1005.4 mb 0.00 in0.0 mm 0.00 in0.0 mm 0.00 in0.0 mm
03:42 AM 41.2°F5.1°C 31.5°F-0.3°C 68% 2.3 mph NNE3.7 kmh NNE 5.1 mph8.2 kmh 29.69 in1005.4 mb 0.00 in0.0 mm 0.00 in0.0 mm 0.00 in0.0 mm
03:41 AM 41.2°F5.1°C 31.5°F-0.3°C 68% 0.9 mph NW1.4 kmh NW 4.4 mph7.1 kmh 29.69 in1005.4 mb 0.00 in0.0 mm 0.00 in0.0 mm 0.00 in0.0 mm
03:40 AM 41.2°F5.1°C 31.5°F-0.3°C 68% 0.6 mph N1.0 kmh N 4.4 mph7.1 kmh 29.69 in1005.4 mb 0.00 in0.0 mm 0.00 in0.0 mm 0.00 in0.0 mm
03:39 AM 41.2°F5.1°C 31.5°F-0.3°C 68% 0.8 mph N1.3 kmh N 4.4 mph7.1 kmh 29.68 in1005.1 mb 0.00 in0.0 mm 0.00 in0.0 mm 0.00 in0.0 mm
03:38 AM 41.2°F5.1°C 31.5°F-0.3°C 68% 1.0 mph NNW1.6 kmh NNW 4.4 mph7.1 kmh 29.68 in1005.1 mb 0.00 in0.0 mm 0.00 in0.0 mm 0.00 in0.0 mm
03:37 AM 41.2°F5.1°C 31.5°F-0.3°C 68% 0.8 mph NW1.3 kmh NW 4.4 mph7.1 kmh 29.68 in1005.1 mb 0.00 in0.0 mm 0.00 in0.0 mm 0.00 in0.0 mm
03:36 AM 41.2°F5.1°C 31.5°F-0.3°C 68% 0.8 mph WSW1.3 kmh WSW 4.4 mph7.1 kmh 29.68 in1005.1 mb 0.00 in0.0 mm 0.00 in0.0 mm 0.00 in0.0 mm
03:35 AM 41.2°F5.1°C 31.5°F-0.3°C 68% 1.4 mph SSW2.3 kmh SSW 4.4 mph7.1 kmh 29.67 in1004.7 mb 0.00 in0.0 mm 0.00 in0.0 mm 0.00 in0.0 mm
03:34 AM 41.2°F5.1°C 31.5°F-0.3°C 68% 1.9 mph SSW3.1 kmh SSW 6.7 mph10.8 kmh 29.68 in1005.1 mb 0.00 in0.0 mm 0.00 in0.0 mm 0.00 in0.0 mm
03:33 AM 41.2°F5.1°C 31.5°F-0.3°C 68% 1.3 mph S2.1 kmh S 6.7 mph10.8 kmh 29.67 in1004.7 mb 0.00 in0.0 mm 0.00 in0.0 mm 0.00 in0.0 mm
03:32 AM 41.2°F5.1°C 31.5°F-0.3°C 68% 0.8 mph S1.3 kmh S 6.7 mph10.8 kmh 29.67 in1004.7 mb 0.00 in0.0 mm 0.00 in0.0 mm 0.00 in0.0 mm
03:31 AM 41.2°F5.1°C 31.5°F-0.3°C 68% 0.7 mph S1.1 kmh S 6.7 mph10.8 kmh 29.67 in1004.7 mb 0.00 in0.0 mm 0.00 in0.0 mm 0.00 in0.0 mm
03:30 AM 41.2°F5.1°C 31.5°F-0.3°C 68% 0.6 mph S1.0 kmh S 6.7 mph10.8 kmh 29.66 in1004.4 mb 0.00 in0.0 mm 0.00 in0.0 mm 0.00 in0.0 mm
03:29 AM 41.2°F5.1°C 31.5°F-0.3°C 68% 0.5 mph SW0.8 kmh SW 6.7 mph10.8 kmh 29.66 in1004.4 mb 0.00 in0.0 mm 0.00 in0.0 mm 0.00 in0.0 mm
03:28 AM 41.2°F5.1°C 31.5°F-0.3°C 68% 0.5 mph SW0.8 kmh SW 6.7 mph10.8 kmh 29.66 in1004.4 mb 0.00 in0.0 mm 0.00 in0.0 mm 0.00 in0.0 mm
03:27 AM 41.2°F5.1°C 31.5°F-0.3°C 68% 0.6 mph S1.0 kmh S 6.7 mph10.8 kmh 29.66 in1004.4 mb 0.00 in0.0 mm 0.00 in0.0 mm 0.00 in0.0 mm
03:26 AM 41.2°F5.1°C 31.5°F-0.3°C 68% 1.6 mph NE2.6 kmh NE 6.7 mph10.8 kmh 29.66 in1004.4 mb 0.00 in0.0 mm 0.00 in0.0 mm 0.00 in0.0 mm
03:25 AM 41.2°F5.1°C 31.5°F-0.3°C 68% 2.0 mph NNE3.2 kmh NNE 6.7 mph10.8 kmh 29.66 in1004.4 mb 0.00 in0.0 mm 0.00 in0.0 mm 0.00 in0.0 mm
03:24 AM 41.2°F5.1°C 31.5°F-0.3°C 68% 1.3 mph N2.1 kmh N 6.7 mph10.8 kmh 29.66 in1004.4 mb 0.00 in0.0 mm 0.00 in0.0 mm 0.00 in0.0 mm
03:23 AM 41.2°F5.1°C 31.5°F-0.3°C 68% 0.8 mph WNW1.3 kmh WNW 5.4 mph8.7 kmh 29.66 in1004.4 mb 0.00 in0.0 mm 0.00 in0.0 mm 0.00 in0.0 mm
03:22 AM 41.2°F5.1°C 31.5°F-0.3°C 68% 0.7 mph N1.1 kmh N 5.4 mph8.7 kmh 29.66 in1004.4 mb 0.00 in0.0 mm 0.00 in0.0 mm 0.00 in0.0 mm
03:21 AM 41.2°F5.1°C 31.5°F-0.3°C 68% 0.8 mph NE1.3 kmh NE 5.4 mph8.7 kmh 29.66 in1004.4 mb 0.00 in0.0 mm 0.00 in0.0 mm 0.00 in0.0 mm
03:20 AM 41.2°F5.1°C 31.5°F-0.3°C 68% 1.5 mph E2.4 kmh E 5.4 mph8.7 kmh 29.66 in1004.4 mb 0.00 in0.0 mm 0.00 in0.0 mm 0.00 in0.0 mm
03:19 AM 41.2°F5.1°C 31.5°F-0.3°C 68% 2.7 mph E4.3 kmh E 5.4 mph8.7 kmh 29.66 in1004.4 mb 0.00 in0.0 mm 0.00 in0.0 mm 0.00 in0.0 mm
03:18 AM 41.2°F5.1°C 31.5°F-0.3°C 68% 2.2 mph E3.5 kmh E 5.4 mph8.7 kmh 29.66 in1004.4 mb 0.00 in0.0 mm 0.00 in0.0 mm 0.00 in0.0 mm
03:17 AM 41.2°F5.1°C 31.5°F-0.3°C 68% 1.3 mph NNE2.1 kmh NNE 4.4 mph7.1 kmh 29.66 in1004.4 mb 0.00 in0.0 mm 0.00 in0.0 mm 0.00 in0.0 mm
03:16 AM 41.2°F5.1°C 31.2°F-0.4°C 67% 1.4 mph N2.3 kmh N 4.4 mph7.1 kmh 29.66 in1004.4 mb 0.00 in0.0 mm 0.00 in0.0 mm 0.00 in0.0 mm
03:15 AM 41.2°F5.1°C 31.2°F-0.4°C 67% 1.2 mph N1.9 kmh N 4.4 mph7.1 kmh 29.66 in1004.4 mb 0.00 in0.0 mm 0.00 in0.0 mm 0.00 in0.0 mm
03:14 AM 41.2°F5.1°C 31.2°F-0.4°C 67% 1.1 mph NE1.8 kmh NE 6.0 mph9.7 kmh 29.66 in1004.4 mb 0.00 in0.0 mm 0.00 in0.0 mm 0.00 in0.0 mm
03:13 AM 41.2°F5.1°C 31.2°F-0.4°C 67% 1.5 mph NE2.4 kmh NE 6.0 mph9.7 kmh 29.66 in1004.4 mb 0.00 in0.0 mm 0.00 in0.0 mm 0.00 in0.0 mm
03:12 AM 41.2°F5.1°C 31.2°F-0.4°C 67% 2.1 mph NNE3.4 kmh NNE 6.0 mph9.7 kmh 29.66 in1004.4 mb 0.00 in0.0 mm 0.00 in0.0 mm 0.00 in0.0 mm
03:11 AM 41.2°F5.1°C 31.2°F-0.4°C 67% 2.6 mph NNE4.2 kmh NNE 6.0 mph9.7 kmh 29.66 in1004.4 mb 0.00 in0.0 mm 0.00 in0.0 mm 0.00 in0.0 mm
03:10 AM 41.2°F5.1°C 31.2°F-0.4°C 67% 1.7 mph NE2.7 kmh NE 6.0 mph9.7 kmh 29.66 in1004.4 mb 0.00 in0.0 mm 0.00 in0.0 mm 0.00 in0.0 mm
03:09 AM 41.2°F5.1°C 31.2°F-0.4°C 67% 0.6 mph E1.0 kmh E 6.0 mph9.7 kmh 29.66 in1004.4 mb 0.00 in0.0 mm 0.00 in0.0 mm 0.00 in0.0 mm
03:08 AM 41.2°F5.1°C 31.2°F-0.4°C 67% 0.7 mph NE1.1 kmh NE 6.0 mph9.7 kmh 29.66 in1004.4 mb 0.00 in0.0 mm 0.00 in0.0 mm 0.00 in0.0 mm
03:07 AM 41.2°F5.1°C 31.2°F-0.4°C 67% 0.9 mph N1.4 kmh N 6.0 mph9.7 kmh 29.66 in1004.4 mb 0.00 in0.0 mm 0.00 in0.0 mm 0.00 in0.0 mm
03:06 AM 41.2°F5.1°C 31.2°F-0.4°C 67% 1.2 mph E1.9 kmh E 13.3 mph21.4 kmh 29.67 in1004.7 mb 0.00 in0.0 mm 0.00 in0.0 mm 0.00 in0.0 mm
03:05 AM 41.2°F5.1°C 31.2°F-0.4°C 67% 1.1 mph SE1.8 kmh SE 13.3 mph21.4 kmh 29.67 in1004.7 mb 0.00 in0.0 mm 0.00 in0.0 mm 0.00 in0.0 mm
03:04 AM 41.2°F5.1°C 31.2°F-0.4°C 67% 1.0 mph S1.6 kmh S 13.3 mph21.4 kmh 29.67 in1004.7 mb 0.00 in0.0 mm 0.00 in0.0 mm 0.00 in0.0 mm
03:03 AM 41.2°F5.1°C 31.2°F-0.4°C 67% 1.8 mph NE2.9 kmh NE 13.3 mph21.4 kmh 29.67 in1004.7 mb 0.00 in0.0 mm 0.00 in0.0 mm 0.00 in0.0 mm
03:02 AM 41.2°F5.1°C 31.2°F-0.4°C 67% 1.2 mph NE1.9 kmh NE 13.3 mph21.4 kmh 29.67 in1004.7 mb 0.00 in0.0 mm 0.00 in0.0 mm 0.00 in0.0 mm
03:01 AM 41.2°F5.1°C 31.2°F-0.4°C 67% 0.6 mph SE1.0 kmh SE 13.3 mph21.4 kmh 29.67 in1004.7 mb 0.00 in0.0 mm 0.00 in0.0 mm 0.00 in0.0 mm
03:00 AM 41.2°F5.1°C 31.2°F-0.4°C 67% 1.1 mph SE1.8 kmh SE 13.3 mph21.4 kmh 29.67 in1004.7 mb 0.00 in0.0 mm 0.00 in0.0 mm 0.00 in0.0 mm
02:59 AM 41.2°F5.1°C 31.2°F-0.4°C 67% 0.8 mph WSW1.3 kmh WSW 13.3 mph21.4 kmh 29.67 in1004.7 mb 0.00 in0.0 mm 0.00 in0.0 mm 0.00 in0.0 mm
02:58 AM 41.2°F5.1°C 31.2°F-0.4°C 67% 1.5 mph E2.4 kmh E 13.3 mph21.4 kmh 29.67 in1004.7 mb 0.00 in0.0 mm 0.00 in0.0 mm 0.00 in0.0 mm
02:57 AM 41.2°F5.1°C 31.2°F-0.4°C 67% 4.7 mph ENE7.6 kmh ENE 13.3 mph21.4 kmh 29.67 in1004.7 mb 0.00 in0.0 mm 0.00 in0.0 mm 0.00 in0.0 mm
02:56 AM 41.0°F5.0°C 31.0°F-0.6°C 67% 3.7 mph ENE6.0 kmh ENE 13.3 mph21.4 kmh 29.67 in1004.7 mb 0.00 in0.0 mm 0.00 in0.0 mm 0.00 in0.0 mm
02:55 AM 41.2°F5.1°C 31.2°F-0.4°C 67% 0.5 mph E0.8 kmh E 2.8 mph4.5 kmh 29.67 in1004.7 mb 0.00 in0.0 mm 0.00 in0.0 mm 0.00 in0.0 mm
02:54 AM 41.2°F5.1°C 30.8°F-0.7°C 66% 0.7 mph E1.1 kmh E 2.8 mph4.5 kmh 29.67 in1004.7 mb 0.00 in0.0 mm 0.00 in0.0 mm 0.00 in0.0 mm
02:53 AM 41.2°F5.1°C 31.2°F-0.4°C 67% 0.9 mph E1.4 kmh E 3.1 mph5.0 kmh 29.67 in1004.7 mb 0.00 in0.0 mm 0.00 in0.0 mm 0.00 in0.0 mm
02:52 AM 41.2°F5.1°C 30.8°F-0.7°C 66% 1.0 mph ESE1.6 kmh ESE 3.5 mph5.6 kmh 29.67 in1004.7 mb 0.00 in0.0 mm 0.00 in0.0 mm 0.00 in0.0 mm
02:51 AM 41.2°F5.1°C 30.8°F-0.7°C 66% 0.8 mph S1.3 kmh S 3.5 mph5.6 kmh 29.67 in1004.7 mb 0.00 in0.0 mm 0.00 in0.0 mm 0.00 in0.0 mm
02:50 AM 41.2°F5.1°C 30.8°F-0.7°C 66% 0.4 mph SSW0.6 kmh SSW 3.5 mph5.6 kmh 29.67 in1004.7 mb 0.00 in0.0 mm 0.00 in0.0 mm 0.00 in0.0 mm
02:49 AM 41.2°F5.1°C 30.8°F-0.7°C 66% 0.5 mph WNW0.8 kmh WNW 3.5 mph5.6 kmh 29.68 in1005.1 mb 0.00 in0.0 mm 0.00 in0.0 mm 0.00 in0.0 mm
02:48 AM 41.2°F5.1°C 30.8°F-0.7°C 66% 1.1 mph N1.8 kmh N 3.5 mph5.6 kmh 29.67 in1004.7 mb 0.00 in0.0 mm 0.00 in0.0 mm 0.00 in0.0 mm
02:47 AM 41.2°F5.1°C 30.8°F-0.7°C 66% 1.2 mph N1.9 kmh N 3.5 mph5.6 kmh 29.67 in1004.7 mb 0.00 in0.0 mm 0.00 in0.0 mm 0.00 in0.0 mm
02:46 AM 41.0°F5.0°C 30.6°F-0.8°C 66% 0.7 mph NNW1.1 kmh NNW 3.5 mph5.6 kmh 29.68 in1005.1 mb 0.00 in0.0 mm 0.00 in0.0 mm 0.00 in0.0 mm
02:45 AM 41.2°F5.1°C 30.8°F-0.7°C 66% 0.9 mph N1.4 kmh N 9.4 mph15.1 kmh 29.68 in1005.1 mb 0.00 in0.0 mm 0.00 in0.0 mm 0.00 in0.0 mm
02:44 AM 41.2°F5.1°C 30.8°F-0.7°C 66% 1.6 mph NNE2.6 kmh NNE 9.4 mph15.1 kmh 29.68 in1005.1 mb 0.00 in0.0 mm 0.00 in0.0 mm 0.00 in0.0 mm
02:43 AM 41.2°F5.1°C 30.8°F-0.7°C 66% 1.3 mph N2.1 kmh N 9.4 mph15.1 kmh 29.67 in1004.7 mb 0.00 in0.0 mm 0.00 in0.0 mm 0.00 in0.0 mm
02:42 AM 41.2°F5.1°C 30.8°F-0.7°C 66% 0.9 mph NW1.4 kmh NW 9.4 mph15.1 kmh 29.67 in1004.7 mb 0.00 in0.0 mm 0.00 in0.0 mm 0.00 in0.0 mm
02:41 AM 41.0°F5.0°C 30.6°F-0.8°C 66% 0.8 mph E1.3 kmh E 9.4 mph15.1 kmh 29.67 in1004.7 mb 0.00 in0.0 mm 0.00 in0.0 mm 0.00 in0.0 mm
02:40 AM 41.0°F5.0°C 30.6°F-0.8°C 66% 0.7 mph E1.1 kmh E 9.4 mph15.1 kmh 29.68 in1005.1 mb 0.00 in0.0 mm 0.00 in0.0 mm 0.00 in0.0 mm
02:39 AM 41.2°F5.1°C 30.8°F-0.7°C 66% 0.9 mph N1.4 kmh N 9.4 mph15.1 kmh 29.67 in1004.7 mb 0.00 in0.0 mm 0.00 in0.0 mm 0.00 in0.0 mm
02:38 AM 41.2°F5.1°C 30.8°F-0.7°C 66% 1.1 mph NNW1.8 kmh NNW 9.4 mph15.1 kmh 29.67 in1004.7 mb 0.00 in0.0 mm 0.00 in0.0 mm 0.00 in0.0 mm
02:37 AM 41.2°F5.1°C 30.8°F-0.7°C 66% 2.9 mph E4.7 kmh E 9.4 mph15.1 kmh 29.68 in1005.1 mb 0.00 in0.0 mm 0.00 in0.0 mm 0.00 in0.0 mm
02:36 AM 41.2°F5.1°C 30.8°F-0.7°C 66% 2.8 mph ENE4.5 kmh ENE 9.4 mph15.1 kmh 29.67 in1004.7 mb 0.00 in0.0 mm 0.00 in0.0 mm 0.00 in0.0 mm
02:35 AM 41.2°F5.1°C 30.8°F-0.7°C 66% 1.9 mph NE3.1 kmh NE 5.4 mph8.7 kmh 29.67 in1004.7 mb 0.00 in0.0 mm 0.00 in0.0 mm 0.00 in0.0 mm
02:34 AM 41.2°F5.1°C 30.8°F-0.7°C 66% 2.2 mph NE3.5 kmh NE 5.4 mph8.7 kmh 29.67 in1004.7 mb 0.00 in0.0 mm 0.00 in0.0 mm 0.00 in0.0 mm
02:33 AM 41.2°F5.1°C 30.8°F-0.7°C 66% 2.6 mph ENE4.2 kmh ENE 5.4 mph8.7 kmh 29.68 in1005.1 mb 0.00 in0.0 mm 0.00 in0.0 mm 0.00 in0.0 mm
02:32 AM 41.2°F5.1°C 30.4°F-0.9°C 65% 2.7 mph N4.3 kmh N 5.4 mph8.7 kmh 29.68 in1005.1 mb 0.00 in0.0 mm 0.00 in0.0 mm 0.00 in0.0 mm
02:31 AM 41.2°F5.1°C 30.8°F-0.7°C 66% 1.4 mph N2.3 kmh N 3.1 mph5.0 kmh 29.68 in1005.1 mb 0.00 in0.0 mm 0.00 in0.0 mm 0.00 in0.0 mm
02:30 AM 41.2°F5.1°C 30.8°F-0.7°C 66% 0.6 mph N1.0 kmh N 2.3 mph3.7 kmh 29.68 in1005.1 mb 0.00 in0.0 mm 0.00 in0.0 mm 0.00 in0.0 mm
02:29 AM 41.2°F5.1°C 30.8°F-0.7°C 66% 0.6 mph W1.0 kmh W 2.3 mph3.7 kmh 29.68 in1005.1 mb 0.00 in0.0 mm 0.00 in0.0 mm 0.00 in0.0 mm
02:28 AM 41.2°F5.1°C 30.8°F-0.7°C 66% 0.6 mph S1.0 kmh S 2.3 mph3.7 kmh 29.68 in1005.1 mb 0.00 in0.0 mm 0.00 in0.0 mm 0.00 in0.0 mm
02:27 AM 41.2°F5.1°C 30.8°F-0.7°C 66% 0.8 mph SE1.3 kmh SE 2.3 mph3.7 kmh 29.68 in1005.1 mb 0.00 in0.0 mm 0.00 in0.0 mm 0.00 in0.0 mm
02:26 AM 41.2°F5.1°C 30.8°F-0.7°C 66% 1.0 mph E1.6 kmh E 2.3 mph3.7 kmh 29.68 in1005.1 mb 0.00 in0.0 mm 0.00 in0.0 mm 0.00 in0.0 mm
02:25 AM 41.2°F5.1°C 30.8°F-0.7°C 66% 1.2 mph NE1.9 kmh NE 3.1 mph5.0 kmh 29.68 in1005.1 mb 0.00 in0.0 mm 0.00 in0.0 mm 0.00 in0.0 mm
02:24 AM 41.2°F5.1°C 30.8°F-0.7°C 66% 0.9 mph NNE1.4 kmh NNE 3.1 mph5.0 kmh 29.69 in1005.4 mb 0.00 in0.0 mm 0.00 in0.0 mm 0.00 in0.0 mm
02:23 AM 41.2°F5.1°C 30.8°F-0.7°C 66% 0.6 mph N1.0 kmh N 3.1 mph5.0 kmh 29.69 in1005.4 mb 0.00 in0.0 mm 0.00 in0.0 mm 0.00 in0.0 mm
02:22 AM 41.2°F5.1°C 30.8°F-0.7°C 66% 0.9 mph NW1.4 kmh NW 3.1 mph5.0 kmh 29.69 in1005.4 mb 0.00 in0.0 mm 0.00 in0.0 mm 0.00 in0.0 mm
02:21 AM 41.2°F5.1°C 30.8°F-0.7°C 66% 1.2 mph S1.9 kmh S 5.1 mph8.2 kmh 29.69 in1005.4 mb 0.00 in0.0 mm 0.00 in0.0 mm 0.00 in0.0 mm
02:20 AM 41.2°F5.1°C 30.8°F-0.7°C 66% 1.0 mph SSE1.6 kmh SSE 5.1 mph8.2 kmh 29.69 in1005.4 mb 0.00 in0.0 mm 0.00 in0.0 mm 0.00 in0.0 mm
02:19 AM 41.2°F5.1°C 30.8°F-0.7°C 66% 0.8 mph ESE1.3 kmh ESE 5.1 mph8.2 kmh 29.69 in1005.4 mb 0.00 in0.0 mm 0.00 in0.0 mm 0.00 in0.0 mm
02:18 AM 41.2°F5.1°C 30.8°F-0.7°C 66% 0.8 mph ESE1.3 kmh ESE 5.1 mph8.2 kmh 29.69 in1005.4 mb 0.00 in0.0 mm 0.00 in0.0 mm 0.00 in0.0 mm
02:17 AM 41.0°F5.0°C 30.6°F-0.8°C 66% 1.1 mph NW1.8 kmh NW 5.1 mph8.2 kmh 29.69 in1005.4 mb 0.00 in0.0 mm 0.00 in0.0 mm 0.00 in0.0 mm
02:16 AM 41.0°F5.0°C 30.2°F-1.0°C 65% 1.3 mph NW2.1 kmh NW 5.1 mph8.2 kmh 29.69 in1005.4 mb 0.00 in0.0 mm 0.00 in0.0 mm 0.00 in0.0 mm
02:15 AM 41.2°F5.1°C 30.8°F-0.7°C 66% 0.8 mph NW1.3 kmh NW 5.1 mph8.2 kmh 29.69 in1005.4 mb 0.00 in0.0 mm 0.00 in0.0 mm 0.00 in0.0 mm
02:14 AM 41.0°F5.0°C 30.6°F-0.8°C 66% 0.5 mph S0.8 kmh S 5.1 mph8.2 kmh 29.69 in1005.4 mb 0.00 in0.0 mm 0.00 in0.0 mm 0.00 in0.0 mm
02:13 AM 41.0°F5.0°C 30.6°F-0.8°C 66% 1.2 mph NNW1.9 kmh NNW 5.1 mph8.2 kmh 29.69 in1005.4 mb 0.00 in0.0 mm 0.00 in0.0 mm 0.00 in0.0 mm
02:12 AM 41.0°F5.0°C 30.6°F-0.8°C 66% 2.7 mph 4.3 kmh 5.1 mph8.2 kmh 29.69 in1005.4 mb 0.00 in0.0 mm 0.00 in0.0 mm 0.00 in0.0 mm
02:11 AM 41.0°F5.0°C 30.6°F-0.8°C 66% 2.5 mph NE4.0 kmh NE 5.1 mph8.2 kmh 29.69 in1005.4 mb 0.00 in0.0 mm 0.00 in0.0 mm 0.00 in0.0 mm
02:10 AM 41.0°F5.0°C 30.6°F-0.8°C 66% 1.7 mph NE2.7 kmh NE 5.1 mph8.2 kmh 29.69 in1005.4 mb 0.00 in0.0 mm 0.00 in0.0 mm 0.00 in0.0 mm
02:09 AM 41.0°F5.0°C 30.6°F-0.8°C 66% 1.0 mph NW1.6 kmh NW 5.1 mph8.2 kmh 29.69 in1005.4 mb 0.00 in0.0 mm 0.00 in0.0 mm 0.00 in0.0 mm
02:08 AM 41.0°F5.0°C 30.6°F-0.8°C 66% 0.5 mph NNW0.8 kmh NNW 7.0 mph11.3 kmh 29.69 in1005.4 mb 0.00 in0.0 mm 0.00 in0.0 mm 0.00 in0.0 mm
02:07 AM 41.0°F5.0°C 30.2°F-1.0°C 65% 0.8 mph NE1.3 kmh NE 7.0 mph11.3 kmh 29.69 in1005.4 mb 0.00 in0.0 mm 0.00 in0.0 mm 0.00 in0.0 mm
02:06 AM 41.0°F5.0°C 30.2°F-1.0°C 65% 1.0 mph ENE1.6 kmh ENE 7.0 mph11.3 kmh 29.69 in1005.4 mb 0.00 in0.0 mm 0.00 in0.0 mm 0.00 in0.0 mm
02:05 AM 41.0°F5.0°C 30.6°F-0.8°C 66% 0.7 mph E1.1 kmh E 7.0 mph11.3 kmh 29.69 in1005.4 mb 0.00 in0.0 mm 0.00 in0.0 mm 0.00 in0.0 mm
02:04 AM 41.0°F5.0°C 30.6°F-0.8°C 66% 0.6 mph NE1.0 kmh NE 7.0 mph11.3 kmh 29.69 in1005.4 mb 0.00 in0.0 mm 0.00 in0.0 mm 0.00 in0.0 mm
02:03 AM 41.0°F5.0°C 30.6°F-0.8°C 66% 0.6 mph ENE1.0 kmh ENE 7.0 mph11.3 kmh 29.69 in1005.4 mb 0.00 in0.0 mm 0.00 in0.0 mm 0.00 in0.0 mm
02:02 AM 41.0°F5.0°C 30.6°F-0.8°C 66% 0.6 mph S1.0 kmh S 7.0 mph11.3 kmh 29.69 in1005.4 mb 0.00 in0.0 mm 0.00 in0.0 mm 0.00 in0.0 mm
02:01 AM 41.0°F5.0°C 30.2°F-1.0°C 65% 0.8 mph S1.3 kmh S 7.0 mph11.3 kmh 29.69 in1005.4 mb 0.00 in0.0 mm 0.00 in0.0 mm 0.00 in0.0 mm
02:00 AM 41.0°F5.0°C 30.6°F-0.8°C 66% 2.3 mph N3.7 kmh N 7.0 mph11.3 kmh 29.69 in1005.4 mb 0.00 in0.0 mm 0.00 in0.0 mm 0.00 in0.0 mm
01:59 AM 41.0°F5.0°C 30.6°F-0.8°C 66% 2.1 mph N3.4 kmh N 7.0 mph11.3 kmh 29.69 in1005.4 mb 0.00 in0.0 mm 0.00 in0.0 mm 0.00 in0.0 mm
01:58 AM 41.0°F5.0°C 30.6°F-0.8°C 66% 0.7 mph SE1.1 kmh SE 3.5 mph5.6 kmh 29.69 in1005.4 mb 0.00 in0.0 mm 0.00 in0.0 mm 0.00 in0.0 mm
01:57 AM 40.8°F4.9°C 30.4°F-0.9°C 66% 0.7 mph SE1.1 kmh SE 3.5 mph5.6 kmh 29.69 in1005.4 mb 0.00 in0.0 mm 0.00 in0.0 mm 0.00 in0.0 mm
01:56 AM 41.0°F5.0°C 30.6°F-0.8°C 66% 0.6 mph E1.0 kmh E 8.2 mph13.2 kmh 29.69 in1005.4 mb 0.00 in0.0 mm 0.00 in0.0 mm 0.00 in0.0 mm
01:55 AM 40.8°F4.9°C 30.4°F-0.9°C 66% 0.6 mph NE1.0 kmh NE 9.4 mph15.1 kmh 29.70 in1005.8 mb 0.00 in0.0 mm 0.00 in0.0 mm 0.00 in0.0 mm
01:54 AM 41.0°F5.0°C 30.6°F-0.8°C 66% 0.7 mph NNE1.1 kmh NNE 9.4 mph15.1 kmh 29.69 in1005.4 mb 0.00 in0.0 mm 0.00 in0.0 mm 0.00 in0.0 mm
01:53 AM 41.0°F5.0°C 30.6°F-0.8°C 66% 0.5 mph NNE0.8 kmh NNE 9.4 mph15.1 kmh 29.69 in1005.4 mb 0.00 in0.0 mm 0.00 in0.0 mm 0.00 in0.0 mm
01:52 AM 41.0°F5.0°C 30.6°F-0.8°C 66% 0.5 mph WNW0.8 kmh WNW 9.4 mph15.1 kmh 29.69 in1005.4 mb 0.00 in0.0 mm 0.00 in0.0 mm 0.00 in0.0 mm
01:51 AM 41.0°F5.0°C 30.2°F-1.0°C 65% 1.2 mph NE1.9 kmh NE 9.4 mph15.1 kmh 29.69 in1005.4 mb 0.00 in0.0 mm 0.00 in0.0 mm 0.00 in0.0 mm
01:50 AM 41.0°F5.0°C 30.6°F-0.8°C 66% 1.5 mph NE2.4 kmh NE 9.4 mph15.1 kmh 29.69 in1005.4 mb 0.00 in0.0 mm 0.00 in0.0 mm 0.00 in0.0 mm
01:49 AM 40.8°F4.9°C 30.4°F-0.9°C 66% 0.9 mph NE1.4 kmh NE 9.4 mph15.1 kmh 29.70 in1005.8 mb 0.00 in0.0 mm 0.00 in0.0 mm 0.00 in0.0 mm
01:48 AM 40.8°F4.9°C 30.4°F-0.9°C 66% 1.9 mph NNE3.1 kmh NNE 9.4 mph15.1 kmh 29.69 in1005.4 mb 0.00 in0.0 mm 0.00 in0.0 mm 0.00 in0.0 mm
01:47 AM 40.8°F4.9°C 30.4°F-0.9°C 66% 3.5 mph NNE5.6 kmh NNE 9.4 mph15.1 kmh 29.70 in1005.8 mb 0.00 in0.0 mm 0.00 in0.0 mm 0.00 in0.0 mm
01:46 AM 40.8°F4.9°C 30.1°F-1.1°C 65% 3.0 mph NNE4.8 kmh NNE 9.4 mph15.1 kmh 29.70 in1005.8 mb 0.00 in0.0 mm 0.00 in0.0 mm 0.00 in0.0 mm
01:45 AM 40.8°F4.9°C 30.4°F-0.9°C 66% 1.6 mph N2.6 kmh N 9.4 mph15.1 kmh 29.70 in1005.8 mb 0.00 in0.0 mm 0.00 in0.0 mm 0.00 in0.0 mm
01:44 AM 40.8°F4.9°C 30.4°F-0.9°C 66% 2.7 mph N4.3 kmh N 9.4 mph15.1 kmh 29.70 in1005.8 mb 0.00 in0.0 mm 0.00 in0.0 mm 0.00 in0.0 mm
01:43 AM 40.8°F4.9°C 30.4°F-0.9°C 66% 2.7 mph N4.3 kmh N 9.4 mph15.1 kmh 29.70 in1005.8 mb 0.00 in0.0 mm 0.00 in0.0 mm 0.00 in0.0 mm
01:42 AM 40.8°F4.9°C 30.4°F-0.9°C 66% 1.9 mph N3.1 kmh N 6.7 mph10.8 kmh 29.70 in1005.8 mb 0.00 in0.0 mm 0.00 in0.0 mm 0.00 in0.0 mm
01:41 AM 40.8°F4.9°C 30.4°F-0.9°C 66% 1.8 mph N2.9 kmh N 6.7 mph10.8 kmh 29.70 in1005.8 mb 0.00 in0.0 mm 0.00 in0.0 mm 0.00 in0.0 mm
01:40 AM 40.8°F4.9°C 30.4°F-0.9°C 66% 1.7 mph NNE2.7 kmh NNE 6.7 mph10.8 kmh 29.70 in1005.8 mb 0.00 in0.0 mm 0.00 in0.0 mm 0.00 in0.0 mm
01:39 AM 40.8°F4.9°C 30.4°F-0.9°C 66% 1.6 mph NE2.6 kmh NE 6.7 mph10.8 kmh 29.70 in1005.8 mb 0.00 in0.0 mm 0.00 in0.0 mm 0.00 in0.0 mm
01:38 AM 40.8°F4.9°C 30.4°F-0.9°C 66% 2.9 mph E4.7 kmh E 6.7 mph10.8 kmh 29.70 in1005.8 mb 0.00 in0.0 mm 0.00 in0.0 mm 0.00 in0.0 mm
01:37 AM 40.8°F4.9°C 30.4°F-0.9°C 66% 4.0 mph E6.4 kmh E 6.7 mph10.8 kmh 29.70 in1005.8 mb 0.00 in0.0 mm 0.00 in0.0 mm 0.00 in0.0 mm
01:36 AM 40.8°F4.9°C 30.4°F-0.9°C 66% 2.4 mph NE3.9 kmh NE 6.7 mph10.8 kmh 29.70 in1005.8 mb 0.00 in0.0 mm 0.00 in0.0 mm 0.00 in0.0 mm
01:35 AM 40.8°F4.9°C 30.4°F-0.9°C 66% 1.4 mph N2.3 kmh N 2.8 mph4.5 kmh 29.70 in1005.8 mb 0.00 in0.0 mm 0.00 in0.0 mm 0.00 in0.0 mm
01:34 AM 40.6°F4.8°C 30.3°F-0.9°C 66% 0.8 mph N1.3 kmh N 2.3 mph3.7 kmh 29.70 in1005.8 mb 0.00 in0.0 mm 0.00 in0.0 mm 0.00 in0.0 mm
01:33 AM 40.6°F4.8°C 30.3°F-0.9°C 66% 0.4 mph N0.6 kmh N 1.6 mph2.6 kmh 29.70 in1005.8 mb 0.00 in0.0 mm 0.00 in0.0 mm 0.00 in0.0 mm
01:32 AM 40.6°F4.8°C 30.3°F-0.9°C 66% 0.3 mph NNE0.5 kmh NNE 1.6 mph2.6 kmh 29.70 in1005.8 mb 0.00 in0.0 mm 0.00 in0.0 mm 0.00 in0.0 mm
01:31 AM 40.6°F4.8°C 30.3°F-0.9°C 66% 0.3 mph NE0.5 kmh NE 1.6 mph2.6 kmh 29.70 in1005.8 mb 0.00 in0.0 mm 0.00 in0.0 mm 0.00 in0.0 mm
01:30 AM 40.6°F4.8°C 30.3°F-0.9°C 66% 0.3 mph S0.5 kmh S 1.9 mph3.1 kmh 29.70 in1005.8 mb 0.00 in0.0 mm 0.00 in0.0 mm 0.00 in0.0 mm
01:29 AM 40.6°F4.8°C 30.3°F-0.9°C 66% 0.5 mph SW0.8 kmh SW 1.9 mph3.1 kmh 29.70 in1005.8 mb 0.00 in0.0 mm 0.00 in0.0 mm 0.00 in0.0 mm
01:28 AM 40.6°F4.8°C 30.3°F-0.9°C 66% 0.8 mph NW1.3 kmh NW 1.9 mph3.1 kmh 29.70 in1005.8 mb 0.00 in0.0 mm 0.00 in0.0 mm 0.00 in0.0 mm
01:27 AM 40.6°F4.8°C 29.9°F-1.2°C 65% 0.9 mph NW1.4 kmh NW 1.9 mph3.1 kmh 29.70 in1005.8 mb 0.00 in0.0 mm 0.00 in0.0 mm 0.00 in0.0 mm
01:26 AM 40.6°F4.8°C 29.9°F-1.2°C 65% 0.3 mph ESE0.5 kmh ESE 1.9 mph3.1 kmh 29.70 in1005.8 mb 0.00 in0.0 mm 0.00 in0.0 mm 0.00 in0.0 mm
01:25 AM 40.6°F4.8°C 30.3°F-0.9°C 66% 0.4 mph NNE0.6 kmh NNE 1.9 mph3.1 kmh 29.70 in1005.8 mb 0.00 in0.0 mm 0.00 in0.0 mm 0.00 in0.0 mm
01:24 AM 40.6°F4.8°C 30.3°F-0.9°C 66% 0.6 mph NE1.0 kmh NE 1.9 mph3.1 kmh 29.70 in1005.8 mb 0.00 in0.0 mm 0.00 in0.0 mm 0.00 in0.0 mm
01:23 AM 40.6°F4.8°C 30.3°F-0.9°C 66% 0.7 mph ENE1.1 kmh ENE 1.9 mph3.1 kmh 29.70 in1005.8 mb 0.00 in0.0 mm 0.00 in0.0 mm 0.00 in0.0 mm
01:22 AM 40.6°F4.8°C 29.9°F-1.2°C 65% 0.9 mph NNE1.4 kmh NNE 1.9 mph3.1 kmh 29.70 in1005.8 mb 0.00 in0.0 mm 0.00 in0.0 mm 0.00 in0.0 mm
01:21 AM 40.6°F4.8°C 29.9°F-1.2°C 65% 0.7 mph NNE1.1 kmh NNE 1.9 mph3.1 kmh 29.70 in1005.8 mb 0.00 in0.0 mm 0.00 in0.0 mm 0.00 in0.0 mm
01:20 AM 40.6°F4.8°C 29.9°F-1.2°C 65% 0.4 mph NE0.6 kmh NE 1.9 mph3.1 kmh 29.70 in1005.8 mb 0.00 in0.0 mm 0.00 in0.0 mm 0.00 in0.0 mm
01:19 AM 40.6°F4.8°C 29.9°F-1.2°C 65% 0.6 mph NE1.0 kmh NE 1.9 mph3.1 kmh 29.70 in1005.8 mb 0.00 in0.0 mm 0.00 in0.0 mm 0.00 in0.0 mm
01:18 AM 40.5°F4.7°C 29.8°F-1.2°C 65% 0.8 mph NNE1.3 kmh NNE 1.9 mph3.1 kmh 29.70 in1005.8 mb 0.00 in0.0 mm 0.00 in0.0 mm 0.00 in0.0 mm
01:17 AM 40.5°F4.7°C 29.8°F-1.2°C 65% 1.1 mph NNE1.8 kmh NNE 1.9 mph3.1 kmh 29.70 in1005.8 mb 0.00 in0.0 mm 0.00 in0.0 mm 0.00 in0.0 mm
01:16 AM 40.5°F4.7°C 29.8°F-1.2°C 65% 0.7 mph NNE1.1 kmh NNE 1.9 mph3.1 kmh 29.71 in1006.1 mb 0.00 in0.0 mm 0.00 in0.0 mm 0.00 in0.0 mm
01:15 AM 40.5°F4.7°C 29.8°F-1.2°C 65% 0.3 mph E0.5 kmh E 1.9 mph3.1 kmh 29.71 in1006.1 mb 0.00 in0.0 mm 0.00 in0.0 mm 0.00 in0.0 mm
01:14 AM 40.5°F4.7°C 29.8°F-1.2°C 65% 0.3 mph E0.5 kmh E 7.0 mph11.3 kmh 29.71 in1006.1 mb 0.00 in0.0 mm 0.00 in0.0 mm 0.00 in0.0 mm
01:13 AM 40.5°F4.7°C 29.8°F-1.2°C 65% 0.4 mph ESE0.6 kmh ESE 7.0 mph11.3 kmh 29.71 in1006.1 mb 0.00 in0.0 mm 0.00 in0.0 mm 0.00 in0.0 mm
01:12 AM 40.5°F4.7°C 29.8°F-1.2°C 65% 0.4 mph SE0.6 kmh SE 7.0 mph11.3 kmh 29.71 in1006.1 mb 0.00 in0.0 mm 0.00 in0.0 mm 0.00 in0.0 mm
01:11 AM 40.5°F4.7°C 29.8°F-1.2°C 65% 0.3 mph NNW0.5 kmh NNW 7.0 mph11.3 kmh 29.71 in1006.1 mb 0.00 in0.0 mm 0.00 in0.0 mm 0.00 in0.0 mm
01:10 AM 40.5°F4.7°C 29.8°F-1.2°C 65% 0.3 mph NNE0.5 kmh NNE 7.0 mph11.3 kmh 29.71 in1006.1 mb 0.00 in0.0 mm 0.00 in0.0 mm 0.00 in0.0 mm
01:09 AM 40.5°F4.7°C 29.8°F-1.2°C 65% 1.0 mph SSE1.6 kmh SSE 7.0 mph11.3 kmh 29.71 in1006.1 mb 0.00 in0.0 mm 0.00 in0.0 mm 0.00 in0.0 mm
01:08 AM 40.5°F4.7°C 29.8°F-1.2°C 65% 0.8 mph SSE1.3 kmh SSE 7.0 mph11.3 kmh 29.71 in1006.1 mb 0.00 in0.0 mm 0.00 in0.0 mm 0.00 in0.0 mm
01:07 AM 40.5°F4.7°C 29.8°F-1.2°C 65% 0.3 mph NNW0.5 kmh NNW 7.0 mph11.3 kmh 29.71 in1006.1 mb 0.00 in0.0 mm 0.00 in0.0 mm 0.00 in0.0 mm
01:06 AM 40.4°F4.7°C 29.6°F-1.3°C 65% 0.6 mph NE1.0 kmh NE 7.0 mph11.3 kmh 29.71 in1006.1 mb 0.00 in0.0 mm 0.00 in0.0 mm 0.00 in0.0 mm
01:05 AM 40.4°F4.7°C 29.6°F-1.3°C 65% 1.3 mph ENE2.1 kmh ENE 7.0 mph11.3 kmh 29.71 in1006.1 mb 0.00 in0.0 mm 0.00 in0.0 mm 0.00 in0.0 mm
01:04 AM 40.4°F4.7°C 29.6°F-1.3°C 65% 1.0 mph E1.6 kmh E 7.0 mph11.3 kmh 29.71 in1006.1 mb 0.00 in0.0 mm 0.00 in0.0 mm 0.00 in0.0 mm
01:03 AM 40.4°F4.7°C 29.6°F-1.3°C 65% 0.7 mph ESE1.1 kmh ESE 8.2 mph13.2 kmh 29.71 in1006.1 mb 0.00 in0.0 mm 0.00 in0.0 mm 0.00 in0.0 mm
01:02 AM 40.4°F4.7°C 29.2°F-1.6°C 64% 0.6 mph E1.0 kmh E 8.2 mph13.2 kmh 29.71 in1006.1 mb 0.00 in0.0 mm 0.00 in0.0 mm 0.00 in0.0 mm
01:01 AM 40.4°F4.7°C 29.2°F-1.6°C 64% 0.9 mph NE1.4 kmh NE 8.2 mph13.2 kmh 29.71 in1006.1 mb 0.00 in0.0 mm 0.00 in0.0 mm 0.00 in0.0 mm
01:00 AM 40.4°F4.7°C 29.2°F-1.6°C 64% 1.1 mph ENE1.8 kmh ENE 8.2 mph13.2 kmh 29.71 in1006.1 mb 0.00 in0.0 mm 0.00 in0.0 mm 0.00 in0.0 mm
12:59 AM 40.4°F4.7°C 29.2°F-1.6°C 64% 0.8 mph E1.3 kmh E 8.2 mph13.2 kmh 29.71 in1006.1 mb 0.00 in0.0 mm 0.00 in0.0 mm 0.00 in0.0 mm
12:58 AM 40.2°F4.6°C 29.0°F-1.7°C 64% 0.9 mph ENE1.4 kmh ENE 8.2 mph13.2 kmh 29.71 in1006.1 mb 0.00 in0.0 mm 0.00 in0.0 mm 0.00 in0.0 mm
12:57 AM 40.4°F4.7°C 29.6°F-1.3°C 65% 0.9 mph ENE1.4 kmh ENE 8.2 mph13.2 kmh 29.71 in1006.1 mb 0.00 in0.0 mm 0.00 in0.0 mm 0.00 in0.0 mm
12:56 AM 40.2°F4.6°C 29.0°F-1.7°C 64% 0.6 mph ENE1.0 kmh ENE 8.2 mph13.2 kmh 29.71 in1006.1 mb 0.00 in0.0 mm 0.00 in0.0 mm 0.00 in0.0 mm
12:55 AM 40.2°F4.6°C 29.0°F-1.7°C 64% 1.9 mph E3.1 kmh E 8.2 mph13.2 kmh 29.71 in1006.1 mb 0.00 in0.0 mm 0.00 in0.0 mm 0.00 in0.0 mm
12:54 AM 40.2°F4.6°C 29.4°F-1.4°C 65% 3.2 mph E5.1 kmh E 8.2 mph13.2 kmh 29.71 in1006.1 mb 0.00 in0.0 mm 0.00 in0.0 mm 0.00 in0.0 mm
12:53 AM 40.2°F4.6°C 29.0°F-1.7°C 64% 2.6 mph E4.2 kmh E 8.2 mph13.2 kmh 29.71 in1006.1 mb 0.00 in0.0 mm 0.00 in0.0 mm 0.00 in0.0 mm
12:52 AM 40.2°F4.6°C 29.0°F-1.7°C 64% 1.7 mph E2.7 kmh E 7.5 mph12.1 kmh 29.71 in1006.1 mb 0.00 in0.0 mm 0.00 in0.0 mm 0.00 in0.0 mm
12:51 AM 40.2°F4.6°C 29.0°F-1.7°C 64% 2.0 mph ENE3.2 kmh ENE 7.5 mph12.1 kmh 29.71 in1006.1 mb 0.00 in0.0 mm 0.00 in0.0 mm 0.00 in0.0 mm
12:50 AM 40.0°F4.4°C 28.8°F-1.8°C 64% 3.4 mph E5.5 kmh E 7.5 mph12.1 kmh 29.71 in1006.1 mb 0.00 in0.0 mm 0.00 in0.0 mm 0.00 in0.0 mm
12:49 AM 40.2°F4.6°C 29.0°F-1.7°C 64% 2.8 mph E4.5 kmh E 7.5 mph12.1 kmh 29.71 in1006.1 mb 0.00 in0.0 mm 0.00 in0.0 mm 0.00 in0.0 mm
12:48 AM 40.2°F4.6°C 29.0°F-1.7°C 64% 2.2 mph E3.5 kmh E 7.5 mph12.1 kmh 29.71 in1006.1 mb 0.00 in0.0 mm 0.00 in0.0 mm 0.00 in0.0 mm
12:47 AM 40.2°F4.6°C 29.0°F-1.7°C 64% 3.3 mph E5.3 kmh E 7.5 mph12.1 kmh 29.71 in1006.1 mb 0.00 in0.0 mm 0.00 in0.0 mm 0.00 in0.0 mm
12:46 AM 40.2°F4.6°C 29.4°F-1.4°C 65% 3.4 mph E5.5 kmh E 7.5 mph12.1 kmh 29.71 in1006.1 mb 0.00 in0.0 mm 0.00 in0.0 mm 0.00 in0.0 mm
12:45 AM 40.0°F4.4°C 28.8°F-1.8°C 64% 2.5 mph E4.0 kmh E 7.0 mph11.3 kmh 29.71 in1006.1 mb 0.00 in0.0 mm 0.00 in0.0 mm 0.00 in0.0 mm
12:44 AM 40.0°F4.4°C 29.2°F-1.6°C 65% 3.3 mph E5.3 kmh E 7.0 mph11.3 kmh 29.71 in1006.1 mb 0.00 in0.0 mm 0.00 in0.0 mm 0.00 in0.0 mm
12:43 AM 40.0°F4.4°C 28.8°F-1.8°C 64% 2.8 mph E4.5 kmh E 7.0 mph11.3 kmh 29.71 in1006.1 mb 0.00 in0.0 mm 0.00 in0.0 mm 0.00 in0.0 mm
12:42 AM 39.8°F4.3°C 28.7°F-1.8°C 64% 1.6 mph NE2.6 kmh NE 7.0 mph11.3 kmh 29.71 in1006.1 mb 0.00 in0.0 mm 0.00 in0.0 mm 0.00 in0.0 mm
12:41 AM 39.8°F4.3°C 28.7°F-1.8°C 64% 2.7 mph ENE4.3 kmh ENE 6.7 mph10.8 kmh 29.71 in1006.1 mb 0.00 in0.0 mm 0.00 in0.0 mm 0.00 in0.0 mm
12:40 AM 39.8°F4.3°C 29.0°F-1.7°C 65% 2.7 mph ESE4.3 kmh ESE 6.7 mph10.8 kmh 29.71 in1006.1 mb 0.00 in0.0 mm 0.00 in0.0 mm 0.00 in0.0 mm
12:39 AM 39.8°F4.3°C 29.0°F-1.7°C 65% 1.5 mph ESE2.4 kmh ESE 4.4 mph7.1 kmh 29.71 in1006.1 mb 0.00 in0.0 mm 0.00 in0.0 mm 0.00 in0.0 mm
12:38 AM 39.8°F4.3°C 29.0°F-1.7°C 65% 0.8 mph E1.3 kmh E 3.1 mph5.0 kmh 29.71 in1006.1 mb 0.00 in0.0 mm 0.00 in0.0 mm 0.00 in0.0 mm
12:37 AM 39.8°F4.3°C 29.0°F-1.7°C 65% 1.1 mph SE1.8 kmh SE 3.1 mph5.0 kmh 29.71 in1006.1 mb 0.00 in0.0 mm 0.00 in0.0 mm 0.00 in0.0 mm
12:36 AM 39.8°F4.3°C 29.0°F-1.7°C 65% 1.3 mph SE2.1 kmh SE 3.1 mph5.0 kmh 29.71 in1006.1 mb 0.00 in0.0 mm 0.00 in0.0 mm 0.00 in0.0 mm
12:35 AM 39.8°F4.3°C 29.0°F-1.7°C 65% 0.6 mph ESE1.0 kmh ESE 8.2 mph13.2 kmh 29.71 in1006.1 mb 0.00 in0.0 mm 0.00 in0.0 mm 0.00 in0.0 mm
12:34 AM 39.8°F4.3°C 29.0°F-1.7°C 65% 0.5 mph E0.8 kmh E 8.2 mph13.2 kmh 29.71 in1006.1 mb 0.00 in0.0 mm 0.00 in0.0 mm 0.00 in0.0 mm
12:33 AM 39.8°F4.3°C 29.0°F-1.7°C 65% 0.6 mph E1.0 kmh E 8.2 mph13.2 kmh 29.71 in1006.1 mb 0.00 in0.0 mm 0.00 in0.0 mm 0.00 in0.0 mm
12:32 AM 39.8°F4.3°C 29.0°F-1.7°C 65% 0.5 mph E0.8 kmh E 8.2 mph13.2 kmh 29.71 in1006.1 mb 0.00 in0.0 mm 0.00 in0.0 mm 0.00 in0.0 mm
12:31 AM 39.7°F4.3°C 29.0°F-1.7°C 65% 0.4 mph ENE0.6 kmh ENE 8.2 mph13.2 kmh 29.71 in1006.1 mb 0.00 in0.0 mm 0.00 in0.0 mm 0.00 in0.0 mm
12:30 AM 39.7°F4.3°C 29.0°F-1.7°C 65% 0.5 mph NE0.8 kmh NE 8.2 mph13.2 kmh 29.71 in1006.1 mb 0.00 in0.0 mm 0.00 in0.0 mm 0.00 in0.0 mm
12:29 AM 39.7°F4.3°C 29.0°F-1.7°C 65% 1.3 mph NE2.1 kmh NE 8.2 mph13.2 kmh 29.71 in1006.1 mb 0.00 in0.0 mm 0.00 in0.0 mm 0.00 in0.0 mm
12:28 AM 39.7°F4.3°C 29.0°F-1.7°C 65% 1.6 mph ENE2.6 kmh ENE 8.2 mph13.2 kmh 29.71 in1006.1 mb 0.00 in0.0 mm 0.00 in0.0 mm 0.00 in0.0 mm
12:27 AM 39.7°F4.3°C 29.0°F-1.7°C 65% 2.6 mph ENE4.2 kmh ENE 8.2 mph13.2 kmh 29.71 in1006.1 mb 0.00 in0.0 mm 0.00 in0.0 mm 0.00 in0.0 mm
12:26 AM 39.7°F4.3°C 29.0°F-1.7°C 65% 3.5 mph E5.6 kmh E 8.2 mph13.2 kmh 29.71 in1006.1 mb 0.00 in0.0 mm 0.00 in0.0 mm 0.00 in0.0 mm
12:25 AM 39.7°F4.3°C 29.0°F-1.7°C 65% 2.5 mph E4.0 kmh E 8.2 mph13.2 kmh 29.71 in1006.1 mb 0.00 in0.0 mm 0.00 in0.0 mm 0.00 in0.0 mm
12:24 AM 39.7°F4.3°C 29.0°F-1.7°C 65% 1.8 mph ENE2.9 kmh ENE 7.0 mph11.3 kmh 29.72 in1006.4 mb 0.00 in0.0 mm 0.00 in0.0 mm 0.00 in0.0 mm
12:23 AM 39.5°F4.2°C 28.8°F-1.8°C 65% 2.7 mph NE4.3 kmh NE 7.0 mph11.3 kmh 29.71 in1006.1 mb 0.00 in0.0 mm 0.00 in0.0 mm 0.00 in0.0 mm
12:22 AM 39.5°F4.2°C 28.8°F-1.8°C 65% 2.8 mph ENE4.5 kmh ENE 7.0 mph11.3 kmh 29.71 in1006.1 mb 0.00 in0.0 mm 0.00 in0.0 mm 0.00 in0.0 mm
12:21 AM 39.5°F4.2°C 29.1°F-1.6°C 66% 1.4 mph E2.3 kmh E 6.0 mph9.7 kmh 29.71 in1006.1 mb 0.00 in0.0 mm 0.00 in0.0 mm 0.00 in0.0 mm
12:20 AM 39.5°F4.2°C 29.1°F-1.6°C 66% 1.3 mph E2.1 kmh E 6.0 mph9.7 kmh 29.71 in1006.1 mb 0.00 in0.0 mm 0.00 in0.0 mm 0.00 in0.0 mm
12:19 AM 39.5°F4.2°C 29.1°F-1.6°C 66% 1.4 mph ENE2.3 kmh ENE 6.0 mph9.7 kmh 29.71 in1006.1 mb 0.00 in0.0 mm 0.00 in0.0 mm 0.00 in0.0 mm
12:18 AM 39.5°F4.2°C 29.1°F-1.6°C 66% 1.2 mph NE1.9 kmh NE 6.0 mph9.7 kmh 29.71 in1006.1 mb 0.00 in0.0 mm 0.00 in0.0 mm 0.00 in0.0 mm
12:17 AM 39.5°F4.2°C 29.1°F-1.6°C 66% 1.5 mph ENE2.4 kmh ENE 6.0 mph9.7 kmh 29.71 in1006.1 mb 0.00 in0.0 mm 0.00 in0.0 mm 0.00 in0.0 mm
12:16 AM 39.5°F4.2°C 29.1°F-1.6°C 66% 2.4 mph E3.9 kmh E 6.0 mph9.7 kmh 29.71 in1006.1 mb 0.00 in0.0 mm 0.00 in0.0 mm 0.00 in0.0 mm
12:15 AM 39.5°F4.2°C 29.5°F-1.4°C 67% 2.5 mph E4.0 kmh E 6.0 mph9.7 kmh 29.71 in1006.1 mb 0.00 in0.0 mm 0.00 in0.0 mm 0.00 in0.0 mm
12:14 AM 39.5°F4.2°C 29.5°F-1.4°C 67% 1.5 mph NE2.4 kmh NE 5.1 mph8.2 kmh 29.71 in1006.1 mb 0.00 in0.0 mm 0.00 in0.0 mm 0.00 in0.0 mm
12:13 AM 39.5°F4.2°C 29.5°F-1.4°C 67% 1.0 mph E1.6 kmh E 5.1 mph8.2 kmh 29.71 in1006.1 mb 0.00 in0.0 mm 0.00 in0.0 mm 0.00 in0.0 mm
12:12 AM 39.5°F4.2°C 29.5°F-1.4°C 67% 0.7 mph E1.1 kmh E 7.9 mph12.7 kmh 29.71 in1006.1 mb 0.00 in0.0 mm 0.00 in0.0 mm 0.00 in0.0 mm
12:11 AM 39.5°F4.2°C 29.5°F-1.4°C 67% 0.8 mph E1.3 kmh E 7.9 mph12.7 kmh 29.71 in1006.1 mb 0.00 in0.0 mm 0.00 in0.0 mm 0.00 in0.0 mm
12:10 AM 39.5°F4.2°C 29.5°F-1.4°C 67% 1.1 mph E1.8 kmh E 7.9 mph12.7 kmh 29.71 in1006.1 mb 0.00 in0.0 mm 0.00 in0.0 mm 0.00 in0.0 mm
12:09 AM 39.5°F4.2°C 29.1°F-1.6°C 66% 2.4 mph E3.9 kmh E 7.9 mph12.7 kmh 29.71 in1006.1 mb 0.00 in0.0 mm 0.00 in0.0 mm 0.00 in0.0 mm
12:08 AM 39.5°F4.2°C 29.5°F-1.4°C 67% 2.1 mph E3.4 kmh E 7.9 mph12.7 kmh 29.71 in1006.1 mb 0.00 in0.0 mm 0.00 in0.0 mm 0.00 in0.0 mm
12:07 AM 39.5°F4.2°C 29.5°F-1.4°C 67% 0.7 mph NE1.1 kmh NE 7.9 mph12.7 kmh 29.71 in1006.1 mb 0.00 in0.0 mm 0.00 in0.0 mm 0.00 in0.0 mm
12:06 AM 39.5°F4.2°C 29.5°F-1.4°C 67% 0.5 mph NNE0.8 kmh NNE 7.9 mph12.7 kmh 29.71 in1006.1 mb 0.00 in0.0 mm 0.00 in0.0 mm 0.00 in0.0 mm
12:05 AM 39.5°F4.2°C 29.5°F-1.4°C 67% 1.1 mph NE1.8 kmh NE 7.9 mph12.7 kmh 29.71 in1006.1 mb 0.00 in0.0 mm 0.00 in0.0 mm 0.00 in0.0 mm
12:04 AM 39.5°F4.2°C 29.1°F-1.6°C 66% 3.1 mph ENE5.0 kmh ENE 7.9 mph12.7 kmh 29.71 in1006.1 mb 0.00 in0.0 mm 0.00 in0.0 mm 0.00 in0.0 mm
12:03 AM 39.5°F4.2°C 29.1°F-1.6°C 66% 2.5 mph ENE4.0 kmh ENE 7.9 mph12.7 kmh 29.71 in1006.1 mb 0.00 in0.0 mm 0.00 in0.0 mm 0.00 in0.0 mm
12:02 AM 39.5°F4.2°C 29.5°F-1.4°C 67% 1.3 mph NE2.1 kmh NE 6.0 mph9.7 kmh 29.71 in1006.1 mb 0.00 in0.0 mm 0.00 in0.0 mm 0.00 in0.0 mm
12:01 AM 39.5°F4.2°C 29.5°F-1.4°C 67% 1.6 mph NE2.6 kmh NE 6.0 mph9.7 kmh 29.71 in1006.1 mb 0.00 in0.0 mm 0.00 in0.0 mm 0.00 in0.0 mm
12:00 AM 39.5°F4.2°C 29.5°F-1.4°C 67% 1.1 mph NE1.8 kmh NE 6.0 mph9.7 kmh 29.71 in1006.1 mb 0.00 in0.0 mm 0.00 in0.0 mm 0.00 in0.0 mm